<?xml version="1.0" encoding="UTF-8" standalone="no" ?>
<gpx xmlns="http://www.topografix.com/GPX/1/1" xmlns:xsi="http://www.w3.org/2001/XMLSchema-instance" xsi:schemaLocation="http://www.topografix.com/GPX/1/1 http://www.topografix.com/GPX/1/1/gpx.xsd" version="1.1" creator="VisuGPX - https://www.visugpx.com">
  <metadata>
    <name>sortie du 09/09/17</name>
    <desc><![CDATA[petite reprise en vtt très boueuse!!!]]></desc>
  </metadata>
  <trk>
    <name><![CDATA[Tracé actuel: 09 SEPT 2017 14:16]]></name>
    <trkseg>
      <trkpt lat="43.35222" lon="-0.55326">
        <ele>119.34</ele>
        <time>2017-09-09T12:16:38Z</time>
      </trkpt>
      <trkpt lat="43.35222" lon="-0.55327">
        <ele>118.38</ele>
        <time>2017-09-09T12:16:45Z</time>
      </trkpt>
      <trkpt lat="43.35222" lon="-0.55306">
        <ele>118.38</ele>
        <time>2017-09-09T12:16:54Z</time>
      </trkpt>
      <trkpt lat="43.35212" lon="-0.55222">
        <ele>117.9</ele>
        <time>2017-09-09T12:17:13Z</time>
      </trkpt>
      <trkpt lat="43.35183" lon="-0.5517">
        <ele>120.3</ele>
        <time>2017-09-09T12:17:25Z</time>
      </trkpt>
      <trkpt lat="43.3518" lon="-0.55166">
        <ele>120.3</ele>
        <time>2017-09-09T12:17:26Z</time>
      </trkpt>
      <trkpt lat="43.35156" lon="-0.55133">
        <ele>120.78</ele>
        <time>2017-09-09T12:17:34Z</time>
      </trkpt>
      <trkpt lat="43.35148" lon="-0.55127">
        <ele>120.78</ele>
        <time>2017-09-09T12:17:36Z</time>
      </trkpt>
      <trkpt lat="43.35144" lon="-0.55124">
        <ele>120.78</ele>
        <time>2017-09-09T12:17:37Z</time>
      </trkpt>
      <trkpt lat="43.3512" lon="-0.55113">
        <ele>120.3</ele>
        <time>2017-09-09T12:17:43Z</time>
      </trkpt>
      <trkpt lat="43.35115" lon="-0.55112">
        <ele>119.82</ele>
        <time>2017-09-09T12:17:44Z</time>
      </trkpt>
      <trkpt lat="43.35111" lon="-0.5511">
        <ele>119.82</ele>
        <time>2017-09-09T12:17:45Z</time>
      </trkpt>
      <trkpt lat="43.35098" lon="-0.55104">
        <ele>119.34</ele>
        <time>2017-09-09T12:17:48Z</time>
      </trkpt>
      <trkpt lat="43.35084" lon="-0.55095">
        <ele>119.34</ele>
        <time>2017-09-09T12:17:51Z</time>
      </trkpt>
      <trkpt lat="43.35046" lon="-0.55075">
        <ele>117.42</ele>
        <time>2017-09-09T12:17:59Z</time>
      </trkpt>
      <trkpt lat="43.35037" lon="-0.55068">
        <ele>117.42</ele>
        <time>2017-09-09T12:18:01Z</time>
      </trkpt>
      <trkpt lat="43.35003" lon="-0.55028">
        <ele>116.94</ele>
        <time>2017-09-09T12:18:10Z</time>
      </trkpt>
      <trkpt lat="43.34982" lon="-0.55002">
        <ele>117.42</ele>
        <time>2017-09-09T12:18:16Z</time>
      </trkpt>
      <trkpt lat="43.3498" lon="-0.54997">
        <ele>117.42</ele>
        <time>2017-09-09T12:18:17Z</time>
      </trkpt>
      <trkpt lat="43.34977" lon="-0.54992">
        <ele>117.42</ele>
        <time>2017-09-09T12:18:18Z</time>
      </trkpt>
      <trkpt lat="43.34951" lon="-0.5494">
        <ele>118.86</ele>
        <time>2017-09-09T12:18:28Z</time>
      </trkpt>
      <trkpt lat="43.34948" lon="-0.54936">
        <ele>118.86</ele>
        <time>2017-09-09T12:18:29Z</time>
      </trkpt>
      <trkpt lat="43.34909" lon="-0.54904">
        <ele>121.26</ele>
        <time>2017-09-09T12:18:40Z</time>
      </trkpt>
      <trkpt lat="43.34891" lon="-0.54897">
        <ele>120.78</ele>
        <time>2017-09-09T12:18:44Z</time>
      </trkpt>
      <trkpt lat="43.34856" lon="-0.54889">
        <ele>119.34</ele>
        <time>2017-09-09T12:18:51Z</time>
      </trkpt>
      <trkpt lat="43.34852" lon="-0.54887">
        <ele>119.34</ele>
        <time>2017-09-09T12:18:52Z</time>
      </trkpt>
      <trkpt lat="43.34848" lon="-0.54884">
        <ele>119.34</ele>
        <time>2017-09-09T12:18:53Z</time>
      </trkpt>
      <trkpt lat="43.34844" lon="-0.5488">
        <ele>119.34</ele>
        <time>2017-09-09T12:18:54Z</time>
      </trkpt>
      <trkpt lat="43.34841" lon="-0.54876">
        <ele>118.86</ele>
        <time>2017-09-09T12:18:55Z</time>
      </trkpt>
      <trkpt lat="43.34838" lon="-0.54871">
        <ele>118.86</ele>
        <time>2017-09-09T12:18:56Z</time>
      </trkpt>
      <trkpt lat="43.34835" lon="-0.54866">
        <ele>118.86</ele>
        <time>2017-09-09T12:18:57Z</time>
      </trkpt>
      <trkpt lat="43.34832" lon="-0.54859">
        <ele>118.86</ele>
        <time>2017-09-09T12:18:58Z</time>
      </trkpt>
      <trkpt lat="43.34831" lon="-0.54853">
        <ele>118.86</ele>
        <time>2017-09-09T12:18:59Z</time>
      </trkpt>
      <trkpt lat="43.3483" lon="-0.54846">
        <ele>119.34</ele>
        <time>2017-09-09T12:19:00Z</time>
      </trkpt>
      <trkpt lat="43.3483" lon="-0.5484">
        <ele>119.34</ele>
        <time>2017-09-09T12:19:01Z</time>
      </trkpt>
      <trkpt lat="43.34831" lon="-0.54835">
        <ele>119.34</ele>
        <time>2017-09-09T12:19:02Z</time>
      </trkpt>
      <trkpt lat="43.34832" lon="-0.5483">
        <ele>119.34</ele>
        <time>2017-09-09T12:19:03Z</time>
      </trkpt>
      <trkpt lat="43.34833" lon="-0.54826">
        <ele>119.82</ele>
        <time>2017-09-09T12:19:04Z</time>
      </trkpt>
      <trkpt lat="43.34834" lon="-0.54821">
        <ele>119.82</ele>
        <time>2017-09-09T12:19:05Z</time>
      </trkpt>
      <trkpt lat="43.34835" lon="-0.54817">
        <ele>120.3</ele>
        <time>2017-09-09T12:19:06Z</time>
      </trkpt>
      <trkpt lat="43.34836" lon="-0.54812">
        <ele>120.3</ele>
        <time>2017-09-09T12:19:07Z</time>
      </trkpt>
      <trkpt lat="43.34837" lon="-0.54809">
        <ele>120.3</ele>
        <time>2017-09-09T12:19:08Z</time>
      </trkpt>
      <trkpt lat="43.3484" lon="-0.54802">
        <ele>120.78</ele>
        <time>2017-09-09T12:19:10Z</time>
      </trkpt>
      <trkpt lat="43.34842" lon="-0.54799">
        <ele>120.78</ele>
        <time>2017-09-09T12:19:11Z</time>
      </trkpt>
      <trkpt lat="43.34844" lon="-0.54796">
        <ele>120.78</ele>
        <time>2017-09-09T12:19:12Z</time>
      </trkpt>
      <trkpt lat="43.34846" lon="-0.54794">
        <ele>121.26</ele>
        <time>2017-09-09T12:19:13Z</time>
      </trkpt>
      <trkpt lat="43.34849" lon="-0.54792">
        <ele>121.26</ele>
        <time>2017-09-09T12:19:14Z</time>
      </trkpt>
      <trkpt lat="43.34851" lon="-0.5479">
        <ele>121.74</ele>
        <time>2017-09-09T12:19:15Z</time>
      </trkpt>
      <trkpt lat="43.34885" lon="-0.54757">
        <ele>127.03</ele>
        <time>2017-09-09T12:19:30Z</time>
      </trkpt>
      <trkpt lat="43.34908" lon="-0.54714">
        <ele>129.92</ele>
        <time>2017-09-09T12:19:44Z</time>
      </trkpt>
      <trkpt lat="43.34924" lon="-0.54668">
        <ele>131.84</ele>
        <time>2017-09-09T12:19:57Z</time>
      </trkpt>
      <trkpt lat="43.34933" lon="-0.54649">
        <ele>134.24</ele>
        <time>2017-09-09T12:20:04Z</time>
      </trkpt>
      <trkpt lat="43.34934" lon="-0.54648">
        <ele>134.24</ele>
        <time>2017-09-09T12:20:05Z</time>
      </trkpt>
      <trkpt lat="43.3495" lon="-0.54635">
        <ele>138.09</ele>
        <time>2017-09-09T12:20:18Z</time>
      </trkpt>
      <trkpt lat="43.34963" lon="-0.54635">
        <ele>140.49</ele>
        <time>2017-09-09T12:20:27Z</time>
      </trkpt>
      <trkpt lat="43.34964" lon="-0.54635">
        <ele>140.97</ele>
        <time>2017-09-09T12:20:28Z</time>
      </trkpt>
      <trkpt lat="43.34966" lon="-0.54635">
        <ele>140.97</ele>
        <time>2017-09-09T12:20:29Z</time>
      </trkpt>
      <trkpt lat="43.34967" lon="-0.54635">
        <ele>141.45</ele>
        <time>2017-09-09T12:20:30Z</time>
      </trkpt>
      <trkpt lat="43.34969" lon="-0.54635">
        <ele>141.45</ele>
        <time>2017-09-09T12:20:31Z</time>
      </trkpt>
      <trkpt lat="43.3499" lon="-0.54639">
        <ele>142.89</ele>
        <time>2017-09-09T12:20:45Z</time>
      </trkpt>
      <trkpt lat="43.35013" lon="-0.54643">
        <ele>145.78</ele>
        <time>2017-09-09T12:20:59Z</time>
      </trkpt>
      <trkpt lat="43.35038" lon="-0.54647">
        <ele>149.14</ele>
        <time>2017-09-09T12:21:16Z</time>
      </trkpt>
      <trkpt lat="43.35064" lon="-0.5465">
        <ele>151.06</ele>
        <time>2017-09-09T12:21:32Z</time>
      </trkpt>
      <trkpt lat="43.35078" lon="-0.54654">
        <ele>152.03</ele>
        <time>2017-09-09T12:21:42Z</time>
      </trkpt>
      <trkpt lat="43.3508" lon="-0.54654">
        <ele>152.51</ele>
        <time>2017-09-09T12:21:43Z</time>
      </trkpt>
      <trkpt lat="43.35081" lon="-0.54655">
        <ele>152.51</ele>
        <time>2017-09-09T12:21:44Z</time>
      </trkpt>
      <trkpt lat="43.35082" lon="-0.54656">
        <ele>152.51</ele>
        <time>2017-09-09T12:21:45Z</time>
      </trkpt>
      <trkpt lat="43.35083" lon="-0.54656">
        <ele>152.51</ele>
        <time>2017-09-09T12:21:46Z</time>
      </trkpt>
      <trkpt lat="43.35085" lon="-0.54657">
        <ele>152.99</ele>
        <time>2017-09-09T12:21:47Z</time>
      </trkpt>
      <trkpt lat="43.35086" lon="-0.54657">
        <ele>152.99</ele>
        <time>2017-09-09T12:21:48Z</time>
      </trkpt>
      <trkpt lat="43.35087" lon="-0.54658">
        <ele>153.47</ele>
        <time>2017-09-09T12:21:49Z</time>
      </trkpt>
      <trkpt lat="43.35089" lon="-0.54658">
        <ele>153.95</ele>
        <time>2017-09-09T12:21:50Z</time>
      </trkpt>
      <trkpt lat="43.3509" lon="-0.54658">
        <ele>153.95</ele>
        <time>2017-09-09T12:21:51Z</time>
      </trkpt>
      <trkpt lat="43.35091" lon="-0.54658">
        <ele>154.43</ele>
        <time>2017-09-09T12:21:52Z</time>
      </trkpt>
      <trkpt lat="43.35093" lon="-0.54658">
        <ele>154.91</ele>
        <time>2017-09-09T12:21:53Z</time>
      </trkpt>
      <trkpt lat="43.35094" lon="-0.54658">
        <ele>155.39</ele>
        <time>2017-09-09T12:21:54Z</time>
      </trkpt>
      <trkpt lat="43.35095" lon="-0.54658">
        <ele>155.39</ele>
        <time>2017-09-09T12:21:55Z</time>
      </trkpt>
      <trkpt lat="43.35096" lon="-0.54658">
        <ele>155.87</ele>
        <time>2017-09-09T12:21:56Z</time>
      </trkpt>
      <trkpt lat="43.35098" lon="-0.54658">
        <ele>155.87</ele>
        <time>2017-09-09T12:21:57Z</time>
      </trkpt>
      <trkpt lat="43.35099" lon="-0.54657">
        <ele>156.35</ele>
        <time>2017-09-09T12:21:58Z</time>
      </trkpt>
      <trkpt lat="43.35101" lon="-0.54655">
        <ele>156.35</ele>
        <time>2017-09-09T12:21:59Z</time>
      </trkpt>
      <trkpt lat="43.35103" lon="-0.54653">
        <ele>156.83</ele>
        <time>2017-09-09T12:22:00Z</time>
      </trkpt>
      <trkpt lat="43.3512" lon="-0.54632">
        <ele>156.83</ele>
        <time>2017-09-09T12:22:12Z</time>
      </trkpt>
      <trkpt lat="43.35143" lon="-0.54622">
        <ele>160.2</ele>
        <time>2017-09-09T12:22:24Z</time>
      </trkpt>
      <trkpt lat="43.3516" lon="-0.54601">
        <ele>163.08</ele>
        <time>2017-09-09T12:22:35Z</time>
      </trkpt>
      <trkpt lat="43.3516" lon="-0.54599">
        <ele>163.56</ele>
        <time>2017-09-09T12:22:36Z</time>
      </trkpt>
      <trkpt lat="43.35161" lon="-0.54597">
        <ele>164.04</ele>
        <time>2017-09-09T12:22:37Z</time>
      </trkpt>
      <trkpt lat="43.35161" lon="-0.54595">
        <ele>164.52</ele>
        <time>2017-09-09T12:22:38Z</time>
      </trkpt>
      <trkpt lat="43.35161" lon="-0.54593">
        <ele>164.52</ele>
        <time>2017-09-09T12:22:39Z</time>
      </trkpt>
      <trkpt lat="43.35162" lon="-0.54588">
        <ele>165.48</ele>
        <time>2017-09-09T12:22:43Z</time>
      </trkpt>
      <trkpt lat="43.35163" lon="-0.54574">
        <ele>165.96</ele>
        <time>2017-09-09T12:22:50Z</time>
      </trkpt>
      <trkpt lat="43.35167" lon="-0.54547">
        <ele>165.96</ele>
        <time>2017-09-09T12:23:03Z</time>
      </trkpt>
      <trkpt lat="43.3517" lon="-0.54513">
        <ele>169.33</ele>
        <time>2017-09-09T12:23:15Z</time>
      </trkpt>
      <trkpt lat="43.35169" lon="-0.54508">
        <ele>170.29</ele>
        <time>2017-09-09T12:23:17Z</time>
      </trkpt>
      <trkpt lat="43.35168" lon="-0.54505">
        <ele>170.77</ele>
        <time>2017-09-09T12:23:18Z</time>
      </trkpt>
      <trkpt lat="43.35168" lon="-0.54502">
        <ele>171.25</ele>
        <time>2017-09-09T12:23:19Z</time>
      </trkpt>
      <trkpt lat="43.35168" lon="-0.545">
        <ele>171.73</ele>
        <time>2017-09-09T12:23:20Z</time>
      </trkpt>
      <trkpt lat="43.35168" lon="-0.54498">
        <ele>171.73</ele>
        <time>2017-09-09T12:23:21Z</time>
      </trkpt>
      <trkpt lat="43.35167" lon="-0.54496">
        <ele>171.73</ele>
        <time>2017-09-09T12:23:22Z</time>
      </trkpt>
      <trkpt lat="43.35167" lon="-0.54494">
        <ele>171.73</ele>
        <time>2017-09-09T12:23:23Z</time>
      </trkpt>
      <trkpt lat="43.35167" lon="-0.54492">
        <ele>171.73</ele>
        <time>2017-09-09T12:23:24Z</time>
      </trkpt>
      <trkpt lat="43.35167" lon="-0.5449">
        <ele>171.73</ele>
        <time>2017-09-09T12:23:25Z</time>
      </trkpt>
      <trkpt lat="43.35168" lon="-0.54476">
        <ele>172.69</ele>
        <time>2017-09-09T12:23:32Z</time>
      </trkpt>
      <trkpt lat="43.35169" lon="-0.54474">
        <ele>173.17</ele>
        <time>2017-09-09T12:23:33Z</time>
      </trkpt>
      <trkpt lat="43.35181" lon="-0.5443">
        <ele>175.58</ele>
        <time>2017-09-09T12:23:50Z</time>
      </trkpt>
      <trkpt lat="43.35195" lon="-0.54356">
        <ele>176.06</ele>
        <time>2017-09-09T12:24:06Z</time>
      </trkpt>
      <trkpt lat="43.35198" lon="-0.54338">
        <ele>175.1</ele>
        <time>2017-09-09T12:24:09Z</time>
      </trkpt>
      <trkpt lat="43.352" lon="-0.54333">
        <ele>175.1</ele>
        <time>2017-09-09T12:24:10Z</time>
      </trkpt>
      <trkpt lat="43.35204" lon="-0.54323">
        <ele>174.62</ele>
        <time>2017-09-09T12:24:12Z</time>
      </trkpt>
      <trkpt lat="43.35205" lon="-0.54317">
        <ele>174.14</ele>
        <time>2017-09-09T12:24:13Z</time>
      </trkpt>
      <trkpt lat="43.35205" lon="-0.54312">
        <ele>173.66</ele>
        <time>2017-09-09T12:24:14Z</time>
      </trkpt>
      <trkpt lat="43.35205" lon="-0.54306">
        <ele>173.66</ele>
        <time>2017-09-09T12:24:15Z</time>
      </trkpt>
      <trkpt lat="43.35204" lon="-0.543">
        <ele>173.66</ele>
        <time>2017-09-09T12:24:16Z</time>
      </trkpt>
      <trkpt lat="43.35203" lon="-0.54294">
        <ele>173.17</ele>
        <time>2017-09-09T12:24:17Z</time>
      </trkpt>
      <trkpt lat="43.3519" lon="-0.54234">
        <ele>175.1</ele>
        <time>2017-09-09T12:24:31Z</time>
      </trkpt>
      <trkpt lat="43.35178" lon="-0.54196">
        <ele>177.02</ele>
        <time>2017-09-09T12:24:45Z</time>
      </trkpt>
      <trkpt lat="43.35175" lon="-0.54185">
        <ele>178.46</ele>
        <time>2017-09-09T12:24:51Z</time>
      </trkpt>
      <trkpt lat="43.35174" lon="-0.54183">
        <ele>178.94</ele>
        <time>2017-09-09T12:24:52Z</time>
      </trkpt>
      <trkpt lat="43.35174" lon="-0.54161">
        <ele>180.87</ele>
        <time>2017-09-09T12:25:03Z</time>
      </trkpt>
      <trkpt lat="43.35175" lon="-0.54159">
        <ele>181.35</ele>
        <time>2017-09-09T12:25:04Z</time>
      </trkpt>
      <trkpt lat="43.35175" lon="-0.54158">
        <ele>181.83</ele>
        <time>2017-09-09T12:25:05Z</time>
      </trkpt>
      <trkpt lat="43.35175" lon="-0.54156">
        <ele>181.83</ele>
        <time>2017-09-09T12:25:06Z</time>
      </trkpt>
      <trkpt lat="43.35176" lon="-0.54154">
        <ele>182.31</ele>
        <time>2017-09-09T12:25:07Z</time>
      </trkpt>
      <trkpt lat="43.35176" lon="-0.54152">
        <ele>182.31</ele>
        <time>2017-09-09T12:25:08Z</time>
      </trkpt>
      <trkpt lat="43.35176" lon="-0.54151">
        <ele>182.79</ele>
        <time>2017-09-09T12:25:09Z</time>
      </trkpt>
      <trkpt lat="43.35177" lon="-0.54149">
        <ele>182.79</ele>
        <time>2017-09-09T12:25:10Z</time>
      </trkpt>
      <trkpt lat="43.35177" lon="-0.54147">
        <ele>183.27</ele>
        <time>2017-09-09T12:25:11Z</time>
      </trkpt>
      <trkpt lat="43.35178" lon="-0.54145">
        <ele>183.75</ele>
        <time>2017-09-09T12:25:12Z</time>
      </trkpt>
      <trkpt lat="43.35178" lon="-0.54143">
        <ele>184.23</ele>
        <time>2017-09-09T12:25:13Z</time>
      </trkpt>
      <trkpt lat="43.35184" lon="-0.54121">
        <ele>187.11</ele>
        <time>2017-09-09T12:25:25Z</time>
      </trkpt>
      <trkpt lat="43.35185" lon="-0.54119">
        <ele>187.59</ele>
        <time>2017-09-09T12:25:26Z</time>
      </trkpt>
      <trkpt lat="43.35195" lon="-0.54087">
        <ele>190.48</ele>
        <time>2017-09-09T12:25:43Z</time>
      </trkpt>
      <trkpt lat="43.35195" lon="-0.54063">
        <ele>190</ele>
        <time>2017-09-09T12:25:55Z</time>
      </trkpt>
      <trkpt lat="43.35177" lon="-0.5405">
        <ele>189.04</ele>
        <time>2017-09-09T12:26:08Z</time>
      </trkpt>
      <trkpt lat="43.35167" lon="-0.54044">
        <ele>190</ele>
        <time>2017-09-09T12:26:15Z</time>
      </trkpt>
      <trkpt lat="43.35165" lon="-0.54043">
        <ele>190</ele>
        <time>2017-09-09T12:26:16Z</time>
      </trkpt>
      <trkpt lat="43.35164" lon="-0.54042">
        <ele>190</ele>
        <time>2017-09-09T12:26:17Z</time>
      </trkpt>
      <trkpt lat="43.3514" lon="-0.54033">
        <ele>191.92</ele>
        <time>2017-09-09T12:26:29Z</time>
      </trkpt>
      <trkpt lat="43.35137" lon="-0.54032">
        <ele>191.44</ele>
        <time>2017-09-09T12:26:30Z</time>
      </trkpt>
      <trkpt lat="43.35106" lon="-0.54006">
        <ele>189.52</ele>
        <time>2017-09-09T12:26:41Z</time>
      </trkpt>
      <trkpt lat="43.351" lon="-0.53993">
        <ele>189.04</ele>
        <time>2017-09-09T12:26:44Z</time>
      </trkpt>
      <trkpt lat="43.35097" lon="-0.53987">
        <ele>189.04</ele>
        <time>2017-09-09T12:26:45Z</time>
      </trkpt>
      <trkpt lat="43.35087" lon="-0.53971">
        <ele>190</ele>
        <time>2017-09-09T12:26:48Z</time>
      </trkpt>
      <trkpt lat="43.35078" lon="-0.53949">
        <ele>189.52</ele>
        <time>2017-09-09T12:26:51Z</time>
      </trkpt>
      <trkpt lat="43.35075" lon="-0.53934">
        <ele>189.04</ele>
        <time>2017-09-09T12:26:53Z</time>
      </trkpt>
      <trkpt lat="43.35075" lon="-0.53927">
        <ele>189.04</ele>
        <time>2017-09-09T12:26:54Z</time>
      </trkpt>
      <trkpt lat="43.35075" lon="-0.53915">
        <ele>188.56</ele>
        <time>2017-09-09T12:26:56Z</time>
      </trkpt>
      <trkpt lat="43.35076" lon="-0.53893">
        <ele>187.59</ele>
        <time>2017-09-09T12:26:59Z</time>
      </trkpt>
      <trkpt lat="43.35076" lon="-0.53885">
        <ele>187.59</ele>
        <time>2017-09-09T12:27:00Z</time>
      </trkpt>
      <trkpt lat="43.35073" lon="-0.53854">
        <ele>186.63</ele>
        <time>2017-09-09T12:27:04Z</time>
      </trkpt>
      <trkpt lat="43.35072" lon="-0.53848">
        <ele>186.63</ele>
        <time>2017-09-09T12:27:05Z</time>
      </trkpt>
      <trkpt lat="43.35068" lon="-0.53825">
        <ele>184.71</ele>
        <time>2017-09-09T12:27:08Z</time>
      </trkpt>
      <trkpt lat="43.35066" lon="-0.53815">
        <ele>184.23</ele>
        <time>2017-09-09T12:27:09Z</time>
      </trkpt>
      <trkpt lat="43.35063" lon="-0.53806">
        <ele>183.27</ele>
        <time>2017-09-09T12:27:10Z</time>
      </trkpt>
      <trkpt lat="43.35047" lon="-0.53727">
        <ele>180.87</ele>
        <time>2017-09-09T12:27:19Z</time>
      </trkpt>
      <trkpt lat="43.35044" lon="-0.53723">
        <ele>181.83</ele>
        <time>2017-09-09T12:27:20Z</time>
      </trkpt>
      <trkpt lat="43.3504" lon="-0.53722">
        <ele>182.31</ele>
        <time>2017-09-09T12:27:21Z</time>
      </trkpt>
      <trkpt lat="43.35037" lon="-0.53722">
        <ele>182.31</ele>
        <time>2017-09-09T12:27:22Z</time>
      </trkpt>
      <trkpt lat="43.35034" lon="-0.53723">
        <ele>182.31</ele>
        <time>2017-09-09T12:27:23Z</time>
      </trkpt>
      <trkpt lat="43.3503" lon="-0.53728">
        <ele>181.83</ele>
        <time>2017-09-09T12:27:24Z</time>
      </trkpt>
      <trkpt lat="43.35025" lon="-0.53733">
        <ele>181.35</ele>
        <time>2017-09-09T12:27:25Z</time>
      </trkpt>
      <trkpt lat="43.34989" lon="-0.5377">
        <ele>175.1</ele>
        <time>2017-09-09T12:27:32Z</time>
      </trkpt>
      <trkpt lat="43.34976" lon="-0.53787">
        <ele>172.21</ele>
        <time>2017-09-09T12:27:35Z</time>
      </trkpt>
      <trkpt lat="43.34973" lon="-0.53794">
        <ele>171.25</ele>
        <time>2017-09-09T12:27:36Z</time>
      </trkpt>
      <trkpt lat="43.34971" lon="-0.53804">
        <ele>170.29</ele>
        <time>2017-09-09T12:27:37Z</time>
      </trkpt>
      <trkpt lat="43.34971" lon="-0.53814">
        <ele>169.81</ele>
        <time>2017-09-09T12:27:38Z</time>
      </trkpt>
      <trkpt lat="43.34973" lon="-0.53824">
        <ele>168.85</ele>
        <time>2017-09-09T12:27:39Z</time>
      </trkpt>
      <trkpt lat="43.34973" lon="-0.53834">
        <ele>168.85</ele>
        <time>2017-09-09T12:27:40Z</time>
      </trkpt>
      <trkpt lat="43.34973" lon="-0.53843">
        <ele>168.37</ele>
        <time>2017-09-09T12:27:41Z</time>
      </trkpt>
      <trkpt lat="43.34975" lon="-0.53898">
        <ele>168.37</ele>
        <time>2017-09-09T12:27:48Z</time>
      </trkpt>
      <trkpt lat="43.3499" lon="-0.5396">
        <ele>168.37</ele>
        <time>2017-09-09T12:27:58Z</time>
      </trkpt>
      <trkpt lat="43.34995" lon="-0.53978">
        <ele>168.37</ele>
        <time>2017-09-09T12:28:01Z</time>
      </trkpt>
      <trkpt lat="43.35003" lon="-0.54026">
        <ele>167.89</ele>
        <time>2017-09-09T12:28:08Z</time>
      </trkpt>
      <trkpt lat="43.35002" lon="-0.54034">
        <ele>167.89</ele>
        <time>2017-09-09T12:28:09Z</time>
      </trkpt>
      <trkpt lat="43.35" lon="-0.54041">
        <ele>167.89</ele>
        <time>2017-09-09T12:28:10Z</time>
      </trkpt>
      <trkpt lat="43.34998" lon="-0.54049">
        <ele>168.37</ele>
        <time>2017-09-09T12:28:11Z</time>
      </trkpt>
      <trkpt lat="43.34996" lon="-0.54056">
        <ele>168.37</ele>
        <time>2017-09-09T12:28:12Z</time>
      </trkpt>
      <trkpt lat="43.34993" lon="-0.54071">
        <ele>168.85</ele>
        <time>2017-09-09T12:28:14Z</time>
      </trkpt>
      <trkpt lat="43.34993" lon="-0.54166">
        <ele>168.37</ele>
        <time>2017-09-09T12:28:25Z</time>
      </trkpt>
      <trkpt lat="43.35008" lon="-0.54217">
        <ele>165.48</ele>
        <time>2017-09-09T12:28:31Z</time>
      </trkpt>
      <trkpt lat="43.35009" lon="-0.54227">
        <ele>164.52</ele>
        <time>2017-09-09T12:28:32Z</time>
      </trkpt>
      <trkpt lat="43.35007" lon="-0.54235">
        <ele>163.56</ele>
        <time>2017-09-09T12:28:33Z</time>
      </trkpt>
      <trkpt lat="43.35003" lon="-0.54244">
        <ele>162.6</ele>
        <time>2017-09-09T12:28:34Z</time>
      </trkpt>
      <trkpt lat="43.34997" lon="-0.54252">
        <ele>161.64</ele>
        <time>2017-09-09T12:28:35Z</time>
      </trkpt>
      <trkpt lat="43.34991" lon="-0.54259">
        <ele>160.68</ele>
        <time>2017-09-09T12:28:36Z</time>
      </trkpt>
      <trkpt lat="43.34913" lon="-0.54359">
        <ele>152.99</ele>
        <time>2017-09-09T12:28:47Z</time>
      </trkpt>
      <trkpt lat="43.34906" lon="-0.54367">
        <ele>152.51</ele>
        <time>2017-09-09T12:28:48Z</time>
      </trkpt>
      <trkpt lat="43.34898" lon="-0.54371">
        <ele>152.51</ele>
        <time>2017-09-09T12:28:49Z</time>
      </trkpt>
      <trkpt lat="43.3489" lon="-0.54374">
        <ele>152.51</ele>
        <time>2017-09-09T12:28:50Z</time>
      </trkpt>
      <trkpt lat="43.34881" lon="-0.54376">
        <ele>152.03</ele>
        <time>2017-09-09T12:28:51Z</time>
      </trkpt>
      <trkpt lat="43.34864" lon="-0.54381">
        <ele>151.54</ele>
        <time>2017-09-09T12:28:53Z</time>
      </trkpt>
      <trkpt lat="43.34856" lon="-0.54387">
        <ele>151.06</ele>
        <time>2017-09-09T12:28:54Z</time>
      </trkpt>
      <trkpt lat="43.34772" lon="-0.54481">
        <ele>146.26</ele>
        <time>2017-09-09T12:29:06Z</time>
      </trkpt>
      <trkpt lat="43.34687" lon="-0.54581">
        <ele>138.09</ele>
        <time>2017-09-09T12:29:17Z</time>
      </trkpt>
      <trkpt lat="43.34662" lon="-0.54613">
        <ele>135.68</ele>
        <time>2017-09-09T12:29:21Z</time>
      </trkpt>
      <trkpt lat="43.34653" lon="-0.54625">
        <ele>133.76</ele>
        <time>2017-09-09T12:29:24Z</time>
      </trkpt>
      <trkpt lat="43.34652" lon="-0.54625">
        <ele>133.28</ele>
        <time>2017-09-09T12:29:25Z</time>
      </trkpt>
      <trkpt lat="43.3465" lon="-0.54623">
        <ele>132.8</ele>
        <time>2017-09-09T12:29:26Z</time>
      </trkpt>
      <trkpt lat="43.34649" lon="-0.5462">
        <ele>132.8</ele>
        <time>2017-09-09T12:29:27Z</time>
      </trkpt>
      <trkpt lat="43.34649" lon="-0.54617">
        <ele>132.8</ele>
        <time>2017-09-09T12:29:28Z</time>
      </trkpt>
      <trkpt lat="43.34649" lon="-0.54614">
        <ele>132.8</ele>
        <time>2017-09-09T12:29:29Z</time>
      </trkpt>
      <trkpt lat="43.3465" lon="-0.54609">
        <ele>132.32</ele>
        <time>2017-09-09T12:29:30Z</time>
      </trkpt>
      <trkpt lat="43.34651" lon="-0.54605">
        <ele>132.32</ele>
        <time>2017-09-09T12:29:31Z</time>
      </trkpt>
      <trkpt lat="43.34652" lon="-0.54601">
        <ele>132.32</ele>
        <time>2017-09-09T12:29:32Z</time>
      </trkpt>
      <trkpt lat="43.34653" lon="-0.54596">
        <ele>132.32</ele>
        <time>2017-09-09T12:29:33Z</time>
      </trkpt>
      <trkpt lat="43.34653" lon="-0.54592">
        <ele>132.8</ele>
        <time>2017-09-09T12:29:34Z</time>
      </trkpt>
      <trkpt lat="43.34654" lon="-0.54586">
        <ele>132.8</ele>
        <time>2017-09-09T12:29:35Z</time>
      </trkpt>
      <trkpt lat="43.34655" lon="-0.54581">
        <ele>132.8</ele>
        <time>2017-09-09T12:29:36Z</time>
      </trkpt>
      <trkpt lat="43.34659" lon="-0.54553">
        <ele>133.28</ele>
        <time>2017-09-09T12:29:41Z</time>
      </trkpt>
      <trkpt lat="43.3466" lon="-0.54547">
        <ele>133.28</ele>
        <time>2017-09-09T12:29:42Z</time>
      </trkpt>
      <trkpt lat="43.34667" lon="-0.54496">
        <ele>131.84</ele>
        <time>2017-09-09T12:29:51Z</time>
      </trkpt>
      <trkpt lat="43.3467" lon="-0.54467">
        <ele>129.92</ele>
        <time>2017-09-09T12:29:55Z</time>
      </trkpt>
      <trkpt lat="43.34671" lon="-0.5446">
        <ele>129.43</ele>
        <time>2017-09-09T12:29:56Z</time>
      </trkpt>
      <trkpt lat="43.34672" lon="-0.54453">
        <ele>128.95</ele>
        <time>2017-09-09T12:29:57Z</time>
      </trkpt>
      <trkpt lat="43.34677" lon="-0.54425">
        <ele>128.47</ele>
        <time>2017-09-09T12:30:01Z</time>
      </trkpt>
      <trkpt lat="43.34676" lon="-0.54418">
        <ele>128.47</ele>
        <time>2017-09-09T12:30:02Z</time>
      </trkpt>
      <trkpt lat="43.34675" lon="-0.54411">
        <ele>128.47</ele>
        <time>2017-09-09T12:30:03Z</time>
      </trkpt>
      <trkpt lat="43.34672" lon="-0.54396">
        <ele>128.95</ele>
        <time>2017-09-09T12:30:06Z</time>
      </trkpt>
      <trkpt lat="43.34672" lon="-0.54392">
        <ele>128.95</ele>
        <time>2017-09-09T12:30:07Z</time>
      </trkpt>
      <trkpt lat="43.34673" lon="-0.54388">
        <ele>129.43</ele>
        <time>2017-09-09T12:30:08Z</time>
      </trkpt>
      <trkpt lat="43.34674" lon="-0.54385">
        <ele>129.43</ele>
        <time>2017-09-09T12:30:09Z</time>
      </trkpt>
      <trkpt lat="43.34674" lon="-0.54382">
        <ele>129.43</ele>
        <time>2017-09-09T12:30:10Z</time>
      </trkpt>
      <trkpt lat="43.34675" lon="-0.5438">
        <ele>129.92</ele>
        <time>2017-09-09T12:30:11Z</time>
      </trkpt>
      <trkpt lat="43.34676" lon="-0.54378">
        <ele>129.92</ele>
        <time>2017-09-09T12:30:12Z</time>
      </trkpt>
      <trkpt lat="43.34677" lon="-0.54376">
        <ele>130.4</ele>
        <time>2017-09-09T12:30:13Z</time>
      </trkpt>
      <trkpt lat="43.34684" lon="-0.54347">
        <ele>133.76</ele>
        <time>2017-09-09T12:30:26Z</time>
      </trkpt>
      <trkpt lat="43.34692" lon="-0.54317">
        <ele>138.57</ele>
        <time>2017-09-09T12:30:40Z</time>
      </trkpt>
      <trkpt lat="43.34692" lon="-0.54313">
        <ele>139.05</ele>
        <time>2017-09-09T12:30:42Z</time>
      </trkpt>
      <trkpt lat="43.34693" lon="-0.54311">
        <ele>139.53</ele>
        <time>2017-09-09T12:30:43Z</time>
      </trkpt>
      <trkpt lat="43.34694" lon="-0.54309">
        <ele>139.53</ele>
        <time>2017-09-09T12:30:44Z</time>
      </trkpt>
      <trkpt lat="43.34694" lon="-0.54308">
        <ele>140.01</ele>
        <time>2017-09-09T12:30:45Z</time>
      </trkpt>
      <trkpt lat="43.347" lon="-0.54282">
        <ele>143.85</ele>
        <time>2017-09-09T12:30:59Z</time>
      </trkpt>
      <trkpt lat="43.34701" lon="-0.5428">
        <ele>144.34</ele>
        <time>2017-09-09T12:31:00Z</time>
      </trkpt>
      <trkpt lat="43.34703" lon="-0.54268">
        <ele>146.74</ele>
        <time>2017-09-09T12:31:06Z</time>
      </trkpt>
      <trkpt lat="43.34703" lon="-0.54266">
        <ele>146.74</ele>
        <time>2017-09-09T12:31:07Z</time>
      </trkpt>
      <trkpt lat="43.34708" lon="-0.5424">
        <ele>148.66</ele>
        <time>2017-09-09T12:31:20Z</time>
      </trkpt>
      <trkpt lat="43.34709" lon="-0.54223">
        <ele>149.62</ele>
        <time>2017-09-09T12:31:28Z</time>
      </trkpt>
      <trkpt lat="43.34708" lon="-0.54221">
        <ele>150.1</ele>
        <time>2017-09-09T12:31:29Z</time>
      </trkpt>
      <trkpt lat="43.34707" lon="-0.54219">
        <ele>149.62</ele>
        <time>2017-09-09T12:31:30Z</time>
      </trkpt>
      <trkpt lat="43.34706" lon="-0.54218">
        <ele>150.1</ele>
        <time>2017-09-09T12:31:31Z</time>
      </trkpt>
      <trkpt lat="43.34705" lon="-0.54217">
        <ele>150.1</ele>
        <time>2017-09-09T12:31:32Z</time>
      </trkpt>
      <trkpt lat="43.34705" lon="-0.54216">
        <ele>150.1</ele>
        <time>2017-09-09T12:31:33Z</time>
      </trkpt>
      <trkpt lat="43.34704" lon="-0.54216">
        <ele>150.58</ele>
        <time>2017-09-09T12:31:34Z</time>
      </trkpt>
      <trkpt lat="43.34702" lon="-0.54216">
        <ele>151.06</ele>
        <time>2017-09-09T12:31:35Z</time>
      </trkpt>
      <trkpt lat="43.3468" lon="-0.54222">
        <ele>153.47</ele>
        <time>2017-09-09T12:31:50Z</time>
      </trkpt>
      <trkpt lat="43.3466" lon="-0.54231">
        <ele>155.39</ele>
        <time>2017-09-09T12:32:06Z</time>
      </trkpt>
      <trkpt lat="43.34643" lon="-0.5424">
        <ele>157.79</ele>
        <time>2017-09-09T12:32:20Z</time>
      </trkpt>
      <trkpt lat="43.34621" lon="-0.54248">
        <ele>161.16</ele>
        <time>2017-09-09T12:32:34Z</time>
      </trkpt>
      <trkpt lat="43.34603" lon="-0.54255">
        <ele>161.64</ele>
        <time>2017-09-09T12:32:47Z</time>
      </trkpt>
      <trkpt lat="43.34581" lon="-0.54255">
        <ele>166.45</ele>
        <time>2017-09-09T12:33:02Z</time>
      </trkpt>
      <trkpt lat="43.34559" lon="-0.54233">
        <ele>165.48</ele>
        <time>2017-09-09T12:33:18Z</time>
      </trkpt>
      <trkpt lat="43.34558" lon="-0.54229">
        <ele>165.48</ele>
        <time>2017-09-09T12:33:20Z</time>
      </trkpt>
      <trkpt lat="43.34567" lon="-0.54203">
        <ele>165.96</ele>
        <time>2017-09-09T12:33:36Z</time>
      </trkpt>
      <trkpt lat="43.34578" lon="-0.54188">
        <ele>166.93</ele>
        <time>2017-09-09T12:33:47Z</time>
      </trkpt>
      <trkpt lat="43.3458" lon="-0.54183">
        <ele>167.41</ele>
        <time>2017-09-09T12:33:50Z</time>
      </trkpt>
      <trkpt lat="43.34581" lon="-0.5418">
        <ele>167.89</ele>
        <time>2017-09-09T12:33:51Z</time>
      </trkpt>
      <trkpt lat="43.3458" lon="-0.54177">
        <ele>167.89</ele>
        <time>2017-09-09T12:33:52Z</time>
      </trkpt>
      <trkpt lat="43.3458" lon="-0.54174">
        <ele>168.37</ele>
        <time>2017-09-09T12:33:53Z</time>
      </trkpt>
      <trkpt lat="43.34579" lon="-0.54171">
        <ele>168.37</ele>
        <time>2017-09-09T12:33:54Z</time>
      </trkpt>
      <trkpt lat="43.34578" lon="-0.54169">
        <ele>168.37</ele>
        <time>2017-09-09T12:33:55Z</time>
      </trkpt>
      <trkpt lat="43.34563" lon="-0.54149">
        <ele>170.29</ele>
        <time>2017-09-09T12:34:08Z</time>
      </trkpt>
      <trkpt lat="43.34558" lon="-0.54145">
        <ele>169.81</ele>
        <time>2017-09-09T12:34:13Z</time>
      </trkpt>
      <trkpt lat="43.34557" lon="-0.54144">
        <ele>169.81</ele>
        <time>2017-09-09T12:34:14Z</time>
      </trkpt>
      <trkpt lat="43.34555" lon="-0.54143">
        <ele>169.81</ele>
        <time>2017-09-09T12:34:15Z</time>
      </trkpt>
      <trkpt lat="43.34554" lon="-0.54142">
        <ele>169.81</ele>
        <time>2017-09-09T12:34:16Z</time>
      </trkpt>
      <trkpt lat="43.34553" lon="-0.54141">
        <ele>169.81</ele>
        <time>2017-09-09T12:34:17Z</time>
      </trkpt>
      <trkpt lat="43.34551" lon="-0.5414">
        <ele>169.81</ele>
        <time>2017-09-09T12:34:18Z</time>
      </trkpt>
      <trkpt lat="43.3455" lon="-0.54139">
        <ele>169.81</ele>
        <time>2017-09-09T12:34:19Z</time>
      </trkpt>
      <trkpt lat="43.34529" lon="-0.54123">
        <ele>171.73</ele>
        <time>2017-09-09T12:34:32Z</time>
      </trkpt>
      <trkpt lat="43.34527" lon="-0.54122">
        <ele>171.73</ele>
        <time>2017-09-09T12:34:33Z</time>
      </trkpt>
      <trkpt lat="43.34525" lon="-0.54121">
        <ele>171.25</ele>
        <time>2017-09-09T12:34:34Z</time>
      </trkpt>
      <trkpt lat="43.34518" lon="-0.54119">
        <ele>171.25</ele>
        <time>2017-09-09T12:34:38Z</time>
      </trkpt>
      <trkpt lat="43.34516" lon="-0.54119">
        <ele>171.25</ele>
        <time>2017-09-09T12:34:39Z</time>
      </trkpt>
      <trkpt lat="43.34515" lon="-0.54118">
        <ele>171.25</ele>
        <time>2017-09-09T12:34:40Z</time>
      </trkpt>
      <trkpt lat="43.34513" lon="-0.54117">
        <ele>171.25</ele>
        <time>2017-09-09T12:34:41Z</time>
      </trkpt>
      <trkpt lat="43.34511" lon="-0.54116">
        <ele>170.77</ele>
        <time>2017-09-09T12:34:42Z</time>
      </trkpt>
      <trkpt lat="43.34509" lon="-0.54115">
        <ele>170.77</ele>
        <time>2017-09-09T12:34:43Z</time>
      </trkpt>
      <trkpt lat="43.34507" lon="-0.54114">
        <ele>170.29</ele>
        <time>2017-09-09T12:34:44Z</time>
      </trkpt>
      <trkpt lat="43.34505" lon="-0.54113">
        <ele>170.29</ele>
        <time>2017-09-09T12:34:45Z</time>
      </trkpt>
      <trkpt lat="43.34504" lon="-0.54112">
        <ele>170.29</ele>
        <time>2017-09-09T12:34:46Z</time>
      </trkpt>
      <trkpt lat="43.34491" lon="-0.54104">
        <ele>169.33</ele>
        <time>2017-09-09T12:34:54Z</time>
      </trkpt>
      <trkpt lat="43.34489" lon="-0.54103">
        <ele>169.33</ele>
        <time>2017-09-09T12:34:55Z</time>
      </trkpt>
      <trkpt lat="43.34474" lon="-0.54094">
        <ele>174.14</ele>
        <time>2017-09-09T12:35:04Z</time>
      </trkpt>
      <trkpt lat="43.34472" lon="-0.54093">
        <ele>174.62</ele>
        <time>2017-09-09T12:35:05Z</time>
      </trkpt>
      <trkpt lat="43.34462" lon="-0.54082">
        <ele>177.02</ele>
        <time>2017-09-09T12:35:13Z</time>
      </trkpt>
      <trkpt lat="43.34461" lon="-0.5408">
        <ele>177.98</ele>
        <time>2017-09-09T12:35:14Z</time>
      </trkpt>
      <trkpt lat="43.3446" lon="-0.54078">
        <ele>178.46</ele>
        <time>2017-09-09T12:35:15Z</time>
      </trkpt>
      <trkpt lat="43.34461" lon="-0.54072">
        <ele>180.38</ele>
        <time>2017-09-09T12:35:20Z</time>
      </trkpt>
      <trkpt lat="43.34463" lon="-0.54071">
        <ele>180.87</ele>
        <time>2017-09-09T12:35:22Z</time>
      </trkpt>
      <trkpt lat="43.34464" lon="-0.5407">
        <ele>181.35</ele>
        <time>2017-09-09T12:35:23Z</time>
      </trkpt>
      <trkpt lat="43.34465" lon="-0.5407">
        <ele>181.83</ele>
        <time>2017-09-09T12:35:24Z</time>
      </trkpt>
      <trkpt lat="43.34466" lon="-0.5407">
        <ele>182.31</ele>
        <time>2017-09-09T12:35:25Z</time>
      </trkpt>
      <trkpt lat="43.34467" lon="-0.54069">
        <ele>182.31</ele>
        <time>2017-09-09T12:35:26Z</time>
      </trkpt>
      <trkpt lat="43.34478" lon="-0.54063">
        <ele>186.15</ele>
        <time>2017-09-09T12:35:36Z</time>
      </trkpt>
      <trkpt lat="43.34479" lon="-0.54062">
        <ele>186.63</ele>
        <time>2017-09-09T12:35:37Z</time>
      </trkpt>
      <trkpt lat="43.34481" lon="-0.54061">
        <ele>186.63</ele>
        <time>2017-09-09T12:35:38Z</time>
      </trkpt>
      <trkpt lat="43.34482" lon="-0.5406">
        <ele>186.63</ele>
        <time>2017-09-09T12:35:39Z</time>
      </trkpt>
      <trkpt lat="43.34484" lon="-0.54059">
        <ele>186.63</ele>
        <time>2017-09-09T12:35:40Z</time>
      </trkpt>
      <trkpt lat="43.34485" lon="-0.54058">
        <ele>186.63</ele>
        <time>2017-09-09T12:35:41Z</time>
      </trkpt>
      <trkpt lat="43.34487" lon="-0.54057">
        <ele>186.63</ele>
        <time>2017-09-09T12:35:42Z</time>
      </trkpt>
      <trkpt lat="43.345" lon="-0.54048">
        <ele>189.52</ele>
        <time>2017-09-09T12:35:53Z</time>
      </trkpt>
      <trkpt lat="43.34503" lon="-0.54046">
        <ele>190</ele>
        <time>2017-09-09T12:35:55Z</time>
      </trkpt>
      <trkpt lat="43.34511" lon="-0.54034">
        <ele>191.44</ele>
        <time>2017-09-09T12:36:03Z</time>
      </trkpt>
      <trkpt lat="43.34512" lon="-0.54032">
        <ele>191.44</ele>
        <time>2017-09-09T12:36:04Z</time>
      </trkpt>
      <trkpt lat="43.3452" lon="-0.54018">
        <ele>191.44</ele>
        <time>2017-09-09T12:36:12Z</time>
      </trkpt>
      <trkpt lat="43.34528" lon="-0.53993">
        <ele>195.28</ele>
        <time>2017-09-09T12:36:26Z</time>
      </trkpt>
      <trkpt lat="43.3453" lon="-0.53987">
        <ele>195.77</ele>
        <time>2017-09-09T12:36:30Z</time>
      </trkpt>
      <trkpt lat="43.3453" lon="-0.53985">
        <ele>196.25</ele>
        <time>2017-09-09T12:36:31Z</time>
      </trkpt>
      <trkpt lat="43.3453" lon="-0.53983">
        <ele>195.77</ele>
        <time>2017-09-09T12:36:32Z</time>
      </trkpt>
      <trkpt lat="43.3453" lon="-0.5398">
        <ele>196.25</ele>
        <time>2017-09-09T12:36:33Z</time>
      </trkpt>
      <trkpt lat="43.34531" lon="-0.53954">
        <ele>198.65</ele>
        <time>2017-09-09T12:36:45Z</time>
      </trkpt>
      <trkpt lat="43.34527" lon="-0.53927">
        <ele>204.42</ele>
        <time>2017-09-09T12:36:58Z</time>
      </trkpt>
      <trkpt lat="43.34524" lon="-0.53898">
        <ele>207.78</ele>
        <time>2017-09-09T12:37:13Z</time>
      </trkpt>
      <trkpt lat="43.34522" lon="-0.53893">
        <ele>208.26</ele>
        <time>2017-09-09T12:37:16Z</time>
      </trkpt>
      <trkpt lat="43.34521" lon="-0.53891">
        <ele>208.74</ele>
        <time>2017-09-09T12:37:17Z</time>
      </trkpt>
      <trkpt lat="43.34521" lon="-0.53889">
        <ele>208.74</ele>
        <time>2017-09-09T12:37:18Z</time>
      </trkpt>
      <trkpt lat="43.34521" lon="-0.53887">
        <ele>208.74</ele>
        <time>2017-09-09T12:37:19Z</time>
      </trkpt>
      <trkpt lat="43.3452" lon="-0.53884">
        <ele>208.74</ele>
        <time>2017-09-09T12:37:20Z</time>
      </trkpt>
      <trkpt lat="43.34517" lon="-0.53846">
        <ele>206.34</ele>
        <time>2017-09-09T12:37:35Z</time>
      </trkpt>
      <trkpt lat="43.34524" lon="-0.53808">
        <ele>208.74</ele>
        <time>2017-09-09T12:37:50Z</time>
      </trkpt>
      <trkpt lat="43.34535" lon="-0.53769">
        <ele>208.26</ele>
        <time>2017-09-09T12:38:05Z</time>
      </trkpt>
      <trkpt lat="43.34545" lon="-0.53739">
        <ele>210.67</ele>
        <time>2017-09-09T12:38:20Z</time>
      </trkpt>
      <trkpt lat="43.34557" lon="-0.53709">
        <ele>212.59</ele>
        <time>2017-09-09T12:38:33Z</time>
      </trkpt>
      <trkpt lat="43.3456" lon="-0.53696">
        <ele>214.51</ele>
        <time>2017-09-09T12:38:40Z</time>
      </trkpt>
      <trkpt lat="43.3456" lon="-0.53694">
        <ele>214.99</ele>
        <time>2017-09-09T12:38:41Z</time>
      </trkpt>
      <trkpt lat="43.34568" lon="-0.53665">
        <ele>219.32</ele>
        <time>2017-09-09T12:38:56Z</time>
      </trkpt>
      <trkpt lat="43.34588" lon="-0.53648">
        <ele>219.32</ele>
        <time>2017-09-09T12:39:08Z</time>
      </trkpt>
      <trkpt lat="43.34613" lon="-0.53622">
        <ele>217.4</ele>
        <time>2017-09-09T12:39:14Z</time>
      </trkpt>
      <trkpt lat="43.34634" lon="-0.53583">
        <ele>216.43</ele>
        <time>2017-09-09T12:39:19Z</time>
      </trkpt>
      <trkpt lat="43.34637" lon="-0.53575">
        <ele>215.95</ele>
        <time>2017-09-09T12:39:20Z</time>
      </trkpt>
      <trkpt lat="43.3466" lon="-0.53497">
        <ele>213.07</ele>
        <time>2017-09-09T12:39:27Z</time>
      </trkpt>
      <trkpt lat="43.34701" lon="-0.53368">
        <ele>209.7</ele>
        <time>2017-09-09T12:39:38Z</time>
      </trkpt>
      <trkpt lat="43.34713" lon="-0.53316">
        <ele>210.19</ele>
        <time>2017-09-09T12:39:43Z</time>
      </trkpt>
      <trkpt lat="43.34715" lon="-0.53308">
        <ele>210.19</ele>
        <time>2017-09-09T12:39:44Z</time>
      </trkpt>
      <trkpt lat="43.3473" lon="-0.53262">
        <ele>208.74</ele>
        <time>2017-09-09T12:39:50Z</time>
      </trkpt>
      <trkpt lat="43.34734" lon="-0.53256">
        <ele>207.78</ele>
        <time>2017-09-09T12:39:51Z</time>
      </trkpt>
      <trkpt lat="43.34737" lon="-0.53251">
        <ele>207.3</ele>
        <time>2017-09-09T12:39:52Z</time>
      </trkpt>
      <trkpt lat="43.34753" lon="-0.53227">
        <ele>202.98</ele>
        <time>2017-09-09T12:39:56Z</time>
      </trkpt>
      <trkpt lat="43.34755" lon="-0.53219">
        <ele>202.49</ele>
        <time>2017-09-09T12:39:57Z</time>
      </trkpt>
      <trkpt lat="43.34757" lon="-0.53211">
        <ele>201.53</ele>
        <time>2017-09-09T12:39:58Z</time>
      </trkpt>
      <trkpt lat="43.34759" lon="-0.53204">
        <ele>201.05</ele>
        <time>2017-09-09T12:39:59Z</time>
      </trkpt>
      <trkpt lat="43.3476" lon="-0.53197">
        <ele>200.57</ele>
        <time>2017-09-09T12:40:00Z</time>
      </trkpt>
      <trkpt lat="43.34761" lon="-0.5319">
        <ele>200.09</ele>
        <time>2017-09-09T12:40:01Z</time>
      </trkpt>
      <trkpt lat="43.3476" lon="-0.53143">
        <ele>199.13</ele>
        <time>2017-09-09T12:40:12Z</time>
      </trkpt>
      <trkpt lat="43.34759" lon="-0.53131">
        <ele>197.21</ele>
        <time>2017-09-09T12:40:23Z</time>
      </trkpt>
      <trkpt lat="43.34754" lon="-0.53127">
        <ele>197.21</ele>
        <time>2017-09-09T12:40:59Z</time>
      </trkpt>
      <trkpt lat="43.34753" lon="-0.53126">
        <ele>197.69</ele>
        <time>2017-09-09T12:41:00Z</time>
      </trkpt>
      <trkpt lat="43.34752" lon="-0.53124">
        <ele>197.69</ele>
        <time>2017-09-09T12:41:01Z</time>
      </trkpt>
      <trkpt lat="43.34751" lon="-0.53123">
        <ele>197.69</ele>
        <time>2017-09-09T12:41:02Z</time>
      </trkpt>
      <trkpt lat="43.3475" lon="-0.53121">
        <ele>197.69</ele>
        <time>2017-09-09T12:41:03Z</time>
      </trkpt>
      <trkpt lat="43.34748" lon="-0.5312">
        <ele>197.69</ele>
        <time>2017-09-09T12:41:04Z</time>
      </trkpt>
      <trkpt lat="43.3474" lon="-0.53108">
        <ele>199.13</ele>
        <time>2017-09-09T12:41:11Z</time>
      </trkpt>
      <trkpt lat="43.34726" lon="-0.53084">
        <ele>203.46</ele>
        <time>2017-09-09T12:41:25Z</time>
      </trkpt>
      <trkpt lat="43.34707" lon="-0.53066">
        <ele>203.94</ele>
        <time>2017-09-09T12:41:37Z</time>
      </trkpt>
      <trkpt lat="43.34697" lon="-0.53058">
        <ele>205.86</ele>
        <time>2017-09-09T12:41:43Z</time>
      </trkpt>
      <trkpt lat="43.34695" lon="-0.53056">
        <ele>206.34</ele>
        <time>2017-09-09T12:41:44Z</time>
      </trkpt>
      <trkpt lat="43.34677" lon="-0.53037">
        <ele>210.67</ele>
        <time>2017-09-09T12:41:55Z</time>
      </trkpt>
      <trkpt lat="43.3466" lon="-0.53023">
        <ele>215.95</ele>
        <time>2017-09-09T12:42:06Z</time>
      </trkpt>
      <trkpt lat="43.34634" lon="-0.52996">
        <ele>216.91</ele>
        <time>2017-09-09T12:42:19Z</time>
      </trkpt>
      <trkpt lat="43.34617" lon="-0.52979">
        <ele>215.95</ele>
        <time>2017-09-09T12:42:28Z</time>
      </trkpt>
      <trkpt lat="43.34596" lon="-0.52962">
        <ele>217.4</ele>
        <time>2017-09-09T12:42:38Z</time>
      </trkpt>
      <trkpt lat="43.34594" lon="-0.5296">
        <ele>217.4</ele>
        <time>2017-09-09T12:42:39Z</time>
      </trkpt>
      <trkpt lat="43.34592" lon="-0.52958">
        <ele>217.88</ele>
        <time>2017-09-09T12:42:40Z</time>
      </trkpt>
      <trkpt lat="43.34591" lon="-0.52956">
        <ele>217.88</ele>
        <time>2017-09-09T12:42:41Z</time>
      </trkpt>
      <trkpt lat="43.34589" lon="-0.52955">
        <ele>217.88</ele>
        <time>2017-09-09T12:42:42Z</time>
      </trkpt>
      <trkpt lat="43.34587" lon="-0.52954">
        <ele>217.88</ele>
        <time>2017-09-09T12:42:43Z</time>
      </trkpt>
      <trkpt lat="43.34586" lon="-0.52953">
        <ele>217.88</ele>
        <time>2017-09-09T12:42:44Z</time>
      </trkpt>
      <trkpt lat="43.34584" lon="-0.52951">
        <ele>217.88</ele>
        <time>2017-09-09T12:42:45Z</time>
      </trkpt>
      <trkpt lat="43.34583" lon="-0.52949">
        <ele>217.4</ele>
        <time>2017-09-09T12:42:46Z</time>
      </trkpt>
      <trkpt lat="43.34558" lon="-0.52928">
        <ele>218.84</ele>
        <time>2017-09-09T12:42:58Z</time>
      </trkpt>
      <trkpt lat="43.34543" lon="-0.52913">
        <ele>220.76</ele>
        <time>2017-09-09T12:43:06Z</time>
      </trkpt>
      <trkpt lat="43.3454" lon="-0.52908">
        <ele>220.76</ele>
        <time>2017-09-09T12:43:07Z</time>
      </trkpt>
      <trkpt lat="43.34534" lon="-0.52895">
        <ele>219.8</ele>
        <time>2017-09-09T12:43:09Z</time>
      </trkpt>
      <trkpt lat="43.34525" lon="-0.52883">
        <ele>218.84</ele>
        <time>2017-09-09T12:43:11Z</time>
      </trkpt>
      <trkpt lat="43.34516" lon="-0.52873">
        <ele>218.36</ele>
        <time>2017-09-09T12:43:13Z</time>
      </trkpt>
      <trkpt lat="43.34512" lon="-0.52869">
        <ele>218.36</ele>
        <time>2017-09-09T12:43:14Z</time>
      </trkpt>
      <trkpt lat="43.34509" lon="-0.52866">
        <ele>218.36</ele>
        <time>2017-09-09T12:43:15Z</time>
      </trkpt>
      <trkpt lat="43.34507" lon="-0.52863">
        <ele>218.84</ele>
        <time>2017-09-09T12:43:16Z</time>
      </trkpt>
      <trkpt lat="43.34501" lon="-0.52855">
        <ele>220.28</ele>
        <time>2017-09-09T12:43:19Z</time>
      </trkpt>
      <trkpt lat="43.34494" lon="-0.52847">
        <ele>221.24</ele>
        <time>2017-09-09T12:43:22Z</time>
      </trkpt>
      <trkpt lat="43.34482" lon="-0.52829">
        <ele>221.72</ele>
        <time>2017-09-09T12:43:29Z</time>
      </trkpt>
      <trkpt lat="43.3447" lon="-0.52795">
        <ele>215.95</ele>
        <time>2017-09-09T12:43:39Z</time>
      </trkpt>
      <trkpt lat="43.34466" lon="-0.52774">
        <ele>212.11</ele>
        <time>2017-09-09T12:43:43Z</time>
      </trkpt>
      <trkpt lat="43.34463" lon="-0.52754">
        <ele>208.74</ele>
        <time>2017-09-09T12:43:48Z</time>
      </trkpt>
      <trkpt lat="43.34463" lon="-0.52744">
        <ele>207.3</ele>
        <time>2017-09-09T12:43:51Z</time>
      </trkpt>
      <trkpt lat="43.3446" lon="-0.52734">
        <ele>206.34</ele>
        <time>2017-09-09T12:43:54Z</time>
      </trkpt>
      <trkpt lat="43.34443" lon="-0.52712">
        <ele>203.94</ele>
        <time>2017-09-09T12:44:03Z</time>
      </trkpt>
      <trkpt lat="43.34441" lon="-0.5271">
        <ele>203.94</ele>
        <time>2017-09-09T12:44:04Z</time>
      </trkpt>
      <trkpt lat="43.3444" lon="-0.52706">
        <ele>203.46</ele>
        <time>2017-09-09T12:44:05Z</time>
      </trkpt>
      <trkpt lat="43.34439" lon="-0.52702">
        <ele>203.46</ele>
        <time>2017-09-09T12:44:06Z</time>
      </trkpt>
      <trkpt lat="43.34439" lon="-0.52697">
        <ele>202.98</ele>
        <time>2017-09-09T12:44:07Z</time>
      </trkpt>
      <trkpt lat="43.34439" lon="-0.52693">
        <ele>202.49</ele>
        <time>2017-09-09T12:44:08Z</time>
      </trkpt>
      <trkpt lat="43.34438" lon="-0.52689">
        <ele>202.01</ele>
        <time>2017-09-09T12:44:09Z</time>
      </trkpt>
      <trkpt lat="43.34436" lon="-0.52686">
        <ele>201.53</ele>
        <time>2017-09-09T12:44:10Z</time>
      </trkpt>
      <trkpt lat="43.34434" lon="-0.52683">
        <ele>201.53</ele>
        <time>2017-09-09T12:44:11Z</time>
      </trkpt>
      <trkpt lat="43.34429" lon="-0.52682">
        <ele>201.05</ele>
        <time>2017-09-09T12:44:13Z</time>
      </trkpt>
      <trkpt lat="43.34427" lon="-0.52679">
        <ele>201.05</ele>
        <time>2017-09-09T12:44:14Z</time>
      </trkpt>
      <trkpt lat="43.34426" lon="-0.52677">
        <ele>201.05</ele>
        <time>2017-09-09T12:44:15Z</time>
      </trkpt>
      <trkpt lat="43.34425" lon="-0.52675">
        <ele>201.05</ele>
        <time>2017-09-09T12:44:16Z</time>
      </trkpt>
      <trkpt lat="43.34423" lon="-0.52669">
        <ele>200.57</ele>
        <time>2017-09-09T12:44:18Z</time>
      </trkpt>
      <trkpt lat="43.34421" lon="-0.52664">
        <ele>200.09</ele>
        <time>2017-09-09T12:44:19Z</time>
      </trkpt>
      <trkpt lat="43.3442" lon="-0.5266">
        <ele>200.09</ele>
        <time>2017-09-09T12:44:20Z</time>
      </trkpt>
      <trkpt lat="43.34419" lon="-0.52656">
        <ele>199.13</ele>
        <time>2017-09-09T12:44:21Z</time>
      </trkpt>
      <trkpt lat="43.34417" lon="-0.52652">
        <ele>198.65</ele>
        <time>2017-09-09T12:44:22Z</time>
      </trkpt>
      <trkpt lat="43.34415" lon="-0.52645">
        <ele>197.69</ele>
        <time>2017-09-09T12:44:24Z</time>
      </trkpt>
      <trkpt lat="43.34415" lon="-0.52642">
        <ele>197.69</ele>
        <time>2017-09-09T12:44:25Z</time>
      </trkpt>
      <trkpt lat="43.34415" lon="-0.5264">
        <ele>197.69</ele>
        <time>2017-09-09T12:44:26Z</time>
      </trkpt>
      <trkpt lat="43.3441" lon="-0.52624">
        <ele>197.69</ele>
        <time>2017-09-09T12:44:31Z</time>
      </trkpt>
      <trkpt lat="43.34408" lon="-0.52622">
        <ele>197.69</ele>
        <time>2017-09-09T12:44:32Z</time>
      </trkpt>
      <trkpt lat="43.34406" lon="-0.5262">
        <ele>197.21</ele>
        <time>2017-09-09T12:44:33Z</time>
      </trkpt>
      <trkpt lat="43.34404" lon="-0.52618">
        <ele>197.21</ele>
        <time>2017-09-09T12:44:34Z</time>
      </trkpt>
      <trkpt lat="43.34401" lon="-0.52616">
        <ele>197.69</ele>
        <time>2017-09-09T12:44:35Z</time>
      </trkpt>
      <trkpt lat="43.34389" lon="-0.52592">
        <ele>198.65</ele>
        <time>2017-09-09T12:44:43Z</time>
      </trkpt>
      <trkpt lat="43.34387" lon="-0.52589">
        <ele>199.13</ele>
        <time>2017-09-09T12:44:44Z</time>
      </trkpt>
      <trkpt lat="43.34383" lon="-0.52585">
        <ele>199.13</ele>
        <time>2017-09-09T12:44:45Z</time>
      </trkpt>
      <trkpt lat="43.34379" lon="-0.52581">
        <ele>199.61</ele>
        <time>2017-09-09T12:44:46Z</time>
      </trkpt>
      <trkpt lat="43.34376" lon="-0.52576">
        <ele>199.61</ele>
        <time>2017-09-09T12:44:47Z</time>
      </trkpt>
      <trkpt lat="43.34373" lon="-0.52572">
        <ele>199.13</ele>
        <time>2017-09-09T12:44:48Z</time>
      </trkpt>
      <trkpt lat="43.34371" lon="-0.52567">
        <ele>199.13</ele>
        <time>2017-09-09T12:44:49Z</time>
      </trkpt>
      <trkpt lat="43.34359" lon="-0.52527">
        <ele>198.65</ele>
        <time>2017-09-09T12:44:59Z</time>
      </trkpt>
      <trkpt lat="43.34353" lon="-0.52518">
        <ele>198.65</ele>
        <time>2017-09-09T12:45:01Z</time>
      </trkpt>
      <trkpt lat="43.3435" lon="-0.52514">
        <ele>198.65</ele>
        <time>2017-09-09T12:45:02Z</time>
      </trkpt>
      <trkpt lat="43.34337" lon="-0.5249">
        <ele>198.17</ele>
        <time>2017-09-09T12:45:08Z</time>
      </trkpt>
      <trkpt lat="43.34333" lon="-0.52485">
        <ele>198.17</ele>
        <time>2017-09-09T12:45:09Z</time>
      </trkpt>
      <trkpt lat="43.34302" lon="-0.52449">
        <ele>196.73</ele>
        <time>2017-09-09T12:45:16Z</time>
      </trkpt>
      <trkpt lat="43.34299" lon="-0.52443">
        <ele>196.73</ele>
        <time>2017-09-09T12:45:17Z</time>
      </trkpt>
      <trkpt lat="43.34284" lon="-0.52396">
        <ele>194.8</ele>
        <time>2017-09-09T12:45:26Z</time>
      </trkpt>
      <trkpt lat="43.34264" lon="-0.52349">
        <ele>196.25</ele>
        <time>2017-09-09T12:45:37Z</time>
      </trkpt>
      <trkpt lat="43.34228" lon="-0.52331">
        <ele>202.01</ele>
        <time>2017-09-09T12:45:48Z</time>
      </trkpt>
      <trkpt lat="43.34198" lon="-0.52314">
        <ele>203.94</ele>
        <time>2017-09-09T12:46:00Z</time>
      </trkpt>
      <trkpt lat="43.34192" lon="-0.52311">
        <ele>204.9</ele>
        <time>2017-09-09T12:46:03Z</time>
      </trkpt>
      <trkpt lat="43.3419" lon="-0.5231">
        <ele>205.38</ele>
        <time>2017-09-09T12:46:04Z</time>
      </trkpt>
      <trkpt lat="43.34189" lon="-0.5231">
        <ele>205.86</ele>
        <time>2017-09-09T12:46:05Z</time>
      </trkpt>
      <trkpt lat="43.34187" lon="-0.52308">
        <ele>206.34</ele>
        <time>2017-09-09T12:46:06Z</time>
      </trkpt>
      <trkpt lat="43.34186" lon="-0.52307">
        <ele>206.34</ele>
        <time>2017-09-09T12:46:07Z</time>
      </trkpt>
      <trkpt lat="43.34184" lon="-0.52305">
        <ele>206.34</ele>
        <time>2017-09-09T12:46:08Z</time>
      </trkpt>
      <trkpt lat="43.34182" lon="-0.52303">
        <ele>206.34</ele>
        <time>2017-09-09T12:46:09Z</time>
      </trkpt>
      <trkpt lat="43.34181" lon="-0.52301">
        <ele>206.34</ele>
        <time>2017-09-09T12:46:10Z</time>
      </trkpt>
      <trkpt lat="43.34179" lon="-0.52299">
        <ele>206.82</ele>
        <time>2017-09-09T12:46:11Z</time>
      </trkpt>
      <trkpt lat="43.34165" lon="-0.52284">
        <ele>208.26</ele>
        <time>2017-09-09T12:46:23Z</time>
      </trkpt>
      <trkpt lat="43.34143" lon="-0.52269">
        <ele>213.55</ele>
        <time>2017-09-09T12:46:33Z</time>
      </trkpt>
      <trkpt lat="43.34137" lon="-0.52267">
        <ele>213.55</ele>
        <time>2017-09-09T12:46:36Z</time>
      </trkpt>
      <trkpt lat="43.34135" lon="-0.52267">
        <ele>213.55</ele>
        <time>2017-09-09T12:46:37Z</time>
      </trkpt>
      <trkpt lat="43.34133" lon="-0.52266">
        <ele>213.07</ele>
        <time>2017-09-09T12:46:38Z</time>
      </trkpt>
      <trkpt lat="43.3413" lon="-0.52265">
        <ele>213.07</ele>
        <time>2017-09-09T12:46:39Z</time>
      </trkpt>
      <trkpt lat="43.34126" lon="-0.52263">
        <ele>212.59</ele>
        <time>2017-09-09T12:46:40Z</time>
      </trkpt>
      <trkpt lat="43.34122" lon="-0.5226">
        <ele>212.59</ele>
        <time>2017-09-09T12:46:41Z</time>
      </trkpt>
      <trkpt lat="43.34118" lon="-0.52255">
        <ele>212.11</ele>
        <time>2017-09-09T12:46:42Z</time>
      </trkpt>
      <trkpt lat="43.34114" lon="-0.5225">
        <ele>211.63</ele>
        <time>2017-09-09T12:46:43Z</time>
      </trkpt>
      <trkpt lat="43.34101" lon="-0.52233">
        <ele>210.67</ele>
        <time>2017-09-09T12:46:46Z</time>
      </trkpt>
      <trkpt lat="43.34087" lon="-0.52218">
        <ele>209.7</ele>
        <time>2017-09-09T12:46:49Z</time>
      </trkpt>
      <trkpt lat="43.34081" lon="-0.52215">
        <ele>209.22</ele>
        <time>2017-09-09T12:46:50Z</time>
      </trkpt>
      <trkpt lat="43.34076" lon="-0.52212">
        <ele>209.22</ele>
        <time>2017-09-09T12:46:51Z</time>
      </trkpt>
      <trkpt lat="43.34055" lon="-0.52202">
        <ele>208.26</ele>
        <time>2017-09-09T12:46:55Z</time>
      </trkpt>
      <trkpt lat="43.34051" lon="-0.52199">
        <ele>207.78</ele>
        <time>2017-09-09T12:46:56Z</time>
      </trkpt>
      <trkpt lat="43.34047" lon="-0.52196">
        <ele>207.78</ele>
        <time>2017-09-09T12:46:57Z</time>
      </trkpt>
      <trkpt lat="43.3402" lon="-0.52178">
        <ele>206.82</ele>
        <time>2017-09-09T12:47:07Z</time>
      </trkpt>
      <trkpt lat="43.34017" lon="-0.52178">
        <ele>206.82</ele>
        <time>2017-09-09T12:47:08Z</time>
      </trkpt>
      <trkpt lat="43.34016" lon="-0.52179">
        <ele>206.82</ele>
        <time>2017-09-09T12:47:09Z</time>
      </trkpt>
      <trkpt lat="43.34015" lon="-0.52182">
        <ele>206.34</ele>
        <time>2017-09-09T12:47:10Z</time>
      </trkpt>
      <trkpt lat="43.34015" lon="-0.52186">
        <ele>205.86</ele>
        <time>2017-09-09T12:47:11Z</time>
      </trkpt>
      <trkpt lat="43.34017" lon="-0.5219">
        <ele>204.9</ele>
        <time>2017-09-09T12:47:12Z</time>
      </trkpt>
      <trkpt lat="43.3402" lon="-0.52196">
        <ele>203.46</ele>
        <time>2017-09-09T12:47:13Z</time>
      </trkpt>
      <trkpt lat="43.34023" lon="-0.52203">
        <ele>202.49</ele>
        <time>2017-09-09T12:47:14Z</time>
      </trkpt>
      <trkpt lat="43.34046" lon="-0.52259">
        <ele>197.21</ele>
        <time>2017-09-09T12:47:20Z</time>
      </trkpt>
      <trkpt lat="43.34052" lon="-0.52267">
        <ele>196.73</ele>
        <time>2017-09-09T12:47:21Z</time>
      </trkpt>
      <trkpt lat="43.34075" lon="-0.52299">
        <ele>193.84</ele>
        <time>2017-09-09T12:47:28Z</time>
      </trkpt>
      <trkpt lat="43.34086" lon="-0.52329">
        <ele>193.84</ele>
        <time>2017-09-09T12:47:40Z</time>
      </trkpt>
      <trkpt lat="43.34103" lon="-0.52377">
        <ele>189.04</ele>
        <time>2017-09-09T12:47:53Z</time>
      </trkpt>
      <trkpt lat="43.3412" lon="-0.52425">
        <ele>187.11</ele>
        <time>2017-09-09T12:48:06Z</time>
      </trkpt>
      <trkpt lat="43.34139" lon="-0.52471">
        <ele>179.42</ele>
        <time>2017-09-09T12:48:17Z</time>
      </trkpt>
      <trkpt lat="43.34155" lon="-0.52514">
        <ele>174.14</ele>
        <time>2017-09-09T12:48:27Z</time>
      </trkpt>
      <trkpt lat="43.34158" lon="-0.52533">
        <ele>173.66</ele>
        <time>2017-09-09T12:48:31Z</time>
      </trkpt>
      <trkpt lat="43.34157" lon="-0.52539">
        <ele>174.14</ele>
        <time>2017-09-09T12:48:32Z</time>
      </trkpt>
      <trkpt lat="43.34153" lon="-0.52544">
        <ele>174.62</ele>
        <time>2017-09-09T12:48:33Z</time>
      </trkpt>
      <trkpt lat="43.34108" lon="-0.52587">
        <ele>177.5</ele>
        <time>2017-09-09T12:48:44Z</time>
      </trkpt>
      <trkpt lat="43.34061" lon="-0.52617">
        <ele>184.71</ele>
        <time>2017-09-09T12:48:57Z</time>
      </trkpt>
      <trkpt lat="43.34039" lon="-0.52639">
        <ele>186.15</ele>
        <time>2017-09-09T12:49:06Z</time>
      </trkpt>
      <trkpt lat="43.34015" lon="-0.52672">
        <ele>187.11</ele>
        <time>2017-09-09T12:49:17Z</time>
      </trkpt>
      <trkpt lat="43.33995" lon="-0.52729">
        <ele>191.44</ele>
        <time>2017-09-09T12:49:31Z</time>
      </trkpt>
      <trkpt lat="43.33973" lon="-0.52787">
        <ele>192.88</ele>
        <time>2017-09-09T12:49:42Z</time>
      </trkpt>
      <trkpt lat="43.33954" lon="-0.52889">
        <ele>190.96</ele>
        <time>2017-09-09T12:49:54Z</time>
      </trkpt>
      <trkpt lat="43.33946" lon="-0.52961">
        <ele>191.92</ele>
        <time>2017-09-09T12:50:03Z</time>
      </trkpt>
      <trkpt lat="43.33948" lon="-0.52996">
        <ele>192.4</ele>
        <time>2017-09-09T12:50:09Z</time>
      </trkpt>
      <trkpt lat="43.33956" lon="-0.53077">
        <ele>196.73</ele>
        <time>2017-09-09T12:50:24Z</time>
      </trkpt>
      <trkpt lat="43.33968" lon="-0.53135">
        <ele>198.17</ele>
        <time>2017-09-09T12:50:36Z</time>
      </trkpt>
      <trkpt lat="43.3399" lon="-0.53161">
        <ele>200.57</ele>
        <time>2017-09-09T12:50:45Z</time>
      </trkpt>
      <trkpt lat="43.33992" lon="-0.53165">
        <ele>201.05</ele>
        <time>2017-09-09T12:50:46Z</time>
      </trkpt>
      <trkpt lat="43.33993" lon="-0.53168">
        <ele>201.05</ele>
        <time>2017-09-09T12:50:47Z</time>
      </trkpt>
      <trkpt lat="43.33989" lon="-0.53194">
        <ele>197.69</ele>
        <time>2017-09-09T12:50:53Z</time>
      </trkpt>
      <trkpt lat="43.3396" lon="-0.53217">
        <ele>188.56</ele>
        <time>2017-09-09T12:51:02Z</time>
      </trkpt>
      <trkpt lat="43.33952" lon="-0.53217">
        <ele>186.15</ele>
        <time>2017-09-09T12:51:05Z</time>
      </trkpt>
      <trkpt lat="43.33945" lon="-0.53217">
        <ele>185.19</ele>
        <time>2017-09-09T12:51:07Z</time>
      </trkpt>
      <trkpt lat="43.33931" lon="-0.53212">
        <ele>183.75</ele>
        <time>2017-09-09T12:51:14Z</time>
      </trkpt>
      <trkpt lat="43.33926" lon="-0.53211">
        <ele>183.75</ele>
        <time>2017-09-09T12:51:16Z</time>
      </trkpt>
      <trkpt lat="43.33906" lon="-0.53194">
        <ele>181.83</ele>
        <time>2017-09-09T12:51:26Z</time>
      </trkpt>
      <trkpt lat="43.33882" lon="-0.53195">
        <ele>178.94</ele>
        <time>2017-09-09T12:51:32Z</time>
      </trkpt>
      <trkpt lat="43.33854" lon="-0.53181">
        <ele>176.06</ele>
        <time>2017-09-09T12:51:38Z</time>
      </trkpt>
      <trkpt lat="43.3385" lon="-0.5317">
        <ele>174.14</ele>
        <time>2017-09-09T12:51:42Z</time>
      </trkpt>
      <trkpt lat="43.33828" lon="-0.53162">
        <ele>170.29</ele>
        <time>2017-09-09T12:51:50Z</time>
      </trkpt>
      <trkpt lat="43.33826" lon="-0.5316">
        <ele>169.81</ele>
        <time>2017-09-09T12:51:51Z</time>
      </trkpt>
      <trkpt lat="43.33794" lon="-0.53151">
        <ele>166.45</ele>
        <time>2017-09-09T12:52:01Z</time>
      </trkpt>
      <trkpt lat="43.33778" lon="-0.53154">
        <ele>164.52</ele>
        <time>2017-09-09T12:52:04Z</time>
      </trkpt>
      <trkpt lat="43.33769" lon="-0.53162">
        <ele>162.6</ele>
        <time>2017-09-09T12:52:06Z</time>
      </trkpt>
      <trkpt lat="43.33744" lon="-0.53162">
        <ele>159.24</ele>
        <time>2017-09-09T12:52:11Z</time>
      </trkpt>
      <trkpt lat="43.33737" lon="-0.53154">
        <ele>157.79</ele>
        <time>2017-09-09T12:52:13Z</time>
      </trkpt>
      <trkpt lat="43.33719" lon="-0.53139">
        <ele>155.39</ele>
        <time>2017-09-09T12:52:17Z</time>
      </trkpt>
      <trkpt lat="43.337" lon="-0.5313">
        <ele>153.95</ele>
        <time>2017-09-09T12:52:20Z</time>
      </trkpt>
      <trkpt lat="43.33676" lon="-0.53139">
        <ele>151.06</ele>
        <time>2017-09-09T12:52:25Z</time>
      </trkpt>
      <trkpt lat="43.33643" lon="-0.5316">
        <ele>146.26</ele>
        <time>2017-09-09T12:52:32Z</time>
      </trkpt>
      <trkpt lat="43.33614" lon="-0.53175">
        <ele>138.57</ele>
        <time>2017-09-09T12:52:40Z</time>
      </trkpt>
      <trkpt lat="43.33576" lon="-0.53165">
        <ele>135.2</ele>
        <time>2017-09-09T12:52:47Z</time>
      </trkpt>
      <trkpt lat="43.33552" lon="-0.53187">
        <ele>133.76</ele>
        <time>2017-09-09T12:52:53Z</time>
      </trkpt>
      <trkpt lat="43.33527" lon="-0.532">
        <ele>132.8</ele>
        <time>2017-09-09T12:52:58Z</time>
      </trkpt>
      <trkpt lat="43.33503" lon="-0.53214">
        <ele>130.88</ele>
        <time>2017-09-09T12:53:03Z</time>
      </trkpt>
      <trkpt lat="43.33499" lon="-0.53223">
        <ele>129.92</ele>
        <time>2017-09-09T12:53:05Z</time>
      </trkpt>
      <trkpt lat="43.33473" lon="-0.5324">
        <ele>129.43</ele>
        <time>2017-09-09T12:53:13Z</time>
      </trkpt>
      <trkpt lat="43.33471" lon="-0.53238">
        <ele>129.43</ele>
        <time>2017-09-09T12:53:14Z</time>
      </trkpt>
      <trkpt lat="43.33465" lon="-0.53236">
        <ele>128.95</ele>
        <time>2017-09-09T12:53:17Z</time>
      </trkpt>
      <trkpt lat="43.33464" lon="-0.53234">
        <ele>128.47</ele>
        <time>2017-09-09T12:53:18Z</time>
      </trkpt>
      <trkpt lat="43.33465" lon="-0.53231">
        <ele>128.47</ele>
        <time>2017-09-09T12:53:19Z</time>
      </trkpt>
      <trkpt lat="43.33467" lon="-0.53229">
        <ele>127.99</ele>
        <time>2017-09-09T12:53:20Z</time>
      </trkpt>
      <trkpt lat="43.33468" lon="-0.53226">
        <ele>127.99</ele>
        <time>2017-09-09T12:53:21Z</time>
      </trkpt>
      <trkpt lat="43.3348" lon="-0.53202">
        <ele>127.99</ele>
        <time>2017-09-09T12:53:29Z</time>
      </trkpt>
      <trkpt lat="43.33479" lon="-0.53197">
        <ele>127.99</ele>
        <time>2017-09-09T12:53:30Z</time>
      </trkpt>
      <trkpt lat="43.33477" lon="-0.53196">
        <ele>127.99</ele>
        <time>2017-09-09T12:53:31Z</time>
      </trkpt>
      <trkpt lat="43.33475" lon="-0.53194">
        <ele>127.99</ele>
        <time>2017-09-09T12:53:32Z</time>
      </trkpt>
      <trkpt lat="43.33472" lon="-0.53193">
        <ele>127.99</ele>
        <time>2017-09-09T12:53:33Z</time>
      </trkpt>
      <trkpt lat="43.33469" lon="-0.53192">
        <ele>128.47</ele>
        <time>2017-09-09T12:53:34Z</time>
      </trkpt>
      <trkpt lat="43.33467" lon="-0.53192">
        <ele>128.95</ele>
        <time>2017-09-09T12:53:35Z</time>
      </trkpt>
      <trkpt lat="43.33465" lon="-0.53192">
        <ele>129.43</ele>
        <time>2017-09-09T12:53:36Z</time>
      </trkpt>
      <trkpt lat="43.33463" lon="-0.53192">
        <ele>130.4</ele>
        <time>2017-09-09T12:53:37Z</time>
      </trkpt>
      <trkpt lat="43.33426" lon="-0.53201">
        <ele>133.76</ele>
        <time>2017-09-09T12:53:49Z</time>
      </trkpt>
      <trkpt lat="43.33389" lon="-0.5321">
        <ele>136.16</ele>
        <time>2017-09-09T12:54:00Z</time>
      </trkpt>
      <trkpt lat="43.33347" lon="-0.53194">
        <ele>138.57</ele>
        <time>2017-09-09T12:54:12Z</time>
      </trkpt>
      <trkpt lat="43.33327" lon="-0.53137">
        <ele>137.13</ele>
        <time>2017-09-09T12:54:24Z</time>
      </trkpt>
      <trkpt lat="43.33312" lon="-0.53078">
        <ele>134.72</ele>
        <time>2017-09-09T12:54:37Z</time>
      </trkpt>
      <trkpt lat="43.33296" lon="-0.53044">
        <ele>138.57</ele>
        <time>2017-09-09T12:54:45Z</time>
      </trkpt>
      <trkpt lat="43.33293" lon="-0.5304">
        <ele>139.05</ele>
        <time>2017-09-09T12:54:46Z</time>
      </trkpt>
      <trkpt lat="43.33272" lon="-0.53015">
        <ele>140.49</ele>
        <time>2017-09-09T12:54:51Z</time>
      </trkpt>
      <trkpt lat="43.33267" lon="-0.5301">
        <ele>140.97</ele>
        <time>2017-09-09T12:54:52Z</time>
      </trkpt>
      <trkpt lat="43.33262" lon="-0.53004">
        <ele>140.97</ele>
        <time>2017-09-09T12:54:53Z</time>
      </trkpt>
      <trkpt lat="43.33257" lon="-0.52999">
        <ele>140.97</ele>
        <time>2017-09-09T12:54:54Z</time>
      </trkpt>
      <trkpt lat="43.33253" lon="-0.52994">
        <ele>140.97</ele>
        <time>2017-09-09T12:54:55Z</time>
      </trkpt>
      <trkpt lat="43.33249" lon="-0.5299">
        <ele>140.49</ele>
        <time>2017-09-09T12:54:56Z</time>
      </trkpt>
      <trkpt lat="43.33244" lon="-0.52985">
        <ele>140.97</ele>
        <time>2017-09-09T12:54:57Z</time>
      </trkpt>
      <trkpt lat="43.33199" lon="-0.52945">
        <ele>140.97</ele>
        <time>2017-09-09T12:55:09Z</time>
      </trkpt>
      <trkpt lat="43.33196" lon="-0.52941">
        <ele>141.45</ele>
        <time>2017-09-09T12:55:10Z</time>
      </trkpt>
      <trkpt lat="43.33192" lon="-0.52937">
        <ele>141.45</ele>
        <time>2017-09-09T12:55:11Z</time>
      </trkpt>
      <trkpt lat="43.33189" lon="-0.52933">
        <ele>141.45</ele>
        <time>2017-09-09T12:55:12Z</time>
      </trkpt>
      <trkpt lat="43.33186" lon="-0.52928">
        <ele>141.45</ele>
        <time>2017-09-09T12:55:13Z</time>
      </trkpt>
      <trkpt lat="43.33182" lon="-0.52924">
        <ele>141.45</ele>
        <time>2017-09-09T12:55:14Z</time>
      </trkpt>
      <trkpt lat="43.33163" lon="-0.52894">
        <ele>140.01</ele>
        <time>2017-09-09T12:55:20Z</time>
      </trkpt>
      <trkpt lat="43.33151" lon="-0.52869">
        <ele>138.09</ele>
        <time>2017-09-09T12:55:25Z</time>
      </trkpt>
      <trkpt lat="43.33148" lon="-0.52864">
        <ele>138.09</ele>
        <time>2017-09-09T12:55:26Z</time>
      </trkpt>
      <trkpt lat="43.33146" lon="-0.52859">
        <ele>137.61</ele>
        <time>2017-09-09T12:55:27Z</time>
      </trkpt>
      <trkpt lat="43.3314" lon="-0.52848">
        <ele>137.13</ele>
        <time>2017-09-09T12:55:29Z</time>
      </trkpt>
      <trkpt lat="43.33137" lon="-0.52844">
        <ele>136.64</ele>
        <time>2017-09-09T12:55:30Z</time>
      </trkpt>
      <trkpt lat="43.33105" lon="-0.52798">
        <ele>135.68</ele>
        <time>2017-09-09T12:55:41Z</time>
      </trkpt>
      <trkpt lat="43.33102" lon="-0.52793">
        <ele>135.2</ele>
        <time>2017-09-09T12:55:42Z</time>
      </trkpt>
      <trkpt lat="43.33099" lon="-0.52788">
        <ele>135.2</ele>
        <time>2017-09-09T12:55:43Z</time>
      </trkpt>
      <trkpt lat="43.33096" lon="-0.52783">
        <ele>134.72</ele>
        <time>2017-09-09T12:55:44Z</time>
      </trkpt>
      <trkpt lat="43.33093" lon="-0.52778">
        <ele>134.72</ele>
        <time>2017-09-09T12:55:45Z</time>
      </trkpt>
      <trkpt lat="43.33067" lon="-0.52712">
        <ele>135.68</ele>
        <time>2017-09-09T12:55:58Z</time>
      </trkpt>
      <trkpt lat="43.33064" lon="-0.52701">
        <ele>136.64</ele>
        <time>2017-09-09T12:56:00Z</time>
      </trkpt>
      <trkpt lat="43.33062" lon="-0.52695">
        <ele>136.64</ele>
        <time>2017-09-09T12:56:01Z</time>
      </trkpt>
      <trkpt lat="43.33057" lon="-0.52673">
        <ele>137.61</ele>
        <time>2017-09-09T12:56:05Z</time>
      </trkpt>
      <trkpt lat="43.33055" lon="-0.52666">
        <ele>137.61</ele>
        <time>2017-09-09T12:56:06Z</time>
      </trkpt>
      <trkpt lat="43.33052" lon="-0.52653">
        <ele>138.09</ele>
        <time>2017-09-09T12:56:08Z</time>
      </trkpt>
      <trkpt lat="43.33028" lon="-0.52607">
        <ele>143.85</ele>
        <time>2017-09-09T12:56:19Z</time>
      </trkpt>
      <trkpt lat="43.33006" lon="-0.5256">
        <ele>151.54</ele>
        <time>2017-09-09T12:56:31Z</time>
      </trkpt>
      <trkpt lat="43.32985" lon="-0.5252">
        <ele>158.27</ele>
        <time>2017-09-09T12:56:41Z</time>
      </trkpt>
      <trkpt lat="43.3297" lon="-0.5248">
        <ele>163.08</ele>
        <time>2017-09-09T12:56:51Z</time>
      </trkpt>
      <trkpt lat="43.3296" lon="-0.52431">
        <ele>159.24</ele>
        <time>2017-09-09T12:57:01Z</time>
      </trkpt>
      <trkpt lat="43.3295" lon="-0.52369">
        <ele>155.39</ele>
        <time>2017-09-09T12:57:13Z</time>
      </trkpt>
      <trkpt lat="43.32935" lon="-0.5232">
        <ele>152.51</ele>
        <time>2017-09-09T12:57:23Z</time>
      </trkpt>
      <trkpt lat="43.32931" lon="-0.52316">
        <ele>152.03</ele>
        <time>2017-09-09T12:57:24Z</time>
      </trkpt>
      <trkpt lat="43.32927" lon="-0.52313">
        <ele>152.03</ele>
        <time>2017-09-09T12:57:25Z</time>
      </trkpt>
      <trkpt lat="43.32921" lon="-0.52309">
        <ele>152.51</ele>
        <time>2017-09-09T12:57:26Z</time>
      </trkpt>
      <trkpt lat="43.32917" lon="-0.52306">
        <ele>152.51</ele>
        <time>2017-09-09T12:57:27Z</time>
      </trkpt>
      <trkpt lat="43.32912" lon="-0.52304">
        <ele>152.51</ele>
        <time>2017-09-09T12:57:28Z</time>
      </trkpt>
      <trkpt lat="43.32907" lon="-0.52303">
        <ele>152.51</ele>
        <time>2017-09-09T12:57:29Z</time>
      </trkpt>
      <trkpt lat="43.32901" lon="-0.52302">
        <ele>152.51</ele>
        <time>2017-09-09T12:57:30Z</time>
      </trkpt>
      <trkpt lat="43.32843" lon="-0.52298">
        <ele>149.62</ele>
        <time>2017-09-09T12:57:39Z</time>
      </trkpt>
      <trkpt lat="43.32822" lon="-0.52292">
        <ele>148.66</ele>
        <time>2017-09-09T12:57:42Z</time>
      </trkpt>
      <trkpt lat="43.32816" lon="-0.52289">
        <ele>148.18</ele>
        <time>2017-09-09T12:57:43Z</time>
      </trkpt>
      <trkpt lat="43.32794" lon="-0.52276">
        <ele>147.7</ele>
        <time>2017-09-09T12:57:46Z</time>
      </trkpt>
      <trkpt lat="43.32787" lon="-0.52271">
        <ele>147.7</ele>
        <time>2017-09-09T12:57:47Z</time>
      </trkpt>
      <trkpt lat="43.3278" lon="-0.52266">
        <ele>147.22</ele>
        <time>2017-09-09T12:57:48Z</time>
      </trkpt>
      <trkpt lat="43.32767" lon="-0.52258">
        <ele>147.22</ele>
        <time>2017-09-09T12:57:50Z</time>
      </trkpt>
      <trkpt lat="43.32761" lon="-0.52254">
        <ele>146.74</ele>
        <time>2017-09-09T12:57:51Z</time>
      </trkpt>
      <trkpt lat="43.32755" lon="-0.5225">
        <ele>146.74</ele>
        <time>2017-09-09T12:57:52Z</time>
      </trkpt>
      <trkpt lat="43.32749" lon="-0.52247">
        <ele>146.74</ele>
        <time>2017-09-09T12:57:53Z</time>
      </trkpt>
      <trkpt lat="43.32744" lon="-0.52244">
        <ele>146.26</ele>
        <time>2017-09-09T12:57:54Z</time>
      </trkpt>
      <trkpt lat="43.32735" lon="-0.52239">
        <ele>146.74</ele>
        <time>2017-09-09T12:57:56Z</time>
      </trkpt>
      <trkpt lat="43.32691" lon="-0.52211">
        <ele>144.82</ele>
        <time>2017-09-09T12:58:08Z</time>
      </trkpt>
      <trkpt lat="43.32653" lon="-0.52174">
        <ele>145.78</ele>
        <time>2017-09-09T12:58:20Z</time>
      </trkpt>
      <trkpt lat="43.32622" lon="-0.52131">
        <ele>143.85</ele>
        <time>2017-09-09T12:58:32Z</time>
      </trkpt>
      <trkpt lat="43.32597" lon="-0.52094">
        <ele>144.34</ele>
        <time>2017-09-09T12:58:42Z</time>
      </trkpt>
      <trkpt lat="43.32592" lon="-0.52088">
        <ele>144.82</ele>
        <time>2017-09-09T12:58:44Z</time>
      </trkpt>
      <trkpt lat="43.32566" lon="-0.52036">
        <ele>147.7</ele>
        <time>2017-09-09T12:58:57Z</time>
      </trkpt>
      <trkpt lat="43.3254" lon="-0.51997">
        <ele>149.14</ele>
        <time>2017-09-09T12:59:08Z</time>
      </trkpt>
      <trkpt lat="43.32506" lon="-0.51968">
        <ele>155.87</ele>
        <time>2017-09-09T12:59:20Z</time>
      </trkpt>
      <trkpt lat="43.32484" lon="-0.51956">
        <ele>160.2</ele>
        <time>2017-09-09T12:59:26Z</time>
      </trkpt>
      <trkpt lat="43.3248" lon="-0.51954">
        <ele>160.68</ele>
        <time>2017-09-09T12:59:27Z</time>
      </trkpt>
      <trkpt lat="43.32476" lon="-0.51953">
        <ele>161.16</ele>
        <time>2017-09-09T12:59:28Z</time>
      </trkpt>
      <trkpt lat="43.32472" lon="-0.5195">
        <ele>161.16</ele>
        <time>2017-09-09T12:59:29Z</time>
      </trkpt>
      <trkpt lat="43.32467" lon="-0.51948">
        <ele>161.64</ele>
        <time>2017-09-09T12:59:30Z</time>
      </trkpt>
      <trkpt lat="43.32444" lon="-0.5193">
        <ele>163.56</ele>
        <time>2017-09-09T12:59:35Z</time>
      </trkpt>
      <trkpt lat="43.32424" lon="-0.5191">
        <ele>161.64</ele>
        <time>2017-09-09T12:59:39Z</time>
      </trkpt>
      <trkpt lat="43.32419" lon="-0.51905">
        <ele>160.68</ele>
        <time>2017-09-09T12:59:40Z</time>
      </trkpt>
      <trkpt lat="43.32384" lon="-0.51878">
        <ele>158.27</ele>
        <time>2017-09-09T12:59:46Z</time>
      </trkpt>
      <trkpt lat="43.32377" lon="-0.51871">
        <ele>157.79</ele>
        <time>2017-09-09T12:59:47Z</time>
      </trkpt>
      <trkpt lat="43.32345" lon="-0.51839">
        <ele>154.43</ele>
        <time>2017-09-09T12:59:53Z</time>
      </trkpt>
      <trkpt lat="43.32325" lon="-0.5182">
        <ele>152.03</ele>
        <time>2017-09-09T12:59:58Z</time>
      </trkpt>
      <trkpt lat="43.32299" lon="-0.51788">
        <ele>151.06</ele>
        <time>2017-09-09T13:00:05Z</time>
      </trkpt>
      <trkpt lat="43.32296" lon="-0.51783">
        <ele>151.06</ele>
        <time>2017-09-09T13:00:06Z</time>
      </trkpt>
      <trkpt lat="43.32293" lon="-0.51778">
        <ele>151.06</ele>
        <time>2017-09-09T13:00:07Z</time>
      </trkpt>
      <trkpt lat="43.32267" lon="-0.51729">
        <ele>154.43</ele>
        <time>2017-09-09T13:00:17Z</time>
      </trkpt>
      <trkpt lat="43.32232" lon="-0.51682">
        <ele>156.35</ele>
        <time>2017-09-09T13:00:28Z</time>
      </trkpt>
      <trkpt lat="43.32225" lon="-0.51673">
        <ele>156.35</ele>
        <time>2017-09-09T13:00:30Z</time>
      </trkpt>
      <trkpt lat="43.32221" lon="-0.51669">
        <ele>156.83</ele>
        <time>2017-09-09T13:00:31Z</time>
      </trkpt>
      <trkpt lat="43.32211" lon="-0.51656">
        <ele>156.83</ele>
        <time>2017-09-09T13:00:34Z</time>
      </trkpt>
      <trkpt lat="43.32204" lon="-0.51649">
        <ele>156.83</ele>
        <time>2017-09-09T13:00:36Z</time>
      </trkpt>
      <trkpt lat="43.32197" lon="-0.5164">
        <ele>156.83</ele>
        <time>2017-09-09T13:00:38Z</time>
      </trkpt>
      <trkpt lat="43.32193" lon="-0.51636">
        <ele>157.31</ele>
        <time>2017-09-09T13:00:39Z</time>
      </trkpt>
      <trkpt lat="43.32178" lon="-0.51623">
        <ele>157.31</ele>
        <time>2017-09-09T13:00:43Z</time>
      </trkpt>
      <trkpt lat="43.32174" lon="-0.51619">
        <ele>157.31</ele>
        <time>2017-09-09T13:00:44Z</time>
      </trkpt>
      <trkpt lat="43.32171" lon="-0.51616">
        <ele>157.31</ele>
        <time>2017-09-09T13:00:45Z</time>
      </trkpt>
      <trkpt lat="43.32167" lon="-0.51613">
        <ele>157.79</ele>
        <time>2017-09-09T13:00:46Z</time>
      </trkpt>
      <trkpt lat="43.32163" lon="-0.5161">
        <ele>157.79</ele>
        <time>2017-09-09T13:00:47Z</time>
      </trkpt>
      <trkpt lat="43.32126" lon="-0.51582">
        <ele>157.79</ele>
        <time>2017-09-09T13:00:58Z</time>
      </trkpt>
      <trkpt lat="43.32099" lon="-0.51559">
        <ele>161.64</ele>
        <time>2017-09-09T13:01:08Z</time>
      </trkpt>
      <trkpt lat="43.32068" lon="-0.51535">
        <ele>165.48</ele>
        <time>2017-09-09T13:01:18Z</time>
      </trkpt>
      <trkpt lat="43.32041" lon="-0.51489">
        <ele>162.6</ele>
        <time>2017-09-09T13:01:30Z</time>
      </trkpt>
      <trkpt lat="43.32028" lon="-0.51457">
        <ele>150.58</ele>
        <time>2017-09-09T13:01:36Z</time>
      </trkpt>
      <trkpt lat="43.32024" lon="-0.51454">
        <ele>149.62</ele>
        <time>2017-09-09T13:01:37Z</time>
      </trkpt>
      <trkpt lat="43.3202" lon="-0.51451">
        <ele>148.66</ele>
        <time>2017-09-09T13:01:38Z</time>
      </trkpt>
      <trkpt lat="43.31992" lon="-0.51442">
        <ele>144.34</ele>
        <time>2017-09-09T13:01:43Z</time>
      </trkpt>
      <trkpt lat="43.31986" lon="-0.51438">
        <ele>143.85</ele>
        <time>2017-09-09T13:01:44Z</time>
      </trkpt>
      <trkpt lat="43.31981" lon="-0.51433">
        <ele>143.37</ele>
        <time>2017-09-09T13:01:45Z</time>
      </trkpt>
      <trkpt lat="43.31976" lon="-0.51428">
        <ele>142.89</ele>
        <time>2017-09-09T13:01:46Z</time>
      </trkpt>
      <trkpt lat="43.31971" lon="-0.51424">
        <ele>141.93</ele>
        <time>2017-09-09T13:01:47Z</time>
      </trkpt>
      <trkpt lat="43.31965" lon="-0.51421">
        <ele>141.45</ele>
        <time>2017-09-09T13:01:48Z</time>
      </trkpt>
      <trkpt lat="43.31959" lon="-0.5142">
        <ele>140.97</ele>
        <time>2017-09-09T13:01:49Z</time>
      </trkpt>
      <trkpt lat="43.31948" lon="-0.51416">
        <ele>140.01</ele>
        <time>2017-09-09T13:01:51Z</time>
      </trkpt>
      <trkpt lat="43.31944" lon="-0.51414">
        <ele>139.53</ele>
        <time>2017-09-09T13:01:52Z</time>
      </trkpt>
      <trkpt lat="43.31924" lon="-0.51384">
        <ele>140.01</ele>
        <time>2017-09-09T13:02:01Z</time>
      </trkpt>
      <trkpt lat="43.31911" lon="-0.51354">
        <ele>144.34</ele>
        <time>2017-09-09T13:02:10Z</time>
      </trkpt>
      <trkpt lat="43.31912" lon="-0.51312">
        <ele>146.74</ele>
        <time>2017-09-09T13:02:21Z</time>
      </trkpt>
      <trkpt lat="43.31913" lon="-0.51279">
        <ele>148.66</ele>
        <time>2017-09-09T13:02:31Z</time>
      </trkpt>
      <trkpt lat="43.31912" lon="-0.51268">
        <ele>150.1</ele>
        <time>2017-09-09T13:02:34Z</time>
      </trkpt>
      <trkpt lat="43.31912" lon="-0.51261">
        <ele>150.1</ele>
        <time>2017-09-09T13:02:36Z</time>
      </trkpt>
      <trkpt lat="43.31912" lon="-0.51257">
        <ele>150.1</ele>
        <time>2017-09-09T13:02:37Z</time>
      </trkpt>
      <trkpt lat="43.31912" lon="-0.51252">
        <ele>150.1</ele>
        <time>2017-09-09T13:02:38Z</time>
      </trkpt>
      <trkpt lat="43.3191" lon="-0.51237">
        <ele>149.62</ele>
        <time>2017-09-09T13:02:43Z</time>
      </trkpt>
      <trkpt lat="43.31909" lon="-0.51235">
        <ele>149.62</ele>
        <time>2017-09-09T13:02:44Z</time>
      </trkpt>
      <trkpt lat="43.31907" lon="-0.51233">
        <ele>150.1</ele>
        <time>2017-09-09T13:02:45Z</time>
      </trkpt>
      <trkpt lat="43.31906" lon="-0.51233">
        <ele>150.1</ele>
        <time>2017-09-09T13:02:46Z</time>
      </trkpt>
      <trkpt lat="43.319" lon="-0.51234">
        <ele>151.54</ele>
        <time>2017-09-09T13:02:53Z</time>
      </trkpt>
      <trkpt lat="43.31899" lon="-0.51234">
        <ele>151.54</ele>
        <time>2017-09-09T13:02:54Z</time>
      </trkpt>
      <trkpt lat="43.31898" lon="-0.51235">
        <ele>151.06</ele>
        <time>2017-09-09T13:02:55Z</time>
      </trkpt>
      <trkpt lat="43.31895" lon="-0.51236">
        <ele>152.03</ele>
        <time>2017-09-09T13:02:58Z</time>
      </trkpt>
      <trkpt lat="43.31894" lon="-0.51237">
        <ele>152.03</ele>
        <time>2017-09-09T13:02:59Z</time>
      </trkpt>
      <trkpt lat="43.31893" lon="-0.51238">
        <ele>152.51</ele>
        <time>2017-09-09T13:03:00Z</time>
      </trkpt>
      <trkpt lat="43.31892" lon="-0.51237">
        <ele>153.47</ele>
        <time>2017-09-09T13:03:01Z</time>
      </trkpt>
      <trkpt lat="43.3189" lon="-0.51236">
        <ele>154.91</ele>
        <time>2017-09-09T13:03:03Z</time>
      </trkpt>
      <trkpt lat="43.31888" lon="-0.51236">
        <ele>155.87</ele>
        <time>2017-09-09T13:03:04Z</time>
      </trkpt>
      <trkpt lat="43.31887" lon="-0.51235">
        <ele>156.83</ele>
        <time>2017-09-09T13:03:05Z</time>
      </trkpt>
      <trkpt lat="43.3187" lon="-0.51227">
        <ele>163.08</ele>
        <time>2017-09-09T13:03:18Z</time>
      </trkpt>
      <trkpt lat="43.31863" lon="-0.51223">
        <ele>164.04</ele>
        <time>2017-09-09T13:03:23Z</time>
      </trkpt>
      <trkpt lat="43.31852" lon="-0.51211">
        <ele>168.37</ele>
        <time>2017-09-09T13:03:35Z</time>
      </trkpt>
      <trkpt lat="43.3184" lon="-0.51193">
        <ele>175.58</ele>
        <time>2017-09-09T13:03:48Z</time>
      </trkpt>
      <trkpt lat="43.31832" lon="-0.51192">
        <ele>177.5</ele>
        <time>2017-09-09T13:03:56Z</time>
      </trkpt>
      <trkpt lat="43.31831" lon="-0.51192">
        <ele>177.5</ele>
        <time>2017-09-09T13:03:57Z</time>
      </trkpt>
      <trkpt lat="43.31827" lon="-0.51192">
        <ele>178.46</ele>
        <time>2017-09-09T13:04:00Z</time>
      </trkpt>
      <trkpt lat="43.31822" lon="-0.51191">
        <ele>178.46</ele>
        <time>2017-09-09T13:04:05Z</time>
      </trkpt>
      <trkpt lat="43.31821" lon="-0.51191">
        <ele>178.46</ele>
        <time>2017-09-09T13:04:06Z</time>
      </trkpt>
      <trkpt lat="43.31815" lon="-0.51191">
        <ele>178.94</ele>
        <time>2017-09-09T13:04:11Z</time>
      </trkpt>
      <trkpt lat="43.31814" lon="-0.5119">
        <ele>178.94</ele>
        <time>2017-09-09T13:04:12Z</time>
      </trkpt>
      <trkpt lat="43.31812" lon="-0.5119">
        <ele>178.94</ele>
        <time>2017-09-09T13:04:14Z</time>
      </trkpt>
      <trkpt lat="43.31797" lon="-0.51182">
        <ele>180.87</ele>
        <time>2017-09-09T13:04:26Z</time>
      </trkpt>
      <trkpt lat="43.31773" lon="-0.51182">
        <ele>180.87</ele>
        <time>2017-09-09T13:04:40Z</time>
      </trkpt>
      <trkpt lat="43.31769" lon="-0.51182">
        <ele>180.87</ele>
        <time>2017-09-09T13:04:43Z</time>
      </trkpt>
      <trkpt lat="43.31765" lon="-0.51181">
        <ele>181.83</ele>
        <time>2017-09-09T13:04:46Z</time>
      </trkpt>
      <trkpt lat="43.31761" lon="-0.51182">
        <ele>181.83</ele>
        <time>2017-09-09T13:04:49Z</time>
      </trkpt>
      <trkpt lat="43.31741" lon="-0.51177">
        <ele>181.83</ele>
        <time>2017-09-09T13:05:03Z</time>
      </trkpt>
      <trkpt lat="43.31732" lon="-0.51176">
        <ele>181.83</ele>
        <time>2017-09-09T13:05:09Z</time>
      </trkpt>
      <trkpt lat="43.31731" lon="-0.51175">
        <ele>182.31</ele>
        <time>2017-09-09T13:05:10Z</time>
      </trkpt>
      <trkpt lat="43.31729" lon="-0.51174">
        <ele>182.79</ele>
        <time>2017-09-09T13:05:11Z</time>
      </trkpt>
      <trkpt lat="43.31728" lon="-0.51173">
        <ele>182.79</ele>
        <time>2017-09-09T13:05:12Z</time>
      </trkpt>
      <trkpt lat="43.31726" lon="-0.51173">
        <ele>183.27</ele>
        <time>2017-09-09T13:05:13Z</time>
      </trkpt>
      <trkpt lat="43.31724" lon="-0.51173">
        <ele>183.75</ele>
        <time>2017-09-09T13:05:14Z</time>
      </trkpt>
      <trkpt lat="43.31722" lon="-0.51173">
        <ele>184.23</ele>
        <time>2017-09-09T13:05:15Z</time>
      </trkpt>
      <trkpt lat="43.31721" lon="-0.51173">
        <ele>183.75</ele>
        <time>2017-09-09T13:05:16Z</time>
      </trkpt>
      <trkpt lat="43.31719" lon="-0.51174">
        <ele>183.75</ele>
        <time>2017-09-09T13:05:17Z</time>
      </trkpt>
      <trkpt lat="43.31718" lon="-0.51175">
        <ele>183.27</ele>
        <time>2017-09-09T13:05:18Z</time>
      </trkpt>
      <trkpt lat="43.31707" lon="-0.51178">
        <ele>183.75</ele>
        <time>2017-09-09T13:05:27Z</time>
      </trkpt>
      <trkpt lat="43.31705" lon="-0.51177">
        <ele>184.23</ele>
        <time>2017-09-09T13:05:28Z</time>
      </trkpt>
      <trkpt lat="43.31704" lon="-0.51176">
        <ele>184.71</ele>
        <time>2017-09-09T13:05:29Z</time>
      </trkpt>
      <trkpt lat="43.31702" lon="-0.51175">
        <ele>185.67</ele>
        <time>2017-09-09T13:05:30Z</time>
      </trkpt>
      <trkpt lat="43.317" lon="-0.51175">
        <ele>186.15</ele>
        <time>2017-09-09T13:05:31Z</time>
      </trkpt>
      <trkpt lat="43.31698" lon="-0.51175">
        <ele>186.15</ele>
        <time>2017-09-09T13:05:32Z</time>
      </trkpt>
      <trkpt lat="43.31696" lon="-0.51174">
        <ele>186.15</ele>
        <time>2017-09-09T13:05:33Z</time>
      </trkpt>
      <trkpt lat="43.31695" lon="-0.51174">
        <ele>186.15</ele>
        <time>2017-09-09T13:05:34Z</time>
      </trkpt>
      <trkpt lat="43.31677" lon="-0.51163">
        <ele>188.56</ele>
        <time>2017-09-09T13:05:46Z</time>
      </trkpt>
      <trkpt lat="43.31671" lon="-0.51161">
        <ele>189.52</ele>
        <time>2017-09-09T13:05:50Z</time>
      </trkpt>
      <trkpt lat="43.3167" lon="-0.5116">
        <ele>190</ele>
        <time>2017-09-09T13:05:51Z</time>
      </trkpt>
      <trkpt lat="43.31667" lon="-0.51158">
        <ele>190.96</ele>
        <time>2017-09-09T13:05:53Z</time>
      </trkpt>
      <trkpt lat="43.31665" lon="-0.51156">
        <ele>191.92</ele>
        <time>2017-09-09T13:05:55Z</time>
      </trkpt>
      <trkpt lat="43.31649" lon="-0.51141">
        <ele>197.21</ele>
        <time>2017-09-09T13:06:08Z</time>
      </trkpt>
      <trkpt lat="43.31648" lon="-0.51141">
        <ele>197.21</ele>
        <time>2017-09-09T13:06:09Z</time>
      </trkpt>
      <trkpt lat="43.31646" lon="-0.5114">
        <ele>197.21</ele>
        <time>2017-09-09T13:06:10Z</time>
      </trkpt>
      <trkpt lat="43.31628" lon="-0.51124">
        <ele>198.17</ele>
        <time>2017-09-09T13:06:23Z</time>
      </trkpt>
      <trkpt lat="43.31619" lon="-0.51117">
        <ele>199.13</ele>
        <time>2017-09-09T13:06:30Z</time>
      </trkpt>
      <trkpt lat="43.31607" lon="-0.51107">
        <ele>199.13</ele>
        <time>2017-09-09T13:06:43Z</time>
      </trkpt>
      <trkpt lat="43.31606" lon="-0.51107">
        <ele>199.13</ele>
        <time>2017-09-09T13:06:44Z</time>
      </trkpt>
      <trkpt lat="43.31603" lon="-0.51104">
        <ele>198.65</ele>
        <time>2017-09-09T13:06:47Z</time>
      </trkpt>
      <trkpt lat="43.31596" lon="-0.511">
        <ele>200.57</ele>
        <time>2017-09-09T13:07:00Z</time>
      </trkpt>
      <trkpt lat="43.31586" lon="-0.51094">
        <ele>201.53</ele>
        <time>2017-09-09T13:07:16Z</time>
      </trkpt>
      <trkpt lat="43.31584" lon="-0.51087">
        <ele>201.05</ele>
        <time>2017-09-09T13:07:27Z</time>
      </trkpt>
      <trkpt lat="43.31576" lon="-0.5107">
        <ele>200.09</ele>
        <time>2017-09-09T13:07:41Z</time>
      </trkpt>
      <trkpt lat="43.31574" lon="-0.51068">
        <ele>200.09</ele>
        <time>2017-09-09T13:07:43Z</time>
      </trkpt>
      <trkpt lat="43.31573" lon="-0.51067">
        <ele>200.57</ele>
        <time>2017-09-09T13:07:44Z</time>
      </trkpt>
      <trkpt lat="43.31562" lon="-0.51052">
        <ele>200.57</ele>
        <time>2017-09-09T13:07:56Z</time>
      </trkpt>
      <trkpt lat="43.31554" lon="-0.51042">
        <ele>202.49</ele>
        <time>2017-09-09T13:08:03Z</time>
      </trkpt>
      <trkpt lat="43.31535" lon="-0.51037">
        <ele>202.01</ele>
        <time>2017-09-09T13:08:17Z</time>
      </trkpt>
      <trkpt lat="43.31529" lon="-0.51035">
        <ele>201.53</ele>
        <time>2017-09-09T13:08:24Z</time>
      </trkpt>
      <trkpt lat="43.31528" lon="-0.51034">
        <ele>201.53</ele>
        <time>2017-09-09T13:08:25Z</time>
      </trkpt>
      <trkpt lat="43.31524" lon="-0.5103">
        <ele>200.57</ele>
        <time>2017-09-09T13:08:35Z</time>
      </trkpt>
      <trkpt lat="43.31522" lon="-0.51027">
        <ele>199.61</ele>
        <time>2017-09-09T13:08:41Z</time>
      </trkpt>
      <trkpt lat="43.31522" lon="-0.5102">
        <ele>200.09</ele>
        <time>2017-09-09T13:08:46Z</time>
      </trkpt>
      <trkpt lat="43.31521" lon="-0.51016">
        <ele>200.09</ele>
        <time>2017-09-09T13:08:49Z</time>
      </trkpt>
      <trkpt lat="43.31521" lon="-0.51015">
        <ele>200.57</ele>
        <time>2017-09-09T13:08:50Z</time>
      </trkpt>
      <trkpt lat="43.31518" lon="-0.51011">
        <ele>201.05</ele>
        <time>2017-09-09T13:08:54Z</time>
      </trkpt>
      <trkpt lat="43.31517" lon="-0.5101">
        <ele>201.05</ele>
        <time>2017-09-09T13:08:55Z</time>
      </trkpt>
      <trkpt lat="43.31516" lon="-0.5101">
        <ele>200.57</ele>
        <time>2017-09-09T13:08:56Z</time>
      </trkpt>
      <trkpt lat="43.31515" lon="-0.5101">
        <ele>200.57</ele>
        <time>2017-09-09T13:08:57Z</time>
      </trkpt>
      <trkpt lat="43.31514" lon="-0.5101">
        <ele>200.57</ele>
        <time>2017-09-09T13:08:58Z</time>
      </trkpt>
      <trkpt lat="43.31513" lon="-0.5101">
        <ele>200.57</ele>
        <time>2017-09-09T13:08:59Z</time>
      </trkpt>
      <trkpt lat="43.31496" lon="-0.5101">
        <ele>202.01</ele>
        <time>2017-09-09T13:09:15Z</time>
      </trkpt>
      <trkpt lat="43.31483" lon="-0.51001">
        <ele>203.94</ele>
        <time>2017-09-09T13:09:31Z</time>
      </trkpt>
      <trkpt lat="43.31479" lon="-0.50997">
        <ele>203.46</ele>
        <time>2017-09-09T13:09:40Z</time>
      </trkpt>
      <trkpt lat="43.31478" lon="-0.50997">
        <ele>203.46</ele>
        <time>2017-09-09T13:09:41Z</time>
      </trkpt>
      <trkpt lat="43.31477" lon="-0.50996">
        <ele>203.46</ele>
        <time>2017-09-09T13:09:42Z</time>
      </trkpt>
      <trkpt lat="43.31468" lon="-0.50988">
        <ele>205.86</ele>
        <time>2017-09-09T13:09:55Z</time>
      </trkpt>
      <trkpt lat="43.31465" lon="-0.50985">
        <ele>204.9</ele>
        <time>2017-09-09T13:10:00Z</time>
      </trkpt>
      <trkpt lat="43.31465" lon="-0.50982">
        <ele>204.42</ele>
        <time>2017-09-09T13:10:02Z</time>
      </trkpt>
      <trkpt lat="43.31466" lon="-0.50969">
        <ele>201.05</ele>
        <time>2017-09-09T13:10:13Z</time>
      </trkpt>
      <trkpt lat="43.31466" lon="-0.50967">
        <ele>200.57</ele>
        <time>2017-09-09T13:10:14Z</time>
      </trkpt>
      <trkpt lat="43.31462" lon="-0.50936">
        <ele>199.61</ele>
        <time>2017-09-09T13:10:22Z</time>
      </trkpt>
      <trkpt lat="43.31456" lon="-0.5093">
        <ele>199.61</ele>
        <time>2017-09-09T13:10:31Z</time>
      </trkpt>
      <trkpt lat="43.3145" lon="-0.50922">
        <ele>203.94</ele>
        <time>2017-09-09T13:10:46Z</time>
      </trkpt>
      <trkpt lat="43.3145" lon="-0.50924">
        <ele>205.38</ele>
        <time>2017-09-09T13:11:01Z</time>
      </trkpt>
      <trkpt lat="43.31449" lon="-0.50933">
        <ele>206.34</ele>
        <time>2017-09-09T13:11:10Z</time>
      </trkpt>
      <trkpt lat="43.31445" lon="-0.50938">
        <ele>208.74</ele>
        <time>2017-09-09T13:11:22Z</time>
      </trkpt>
      <trkpt lat="43.31434" lon="-0.50926">
        <ele>213.55</ele>
        <time>2017-09-09T13:11:36Z</time>
      </trkpt>
      <trkpt lat="43.31427" lon="-0.50914">
        <ele>220.28</ele>
        <time>2017-09-09T13:11:50Z</time>
      </trkpt>
      <trkpt lat="43.31423" lon="-0.50899">
        <ele>224.61</ele>
        <time>2017-09-09T13:12:05Z</time>
      </trkpt>
      <trkpt lat="43.31413" lon="-0.50886">
        <ele>225.09</ele>
        <time>2017-09-09T13:12:19Z</time>
      </trkpt>
      <trkpt lat="43.31398" lon="-0.50869">
        <ele>227.97</ele>
        <time>2017-09-09T13:12:35Z</time>
      </trkpt>
      <trkpt lat="43.31392" lon="-0.50863">
        <ele>229.41</ele>
        <time>2017-09-09T13:12:46Z</time>
      </trkpt>
      <trkpt lat="43.3139" lon="-0.50861">
        <ele>230.85</ele>
        <time>2017-09-09T13:13:03Z</time>
      </trkpt>
      <trkpt lat="43.31379" lon="-0.50857">
        <ele>231.81</ele>
        <time>2017-09-09T13:13:15Z</time>
      </trkpt>
      <trkpt lat="43.31364" lon="-0.50857">
        <ele>229.89</ele>
        <time>2017-09-09T13:13:28Z</time>
      </trkpt>
      <trkpt lat="43.31358" lon="-0.50853">
        <ele>229.89</ele>
        <time>2017-09-09T13:13:34Z</time>
      </trkpt>
      <trkpt lat="43.31357" lon="-0.50852">
        <ele>229.89</ele>
        <time>2017-09-09T13:13:35Z</time>
      </trkpt>
      <trkpt lat="43.31345" lon="-0.5084">
        <ele>233.26</ele>
        <time>2017-09-09T13:13:49Z</time>
      </trkpt>
      <trkpt lat="43.31337" lon="-0.5083">
        <ele>234.22</ele>
        <time>2017-09-09T13:14:02Z</time>
      </trkpt>
      <trkpt lat="43.31332" lon="-0.50818">
        <ele>235.18</ele>
        <time>2017-09-09T13:14:17Z</time>
      </trkpt>
      <trkpt lat="43.31326" lon="-0.50812">
        <ele>234.7</ele>
        <time>2017-09-09T13:14:22Z</time>
      </trkpt>
      <trkpt lat="43.31323" lon="-0.50809">
        <ele>235.18</ele>
        <time>2017-09-09T13:14:23Z</time>
      </trkpt>
      <trkpt lat="43.31317" lon="-0.50801">
        <ele>235.66</ele>
        <time>2017-09-09T13:14:25Z</time>
      </trkpt>
      <trkpt lat="43.31314" lon="-0.50797">
        <ele>235.66</ele>
        <time>2017-09-09T13:14:26Z</time>
      </trkpt>
      <trkpt lat="43.31312" lon="-0.50794">
        <ele>235.18</ele>
        <time>2017-09-09T13:14:27Z</time>
      </trkpt>
      <trkpt lat="43.31309" lon="-0.50791">
        <ele>234.7</ele>
        <time>2017-09-09T13:14:28Z</time>
      </trkpt>
      <trkpt lat="43.31308" lon="-0.50789">
        <ele>234.22</ele>
        <time>2017-09-09T13:14:29Z</time>
      </trkpt>
      <trkpt lat="43.31306" lon="-0.50787">
        <ele>233.74</ele>
        <time>2017-09-09T13:14:30Z</time>
      </trkpt>
      <trkpt lat="43.3129" lon="-0.50778">
        <ele>233.26</ele>
        <time>2017-09-09T13:14:38Z</time>
      </trkpt>
      <trkpt lat="43.31289" lon="-0.50777">
        <ele>233.74</ele>
        <time>2017-09-09T13:14:39Z</time>
      </trkpt>
      <trkpt lat="43.31287" lon="-0.50775">
        <ele>234.22</ele>
        <time>2017-09-09T13:14:40Z</time>
      </trkpt>
      <trkpt lat="43.31264" lon="-0.50764">
        <ele>235.18</ele>
        <time>2017-09-09T13:14:55Z</time>
      </trkpt>
      <trkpt lat="43.31254" lon="-0.50761">
        <ele>234.22</ele>
        <time>2017-09-09T13:15:02Z</time>
      </trkpt>
      <trkpt lat="43.31253" lon="-0.50761">
        <ele>233.74</ele>
        <time>2017-09-09T13:15:03Z</time>
      </trkpt>
      <trkpt lat="43.31251" lon="-0.5076">
        <ele>234.22</ele>
        <time>2017-09-09T13:15:04Z</time>
      </trkpt>
      <trkpt lat="43.3125" lon="-0.50759">
        <ele>234.22</ele>
        <time>2017-09-09T13:15:05Z</time>
      </trkpt>
      <trkpt lat="43.31248" lon="-0.50759">
        <ele>234.22</ele>
        <time>2017-09-09T13:15:06Z</time>
      </trkpt>
      <trkpt lat="43.31247" lon="-0.50758">
        <ele>234.22</ele>
        <time>2017-09-09T13:15:07Z</time>
      </trkpt>
      <trkpt lat="43.31245" lon="-0.50757">
        <ele>234.22</ele>
        <time>2017-09-09T13:15:08Z</time>
      </trkpt>
      <trkpt lat="43.31244" lon="-0.50757">
        <ele>234.7</ele>
        <time>2017-09-09T13:15:09Z</time>
      </trkpt>
      <trkpt lat="43.31224" lon="-0.50738">
        <ele>236.62</ele>
        <time>2017-09-09T13:15:24Z</time>
      </trkpt>
      <trkpt lat="43.31222" lon="-0.50736">
        <ele>236.14</ele>
        <time>2017-09-09T13:15:25Z</time>
      </trkpt>
      <trkpt lat="43.3122" lon="-0.50734">
        <ele>236.14</ele>
        <time>2017-09-09T13:15:26Z</time>
      </trkpt>
      <trkpt lat="43.31218" lon="-0.50732">
        <ele>235.66</ele>
        <time>2017-09-09T13:15:27Z</time>
      </trkpt>
      <trkpt lat="43.312" lon="-0.50705">
        <ele>233.26</ele>
        <time>2017-09-09T13:15:37Z</time>
      </trkpt>
      <trkpt lat="43.31193" lon="-0.50695">
        <ele>233.26</ele>
        <time>2017-09-09T13:15:42Z</time>
      </trkpt>
      <trkpt lat="43.31192" lon="-0.50693">
        <ele>233.74</ele>
        <time>2017-09-09T13:15:43Z</time>
      </trkpt>
      <trkpt lat="43.31191" lon="-0.50691">
        <ele>234.22</ele>
        <time>2017-09-09T13:15:44Z</time>
      </trkpt>
      <trkpt lat="43.31189" lon="-0.50689">
        <ele>234.22</ele>
        <time>2017-09-09T13:15:45Z</time>
      </trkpt>
      <trkpt lat="43.31188" lon="-0.50687">
        <ele>234.22</ele>
        <time>2017-09-09T13:15:46Z</time>
      </trkpt>
      <trkpt lat="43.31187" lon="-0.50685">
        <ele>234.22</ele>
        <time>2017-09-09T13:15:47Z</time>
      </trkpt>
      <trkpt lat="43.31186" lon="-0.50683">
        <ele>234.7</ele>
        <time>2017-09-09T13:15:48Z</time>
      </trkpt>
      <trkpt lat="43.31174" lon="-0.50662">
        <ele>238.54</ele>
        <time>2017-09-09T13:15:59Z</time>
      </trkpt>
      <trkpt lat="43.31168" lon="-0.50656">
        <ele>239.02</ele>
        <time>2017-09-09T13:16:04Z</time>
      </trkpt>
      <trkpt lat="43.31166" lon="-0.50655">
        <ele>239.51</ele>
        <time>2017-09-09T13:16:05Z</time>
      </trkpt>
      <trkpt lat="43.31164" lon="-0.50654">
        <ele>239.02</ele>
        <time>2017-09-09T13:16:06Z</time>
      </trkpt>
      <trkpt lat="43.31148" lon="-0.50649">
        <ele>239.51</ele>
        <time>2017-09-09T13:16:11Z</time>
      </trkpt>
      <trkpt lat="43.31102" lon="-0.50629">
        <ele>238.06</ele>
        <time>2017-09-09T13:16:19Z</time>
      </trkpt>
      <trkpt lat="43.31098" lon="-0.50625">
        <ele>238.06</ele>
        <time>2017-09-09T13:16:20Z</time>
      </trkpt>
      <trkpt lat="43.31096" lon="-0.5062">
        <ele>238.06</ele>
        <time>2017-09-09T13:16:21Z</time>
      </trkpt>
      <trkpt lat="43.31094" lon="-0.50614">
        <ele>238.06</ele>
        <time>2017-09-09T13:16:22Z</time>
      </trkpt>
      <trkpt lat="43.31094" lon="-0.50608">
        <ele>238.06</ele>
        <time>2017-09-09T13:16:23Z</time>
      </trkpt>
      <trkpt lat="43.31093" lon="-0.50602">
        <ele>238.06</ele>
        <time>2017-09-09T13:16:24Z</time>
      </trkpt>
      <trkpt lat="43.31091" lon="-0.50598">
        <ele>237.1</ele>
        <time>2017-09-09T13:16:25Z</time>
      </trkpt>
      <trkpt lat="43.31089" lon="-0.50597">
        <ele>237.1</ele>
        <time>2017-09-09T13:16:26Z</time>
      </trkpt>
      <trkpt lat="43.31086" lon="-0.50595">
        <ele>236.62</ele>
        <time>2017-09-09T13:16:27Z</time>
      </trkpt>
      <trkpt lat="43.31084" lon="-0.50594">
        <ele>235.66</ele>
        <time>2017-09-09T13:16:28Z</time>
      </trkpt>
      <trkpt lat="43.31083" lon="-0.50593">
        <ele>235.18</ele>
        <time>2017-09-09T13:16:29Z</time>
      </trkpt>
      <trkpt lat="43.3108" lon="-0.50592">
        <ele>234.22</ele>
        <time>2017-09-09T13:16:30Z</time>
      </trkpt>
      <trkpt lat="43.31078" lon="-0.50591">
        <ele>233.74</ele>
        <time>2017-09-09T13:16:31Z</time>
      </trkpt>
      <trkpt lat="43.31056" lon="-0.50574">
        <ele>229.89</ele>
        <time>2017-09-09T13:16:43Z</time>
      </trkpt>
      <trkpt lat="43.31032" lon="-0.50556">
        <ele>228.45</ele>
        <time>2017-09-09T13:16:57Z</time>
      </trkpt>
      <trkpt lat="43.31004" lon="-0.50537">
        <ele>227.49</ele>
        <time>2017-09-09T13:17:11Z</time>
      </trkpt>
      <trkpt lat="43.30974" lon="-0.5051">
        <ele>225.57</ele>
        <time>2017-09-09T13:17:26Z</time>
      </trkpt>
      <trkpt lat="43.30949" lon="-0.50482">
        <ele>227.97</ele>
        <time>2017-09-09T13:17:41Z</time>
      </trkpt>
      <trkpt lat="43.30925" lon="-0.50467">
        <ele>229.89</ele>
        <time>2017-09-09T13:17:54Z</time>
      </trkpt>
      <trkpt lat="43.30899" lon="-0.50455">
        <ele>232.78</ele>
        <time>2017-09-09T13:18:09Z</time>
      </trkpt>
      <trkpt lat="43.30873" lon="-0.50443">
        <ele>232.3</ele>
        <time>2017-09-09T13:18:25Z</time>
      </trkpt>
      <trkpt lat="43.30859" lon="-0.50435">
        <ele>231.33</ele>
        <time>2017-09-09T13:18:33Z</time>
      </trkpt>
      <trkpt lat="43.30827" lon="-0.50445">
        <ele>228.45</ele>
        <time>2017-09-09T13:18:49Z</time>
      </trkpt>
      <trkpt lat="43.30811" lon="-0.50452">
        <ele>228.45</ele>
        <time>2017-09-09T13:18:59Z</time>
      </trkpt>
      <trkpt lat="43.30811" lon="-0.50454">
        <ele>228.45</ele>
        <time>2017-09-09T13:19:00Z</time>
      </trkpt>
      <trkpt lat="43.30812" lon="-0.50457">
        <ele>227.97</ele>
        <time>2017-09-09T13:19:01Z</time>
      </trkpt>
      <trkpt lat="43.30813" lon="-0.50459">
        <ele>227.49</ele>
        <time>2017-09-09T13:19:02Z</time>
      </trkpt>
      <trkpt lat="43.30814" lon="-0.50461">
        <ele>227.01</ele>
        <time>2017-09-09T13:19:03Z</time>
      </trkpt>
      <trkpt lat="43.30816" lon="-0.50462">
        <ele>226.53</ele>
        <time>2017-09-09T13:19:04Z</time>
      </trkpt>
      <trkpt lat="43.30818" lon="-0.50463">
        <ele>226.05</ele>
        <time>2017-09-09T13:19:05Z</time>
      </trkpt>
      <trkpt lat="43.3082" lon="-0.50464">
        <ele>225.57</ele>
        <time>2017-09-09T13:19:06Z</time>
      </trkpt>
      <trkpt lat="43.30822" lon="-0.50465">
        <ele>225.09</ele>
        <time>2017-09-09T13:19:07Z</time>
      </trkpt>
      <trkpt lat="43.30848" lon="-0.50481">
        <ele>219.32</ele>
        <time>2017-09-09T13:19:17Z</time>
      </trkpt>
      <trkpt lat="43.30856" lon="-0.50483">
        <ele>218.84</ele>
        <time>2017-09-09T13:19:19Z</time>
      </trkpt>
      <trkpt lat="43.3086" lon="-0.50484">
        <ele>218.36</ele>
        <time>2017-09-09T13:19:20Z</time>
      </trkpt>
      <trkpt lat="43.30863" lon="-0.50485">
        <ele>217.88</ele>
        <time>2017-09-09T13:19:21Z</time>
      </trkpt>
      <trkpt lat="43.30867" lon="-0.50487">
        <ele>217.88</ele>
        <time>2017-09-09T13:19:22Z</time>
      </trkpt>
      <trkpt lat="43.30871" lon="-0.50489">
        <ele>217.4</ele>
        <time>2017-09-09T13:19:23Z</time>
      </trkpt>
      <trkpt lat="43.30875" lon="-0.50492">
        <ele>216.91</ele>
        <time>2017-09-09T13:19:24Z</time>
      </trkpt>
      <trkpt lat="43.30878" lon="-0.50495">
        <ele>216.43</ele>
        <time>2017-09-09T13:19:25Z</time>
      </trkpt>
      <trkpt lat="43.30898" lon="-0.50514">
        <ele>211.63</ele>
        <time>2017-09-09T13:19:33Z</time>
      </trkpt>
      <trkpt lat="43.309" lon="-0.50515">
        <ele>211.15</ele>
        <time>2017-09-09T13:19:34Z</time>
      </trkpt>
      <trkpt lat="43.30902" lon="-0.50516">
        <ele>210.19</ele>
        <time>2017-09-09T13:19:35Z</time>
      </trkpt>
      <trkpt lat="43.3091" lon="-0.5052">
        <ele>207.3</ele>
        <time>2017-09-09T13:19:46Z</time>
      </trkpt>
      <trkpt lat="43.30917" lon="-0.50525">
        <ele>205.86</ele>
        <time>2017-09-09T13:20:01Z</time>
      </trkpt>
      <trkpt lat="43.30922" lon="-0.50528">
        <ele>201.05</ele>
        <time>2017-09-09T13:20:13Z</time>
      </trkpt>
      <trkpt lat="43.30924" lon="-0.5053">
        <ele>200.09</ele>
        <time>2017-09-09T13:20:15Z</time>
      </trkpt>
      <trkpt lat="43.3093" lon="-0.50542">
        <ele>197.21</ele>
        <time>2017-09-09T13:20:23Z</time>
      </trkpt>
      <trkpt lat="43.30932" lon="-0.50544">
        <ele>197.21</ele>
        <time>2017-09-09T13:20:24Z</time>
      </trkpt>
      <trkpt lat="43.30933" lon="-0.50547">
        <ele>197.21</ele>
        <time>2017-09-09T13:20:25Z</time>
      </trkpt>
      <trkpt lat="43.30933" lon="-0.5055">
        <ele>197.21</ele>
        <time>2017-09-09T13:20:26Z</time>
      </trkpt>
      <trkpt lat="43.30933" lon="-0.50552">
        <ele>197.21</ele>
        <time>2017-09-09T13:20:27Z</time>
      </trkpt>
      <trkpt lat="43.30922" lon="-0.50578">
        <ele>197.69</ele>
        <time>2017-09-09T13:20:36Z</time>
      </trkpt>
      <trkpt lat="43.30903" lon="-0.50591">
        <ele>196.25</ele>
        <time>2017-09-09T13:20:46Z</time>
      </trkpt>
      <trkpt lat="43.30888" lon="-0.50604">
        <ele>194.32</ele>
        <time>2017-09-09T13:20:55Z</time>
      </trkpt>
      <trkpt lat="43.30887" lon="-0.50607">
        <ele>193.36</ele>
        <time>2017-09-09T13:20:57Z</time>
      </trkpt>
      <trkpt lat="43.30887" lon="-0.50609">
        <ele>192.88</ele>
        <time>2017-09-09T13:20:58Z</time>
      </trkpt>
      <trkpt lat="43.30887" lon="-0.50613">
        <ele>192.88</ele>
        <time>2017-09-09T13:21:00Z</time>
      </trkpt>
      <trkpt lat="43.30887" lon="-0.50615">
        <ele>192.4</ele>
        <time>2017-09-09T13:21:01Z</time>
      </trkpt>
      <trkpt lat="43.30889" lon="-0.50625">
        <ele>191.92</ele>
        <time>2017-09-09T13:21:06Z</time>
      </trkpt>
      <trkpt lat="43.3089" lon="-0.50626">
        <ele>191.92</ele>
        <time>2017-09-09T13:21:07Z</time>
      </trkpt>
      <trkpt lat="43.30892" lon="-0.50628">
        <ele>192.4</ele>
        <time>2017-09-09T13:21:08Z</time>
      </trkpt>
      <trkpt lat="43.30894" lon="-0.50629">
        <ele>192.4</ele>
        <time>2017-09-09T13:21:09Z</time>
      </trkpt>
      <trkpt lat="43.30896" lon="-0.50631">
        <ele>191.92</ele>
        <time>2017-09-09T13:21:10Z</time>
      </trkpt>
      <trkpt lat="43.30898" lon="-0.50633">
        <ele>191.44</ele>
        <time>2017-09-09T13:21:11Z</time>
      </trkpt>
      <trkpt lat="43.30923" lon="-0.50654">
        <ele>190.96</ele>
        <time>2017-09-09T13:21:25Z</time>
      </trkpt>
      <trkpt lat="43.30938" lon="-0.50672">
        <ele>186.63</ele>
        <time>2017-09-09T13:21:37Z</time>
      </trkpt>
      <trkpt lat="43.3094" lon="-0.50676">
        <ele>185.67</ele>
        <time>2017-09-09T13:21:39Z</time>
      </trkpt>
      <trkpt lat="43.30938" lon="-0.50685">
        <ele>182.31</ele>
        <time>2017-09-09T13:21:51Z</time>
      </trkpt>
      <trkpt lat="43.30937" lon="-0.50686">
        <ele>181.83</ele>
        <time>2017-09-09T13:21:52Z</time>
      </trkpt>
      <trkpt lat="43.30936" lon="-0.50686">
        <ele>181.83</ele>
        <time>2017-09-09T13:21:53Z</time>
      </trkpt>
      <trkpt lat="43.3093" lon="-0.50693">
        <ele>177.98</ele>
        <time>2017-09-09T13:22:06Z</time>
      </trkpt>
      <trkpt lat="43.30919" lon="-0.50703">
        <ele>173.17</ele>
        <time>2017-09-09T13:22:17Z</time>
      </trkpt>
      <trkpt lat="43.30906" lon="-0.50718">
        <ele>168.85</ele>
        <time>2017-09-09T13:22:28Z</time>
      </trkpt>
      <trkpt lat="43.30902" lon="-0.50725">
        <ele>166.93</ele>
        <time>2017-09-09T13:22:32Z</time>
      </trkpt>
      <trkpt lat="43.309" lon="-0.50726">
        <ele>166.93</ele>
        <time>2017-09-09T13:22:33Z</time>
      </trkpt>
      <trkpt lat="43.30896" lon="-0.50728">
        <ele>166.93</ele>
        <time>2017-09-09T13:22:36Z</time>
      </trkpt>
      <trkpt lat="43.30894" lon="-0.50726">
        <ele>166.93</ele>
        <time>2017-09-09T13:22:37Z</time>
      </trkpt>
      <trkpt lat="43.30894" lon="-0.50725">
        <ele>166.45</ele>
        <time>2017-09-09T13:22:38Z</time>
      </trkpt>
      <trkpt lat="43.30893" lon="-0.50724">
        <ele>166.45</ele>
        <time>2017-09-09T13:22:39Z</time>
      </trkpt>
      <trkpt lat="43.30891" lon="-0.50723">
        <ele>166.45</ele>
        <time>2017-09-09T13:22:40Z</time>
      </trkpt>
      <trkpt lat="43.3089" lon="-0.50722">
        <ele>166.45</ele>
        <time>2017-09-09T13:22:41Z</time>
      </trkpt>
      <trkpt lat="43.30889" lon="-0.50721">
        <ele>166.45</ele>
        <time>2017-09-09T13:22:42Z</time>
      </trkpt>
      <trkpt lat="43.30888" lon="-0.50719">
        <ele>166.45</ele>
        <time>2017-09-09T13:22:43Z</time>
      </trkpt>
      <trkpt lat="43.30886" lon="-0.50718">
        <ele>166.45</ele>
        <time>2017-09-09T13:22:44Z</time>
      </trkpt>
      <trkpt lat="43.30885" lon="-0.50716">
        <ele>166.45</ele>
        <time>2017-09-09T13:22:45Z</time>
      </trkpt>
      <trkpt lat="43.30884" lon="-0.50715">
        <ele>166.45</ele>
        <time>2017-09-09T13:22:46Z</time>
      </trkpt>
      <trkpt lat="43.30867" lon="-0.507">
        <ele>166.45</ele>
        <time>2017-09-09T13:22:58Z</time>
      </trkpt>
      <trkpt lat="43.30836" lon="-0.50687">
        <ele>169.81</ele>
        <time>2017-09-09T13:23:10Z</time>
      </trkpt>
      <trkpt lat="43.30808" lon="-0.50676">
        <ele>176.54</ele>
        <time>2017-09-09T13:23:23Z</time>
      </trkpt>
      <trkpt lat="43.30777" lon="-0.50663">
        <ele>181.35</ele>
        <time>2017-09-09T13:23:37Z</time>
      </trkpt>
      <trkpt lat="43.30748" lon="-0.50649">
        <ele>182.79</ele>
        <time>2017-09-09T13:23:52Z</time>
      </trkpt>
      <trkpt lat="43.30729" lon="-0.50635">
        <ele>188.56</ele>
        <time>2017-09-09T13:24:05Z</time>
      </trkpt>
      <trkpt lat="43.30706" lon="-0.50608">
        <ele>189.04</ele>
        <time>2017-09-09T13:24:23Z</time>
      </trkpt>
      <trkpt lat="43.30695" lon="-0.50594">
        <ele>190.96</ele>
        <time>2017-09-09T13:24:33Z</time>
      </trkpt>
      <trkpt lat="43.30693" lon="-0.50592">
        <ele>190.96</ele>
        <time>2017-09-09T13:24:34Z</time>
      </trkpt>
      <trkpt lat="43.3067" lon="-0.50566">
        <ele>189.04</ele>
        <time>2017-09-09T13:24:52Z</time>
      </trkpt>
      <trkpt lat="43.30648" lon="-0.50546">
        <ele>189.04</ele>
        <time>2017-09-09T13:25:08Z</time>
      </trkpt>
      <trkpt lat="43.30621" lon="-0.50529">
        <ele>189.52</ele>
        <time>2017-09-09T13:25:25Z</time>
      </trkpt>
      <trkpt lat="43.30597" lon="-0.50514">
        <ele>190.96</ele>
        <time>2017-09-09T13:25:40Z</time>
      </trkpt>
      <trkpt lat="43.30576" lon="-0.50495">
        <ele>192.88</ele>
        <time>2017-09-09T13:25:54Z</time>
      </trkpt>
      <trkpt lat="43.30549" lon="-0.50469">
        <ele>194.32</ele>
        <time>2017-09-09T13:26:11Z</time>
      </trkpt>
      <trkpt lat="43.30531" lon="-0.50446">
        <ele>194.32</ele>
        <time>2017-09-09T13:26:25Z</time>
      </trkpt>
      <trkpt lat="43.30512" lon="-0.50423">
        <ele>195.28</ele>
        <time>2017-09-09T13:26:39Z</time>
      </trkpt>
      <trkpt lat="43.30493" lon="-0.50398">
        <ele>195.28</ele>
        <time>2017-09-09T13:26:53Z</time>
      </trkpt>
      <trkpt lat="43.30469" lon="-0.50373">
        <ele>202.98</ele>
        <time>2017-09-09T13:27:08Z</time>
      </trkpt>
      <trkpt lat="43.30444" lon="-0.50341">
        <ele>204.9</ele>
        <time>2017-09-09T13:27:22Z</time>
      </trkpt>
      <trkpt lat="43.30417" lon="-0.50311">
        <ele>204.42</ele>
        <time>2017-09-09T13:27:37Z</time>
      </trkpt>
      <trkpt lat="43.30398" lon="-0.50284">
        <ele>206.82</ele>
        <time>2017-09-09T13:27:49Z</time>
      </trkpt>
      <trkpt lat="43.30372" lon="-0.50261">
        <ele>210.19</ele>
        <time>2017-09-09T13:28:04Z</time>
      </trkpt>
      <trkpt lat="43.30352" lon="-0.50244">
        <ele>211.63</ele>
        <time>2017-09-09T13:28:15Z</time>
      </trkpt>
      <trkpt lat="43.30345" lon="-0.50239">
        <ele>210.67</ele>
        <time>2017-09-09T13:28:21Z</time>
      </trkpt>
      <trkpt lat="43.30344" lon="-0.50237">
        <ele>210.19</ele>
        <time>2017-09-09T13:28:22Z</time>
      </trkpt>
      <trkpt lat="43.30343" lon="-0.50235">
        <ele>209.7</ele>
        <time>2017-09-09T13:28:23Z</time>
      </trkpt>
      <trkpt lat="43.30342" lon="-0.50233">
        <ele>208.74</ele>
        <time>2017-09-09T13:28:24Z</time>
      </trkpt>
      <trkpt lat="43.30342" lon="-0.50231">
        <ele>208.26</ele>
        <time>2017-09-09T13:28:25Z</time>
      </trkpt>
      <trkpt lat="43.3034" lon="-0.50228">
        <ele>207.78</ele>
        <time>2017-09-09T13:28:26Z</time>
      </trkpt>
      <trkpt lat="43.30339" lon="-0.50226">
        <ele>206.82</ele>
        <time>2017-09-09T13:28:27Z</time>
      </trkpt>
      <trkpt lat="43.30339" lon="-0.50224">
        <ele>206.34</ele>
        <time>2017-09-09T13:28:28Z</time>
      </trkpt>
      <trkpt lat="43.30338" lon="-0.50222">
        <ele>206.34</ele>
        <time>2017-09-09T13:28:29Z</time>
      </trkpt>
      <trkpt lat="43.30338" lon="-0.5022">
        <ele>205.86</ele>
        <time>2017-09-09T13:28:30Z</time>
      </trkpt>
      <trkpt lat="43.30337" lon="-0.50217">
        <ele>205.38</ele>
        <time>2017-09-09T13:28:31Z</time>
      </trkpt>
      <trkpt lat="43.30337" lon="-0.50215">
        <ele>205.38</ele>
        <time>2017-09-09T13:28:32Z</time>
      </trkpt>
      <trkpt lat="43.30336" lon="-0.50212">
        <ele>204.42</ele>
        <time>2017-09-09T13:28:33Z</time>
      </trkpt>
      <trkpt lat="43.30335" lon="-0.50193">
        <ele>201.05</ele>
        <time>2017-09-09T13:28:42Z</time>
      </trkpt>
      <trkpt lat="43.30333" lon="-0.5019">
        <ele>201.05</ele>
        <time>2017-09-09T13:28:43Z</time>
      </trkpt>
      <trkpt lat="43.30331" lon="-0.50188">
        <ele>200.57</ele>
        <time>2017-09-09T13:28:44Z</time>
      </trkpt>
      <trkpt lat="43.30327" lon="-0.50184">
        <ele>200.57</ele>
        <time>2017-09-09T13:28:54Z</time>
      </trkpt>
      <trkpt lat="43.30326" lon="-0.50191">
        <ele>199.13</ele>
        <time>2017-09-09T13:29:01Z</time>
      </trkpt>
      <trkpt lat="43.30325" lon="-0.50192">
        <ele>198.65</ele>
        <time>2017-09-09T13:29:02Z</time>
      </trkpt>
      <trkpt lat="43.30323" lon="-0.50192">
        <ele>198.65</ele>
        <time>2017-09-09T13:29:03Z</time>
      </trkpt>
      <trkpt lat="43.3032" lon="-0.5019">
        <ele>198.17</ele>
        <time>2017-09-09T13:29:07Z</time>
      </trkpt>
      <trkpt lat="43.30319" lon="-0.50188">
        <ele>197.69</ele>
        <time>2017-09-09T13:29:08Z</time>
      </trkpt>
      <trkpt lat="43.30309" lon="-0.50177">
        <ele>194.32</ele>
        <time>2017-09-09T13:29:18Z</time>
      </trkpt>
      <trkpt lat="43.30307" lon="-0.50173">
        <ele>190.96</ele>
        <time>2017-09-09T13:29:31Z</time>
      </trkpt>
      <trkpt lat="43.30304" lon="-0.50166">
        <ele>189.04</ele>
        <time>2017-09-09T13:29:43Z</time>
      </trkpt>
      <trkpt lat="43.30292" lon="-0.50156">
        <ele>186.63</ele>
        <time>2017-09-09T13:29:57Z</time>
      </trkpt>
      <trkpt lat="43.30284" lon="-0.50151">
        <ele>185.67</ele>
        <time>2017-09-09T13:30:09Z</time>
      </trkpt>
      <trkpt lat="43.3028" lon="-0.50147">
        <ele>181.83</ele>
        <time>2017-09-09T13:30:24Z</time>
      </trkpt>
      <trkpt lat="43.30272" lon="-0.50143">
        <ele>179.42</ele>
        <time>2017-09-09T13:30:35Z</time>
      </trkpt>
      <trkpt lat="43.30269" lon="-0.50142">
        <ele>178.94</ele>
        <time>2017-09-09T13:30:39Z</time>
      </trkpt>
      <trkpt lat="43.30264" lon="-0.50137">
        <ele>177.02</ele>
        <time>2017-09-09T13:30:51Z</time>
      </trkpt>
      <trkpt lat="43.30246" lon="-0.50128">
        <ele>173.17</ele>
        <time>2017-09-09T13:31:02Z</time>
      </trkpt>
      <trkpt lat="43.30233" lon="-0.5012">
        <ele>170.29</ele>
        <time>2017-09-09T13:31:12Z</time>
      </trkpt>
      <trkpt lat="43.30222" lon="-0.50115">
        <ele>170.77</ele>
        <time>2017-09-09T13:31:25Z</time>
      </trkpt>
      <trkpt lat="43.30216" lon="-0.50117">
        <ele>171.25</ele>
        <time>2017-09-09T13:31:32Z</time>
      </trkpt>
      <trkpt lat="43.30214" lon="-0.50117">
        <ele>171.25</ele>
        <time>2017-09-09T13:31:33Z</time>
      </trkpt>
      <trkpt lat="43.3021" lon="-0.50114">
        <ele>170.77</ele>
        <time>2017-09-09T13:31:37Z</time>
      </trkpt>
      <trkpt lat="43.30205" lon="-0.50101">
        <ele>169.81</ele>
        <time>2017-09-09T13:31:48Z</time>
      </trkpt>
      <trkpt lat="43.30204" lon="-0.50093">
        <ele>169.81</ele>
        <time>2017-09-09T13:31:51Z</time>
      </trkpt>
      <trkpt lat="43.30196" lon="-0.50085">
        <ele>169.33</ele>
        <time>2017-09-09T13:31:56Z</time>
      </trkpt>
      <trkpt lat="43.30188" lon="-0.50084">
        <ele>168.85</ele>
        <time>2017-09-09T13:32:07Z</time>
      </trkpt>
      <trkpt lat="43.30188" lon="-0.50087">
        <ele>169.33</ele>
        <time>2017-09-09T13:32:15Z</time>
      </trkpt>
      <trkpt lat="43.30181" lon="-0.50103">
        <ele>168.37</ele>
        <time>2017-09-09T13:32:22Z</time>
      </trkpt>
      <trkpt lat="43.3018" lon="-0.50106">
        <ele>167.89</ele>
        <time>2017-09-09T13:32:23Z</time>
      </trkpt>
      <trkpt lat="43.30179" lon="-0.5014">
        <ele>163.08</ele>
        <time>2017-09-09T13:32:33Z</time>
      </trkpt>
      <trkpt lat="43.30166" lon="-0.50211">
        <ele>155.39</ele>
        <time>2017-09-09T13:32:46Z</time>
      </trkpt>
      <trkpt lat="43.30158" lon="-0.50305">
        <ele>150.1</ele>
        <time>2017-09-09T13:33:02Z</time>
      </trkpt>
      <trkpt lat="43.30154" lon="-0.50357">
        <ele>146.74</ele>
        <time>2017-09-09T13:33:13Z</time>
      </trkpt>
      <trkpt lat="43.30155" lon="-0.50359">
        <ele>146.74</ele>
        <time>2017-09-09T13:33:14Z</time>
      </trkpt>
      <trkpt lat="43.30158" lon="-0.50369">
        <ele>145.78</ele>
        <time>2017-09-09T13:33:24Z</time>
      </trkpt>
      <trkpt lat="43.30159" lon="-0.50368">
        <ele>145.78</ele>
        <time>2017-09-09T13:33:30Z</time>
      </trkpt>
      <trkpt lat="43.30158" lon="-0.50367">
        <ele>145.78</ele>
        <time>2017-09-09T13:33:31Z</time>
      </trkpt>
      <trkpt lat="43.30158" lon="-0.50366">
        <ele>145.78</ele>
        <time>2017-09-09T13:33:32Z</time>
      </trkpt>
      <trkpt lat="43.30157" lon="-0.50364">
        <ele>145.78</ele>
        <time>2017-09-09T13:33:33Z</time>
      </trkpt>
      <trkpt lat="43.30156" lon="-0.50363">
        <ele>145.78</ele>
        <time>2017-09-09T13:33:34Z</time>
      </trkpt>
      <trkpt lat="43.30132" lon="-0.50339">
        <ele>145.3</ele>
        <time>2017-09-09T13:33:46Z</time>
      </trkpt>
      <trkpt lat="43.30095" lon="-0.50302">
        <ele>145.78</ele>
        <time>2017-09-09T13:34:02Z</time>
      </trkpt>
      <trkpt lat="43.30068" lon="-0.50258">
        <ele>143.85</ele>
        <time>2017-09-09T13:34:17Z</time>
      </trkpt>
      <trkpt lat="43.30033" lon="-0.50231">
        <ele>144.34</ele>
        <time>2017-09-09T13:34:30Z</time>
      </trkpt>
      <trkpt lat="43.29992" lon="-0.50218">
        <ele>142.41</ele>
        <time>2017-09-09T13:34:42Z</time>
      </trkpt>
      <trkpt lat="43.29951" lon="-0.50207">
        <ele>143.85</ele>
        <time>2017-09-09T13:34:54Z</time>
      </trkpt>
      <trkpt lat="43.29907" lon="-0.50191">
        <ele>146.74</ele>
        <time>2017-09-09T13:35:08Z</time>
      </trkpt>
      <trkpt lat="43.29888" lon="-0.50183">
        <ele>146.26</ele>
        <time>2017-09-09T13:35:13Z</time>
      </trkpt>
      <trkpt lat="43.2986" lon="-0.50179">
        <ele>143.37</ele>
        <time>2017-09-09T13:35:19Z</time>
      </trkpt>
      <trkpt lat="43.29857" lon="-0.50181">
        <ele>143.37</ele>
        <time>2017-09-09T13:35:20Z</time>
      </trkpt>
      <trkpt lat="43.29855" lon="-0.50184">
        <ele>142.89</ele>
        <time>2017-09-09T13:35:21Z</time>
      </trkpt>
      <trkpt lat="43.29851" lon="-0.50192">
        <ele>142.41</ele>
        <time>2017-09-09T13:35:23Z</time>
      </trkpt>
      <trkpt lat="43.29848" lon="-0.50194">
        <ele>142.41</ele>
        <time>2017-09-09T13:35:24Z</time>
      </trkpt>
      <trkpt lat="43.29845" lon="-0.50195">
        <ele>142.41</ele>
        <time>2017-09-09T13:35:25Z</time>
      </trkpt>
      <trkpt lat="43.29843" lon="-0.50194">
        <ele>142.41</ele>
        <time>2017-09-09T13:35:26Z</time>
      </trkpt>
      <trkpt lat="43.29841" lon="-0.50194">
        <ele>142.89</ele>
        <time>2017-09-09T13:35:27Z</time>
      </trkpt>
      <trkpt lat="43.2984" lon="-0.50193">
        <ele>142.89</ele>
        <time>2017-09-09T13:35:28Z</time>
      </trkpt>
      <trkpt lat="43.29838" lon="-0.50191">
        <ele>143.37</ele>
        <time>2017-09-09T13:35:29Z</time>
      </trkpt>
      <trkpt lat="43.29836" lon="-0.5019">
        <ele>143.37</ele>
        <time>2017-09-09T13:35:30Z</time>
      </trkpt>
      <trkpt lat="43.29798" lon="-0.50179">
        <ele>142.41</ele>
        <time>2017-09-09T13:35:42Z</time>
      </trkpt>
      <trkpt lat="43.29756" lon="-0.50172">
        <ele>144.34</ele>
        <time>2017-09-09T13:35:55Z</time>
      </trkpt>
      <trkpt lat="43.29749" lon="-0.50176">
        <ele>145.3</ele>
        <time>2017-09-09T13:35:58Z</time>
      </trkpt>
      <trkpt lat="43.29747" lon="-0.50179">
        <ele>145.3</ele>
        <time>2017-09-09T13:35:59Z</time>
      </trkpt>
      <trkpt lat="43.29747" lon="-0.50184">
        <ele>144.82</ele>
        <time>2017-09-09T13:36:00Z</time>
      </trkpt>
      <trkpt lat="43.29738" lon="-0.50265">
        <ele>140.49</ele>
        <time>2017-09-09T13:36:11Z</time>
      </trkpt>
      <trkpt lat="43.29711" lon="-0.50387">
        <ele>137.61</ele>
        <time>2017-09-09T13:36:26Z</time>
      </trkpt>
      <trkpt lat="43.29708" lon="-0.50401">
        <ele>137.61</ele>
        <time>2017-09-09T13:36:28Z</time>
      </trkpt>
      <trkpt lat="43.297" lon="-0.50499">
        <ele>136.16</ele>
        <time>2017-09-09T13:36:42Z</time>
      </trkpt>
      <trkpt lat="43.29698" lon="-0.5052">
        <ele>135.68</ele>
        <time>2017-09-09T13:36:45Z</time>
      </trkpt>
      <trkpt lat="43.29683" lon="-0.50582">
        <ele>134.72</ele>
        <time>2017-09-09T13:36:55Z</time>
      </trkpt>
      <trkpt lat="43.2968" lon="-0.50587">
        <ele>134.72</ele>
        <time>2017-09-09T13:36:56Z</time>
      </trkpt>
      <trkpt lat="43.29674" lon="-0.50595">
        <ele>134.72</ele>
        <time>2017-09-09T13:36:58Z</time>
      </trkpt>
      <trkpt lat="43.29669" lon="-0.50599">
        <ele>135.2</ele>
        <time>2017-09-09T13:36:59Z</time>
      </trkpt>
      <trkpt lat="43.29665" lon="-0.50602">
        <ele>135.2</ele>
        <time>2017-09-09T13:37:00Z</time>
      </trkpt>
      <trkpt lat="43.29661" lon="-0.50604">
        <ele>135.2</ele>
        <time>2017-09-09T13:37:01Z</time>
      </trkpt>
      <trkpt lat="43.29656" lon="-0.50607">
        <ele>135.68</ele>
        <time>2017-09-09T13:37:02Z</time>
      </trkpt>
      <trkpt lat="43.29653" lon="-0.5061">
        <ele>135.68</ele>
        <time>2017-09-09T13:37:03Z</time>
      </trkpt>
      <trkpt lat="43.29649" lon="-0.50615">
        <ele>135.68</ele>
        <time>2017-09-09T13:37:04Z</time>
      </trkpt>
      <trkpt lat="43.29647" lon="-0.5062">
        <ele>135.68</ele>
        <time>2017-09-09T13:37:05Z</time>
      </trkpt>
      <trkpt lat="43.29646" lon="-0.50626">
        <ele>136.16</ele>
        <time>2017-09-09T13:37:06Z</time>
      </trkpt>
      <trkpt lat="43.29646" lon="-0.50631">
        <ele>136.64</ele>
        <time>2017-09-09T13:37:07Z</time>
      </trkpt>
      <trkpt lat="43.29647" lon="-0.50638">
        <ele>136.64</ele>
        <time>2017-09-09T13:37:08Z</time>
      </trkpt>
      <trkpt lat="43.29655" lon="-0.50688">
        <ele>138.09</ele>
        <time>2017-09-09T13:37:16Z</time>
      </trkpt>
      <trkpt lat="43.29658" lon="-0.50693">
        <ele>138.09</ele>
        <time>2017-09-09T13:37:17Z</time>
      </trkpt>
      <trkpt lat="43.29662" lon="-0.50697">
        <ele>138.09</ele>
        <time>2017-09-09T13:37:18Z</time>
      </trkpt>
      <trkpt lat="43.29667" lon="-0.507">
        <ele>138.09</ele>
        <time>2017-09-09T13:37:19Z</time>
      </trkpt>
      <trkpt lat="43.29671" lon="-0.50701">
        <ele>138.57</ele>
        <time>2017-09-09T13:37:20Z</time>
      </trkpt>
      <trkpt lat="43.29676" lon="-0.50701">
        <ele>138.57</ele>
        <time>2017-09-09T13:37:21Z</time>
      </trkpt>
      <trkpt lat="43.2968" lon="-0.50701">
        <ele>139.05</ele>
        <time>2017-09-09T13:37:22Z</time>
      </trkpt>
      <trkpt lat="43.29695" lon="-0.50702">
        <ele>139.53</ele>
        <time>2017-09-09T13:37:25Z</time>
      </trkpt>
      <trkpt lat="43.29724" lon="-0.50714">
        <ele>140.01</ele>
        <time>2017-09-09T13:37:31Z</time>
      </trkpt>
      <trkpt lat="43.29728" lon="-0.50718">
        <ele>140.49</ele>
        <time>2017-09-09T13:37:32Z</time>
      </trkpt>
      <trkpt lat="43.29791" lon="-0.50778">
        <ele>141.93</ele>
        <time>2017-09-09T13:37:47Z</time>
      </trkpt>
      <trkpt lat="43.29838" lon="-0.5082">
        <ele>143.85</ele>
        <time>2017-09-09T13:38:01Z</time>
      </trkpt>
      <trkpt lat="43.29874" lon="-0.50854">
        <ele>144.82</ele>
        <time>2017-09-09T13:38:13Z</time>
      </trkpt>
      <trkpt lat="43.29887" lon="-0.50871">
        <ele>144.82</ele>
        <time>2017-09-09T13:38:17Z</time>
      </trkpt>
      <trkpt lat="43.2989" lon="-0.50877">
        <ele>144.82</ele>
        <time>2017-09-09T13:38:18Z</time>
      </trkpt>
      <trkpt lat="43.29895" lon="-0.50888">
        <ele>144.82</ele>
        <time>2017-09-09T13:38:20Z</time>
      </trkpt>
      <trkpt lat="43.29914" lon="-0.50946">
        <ele>142.41</ele>
        <time>2017-09-09T13:38:30Z</time>
      </trkpt>
      <trkpt lat="43.29914" lon="-0.50952">
        <ele>141.93</ele>
        <time>2017-09-09T13:38:31Z</time>
      </trkpt>
      <trkpt lat="43.29914" lon="-0.50959">
        <ele>141.45</ele>
        <time>2017-09-09T13:38:32Z</time>
      </trkpt>
      <trkpt lat="43.29912" lon="-0.50966">
        <ele>140.97</ele>
        <time>2017-09-09T13:38:33Z</time>
      </trkpt>
      <trkpt lat="43.29911" lon="-0.50972">
        <ele>140.49</ele>
        <time>2017-09-09T13:38:34Z</time>
      </trkpt>
      <trkpt lat="43.29909" lon="-0.50978">
        <ele>140.49</ele>
        <time>2017-09-09T13:38:35Z</time>
      </trkpt>
      <trkpt lat="43.29885" lon="-0.51044">
        <ele>140.49</ele>
        <time>2017-09-09T13:38:46Z</time>
      </trkpt>
      <trkpt lat="43.29876" lon="-0.51067">
        <ele>140.97</ele>
        <time>2017-09-09T13:38:50Z</time>
      </trkpt>
      <trkpt lat="43.29868" lon="-0.51091">
        <ele>140.97</ele>
        <time>2017-09-09T13:38:54Z</time>
      </trkpt>
      <trkpt lat="43.29866" lon="-0.51097">
        <ele>140.97</ele>
        <time>2017-09-09T13:38:55Z</time>
      </trkpt>
      <trkpt lat="43.29865" lon="-0.51103">
        <ele>140.97</ele>
        <time>2017-09-09T13:38:56Z</time>
      </trkpt>
      <trkpt lat="43.29865" lon="-0.51109">
        <ele>140.97</ele>
        <time>2017-09-09T13:38:57Z</time>
      </trkpt>
      <trkpt lat="43.29865" lon="-0.51115">
        <ele>140.97</ele>
        <time>2017-09-09T13:38:58Z</time>
      </trkpt>
      <trkpt lat="43.29865" lon="-0.51121">
        <ele>140.97</ele>
        <time>2017-09-09T13:38:59Z</time>
      </trkpt>
      <trkpt lat="43.29866" lon="-0.51128">
        <ele>140.97</ele>
        <time>2017-09-09T13:39:00Z</time>
      </trkpt>
      <trkpt lat="43.29867" lon="-0.51133">
        <ele>141.45</ele>
        <time>2017-09-09T13:39:01Z</time>
      </trkpt>
      <trkpt lat="43.29869" lon="-0.5114">
        <ele>141.45</ele>
        <time>2017-09-09T13:39:02Z</time>
      </trkpt>
      <trkpt lat="43.2987" lon="-0.51146">
        <ele>141.45</ele>
        <time>2017-09-09T13:39:03Z</time>
      </trkpt>
      <trkpt lat="43.29871" lon="-0.51154">
        <ele>141.45</ele>
        <time>2017-09-09T13:39:04Z</time>
      </trkpt>
      <trkpt lat="43.29873" lon="-0.5116">
        <ele>141.93</ele>
        <time>2017-09-09T13:39:05Z</time>
      </trkpt>
      <trkpt lat="43.2988" lon="-0.51178">
        <ele>142.41</ele>
        <time>2017-09-09T13:39:08Z</time>
      </trkpt>
      <trkpt lat="43.29883" lon="-0.51183">
        <ele>142.41</ele>
        <time>2017-09-09T13:39:09Z</time>
      </trkpt>
      <trkpt lat="43.29886" lon="-0.51188">
        <ele>142.41</ele>
        <time>2017-09-09T13:39:10Z</time>
      </trkpt>
      <trkpt lat="43.29889" lon="-0.51192">
        <ele>142.41</ele>
        <time>2017-09-09T13:39:11Z</time>
      </trkpt>
      <trkpt lat="43.29893" lon="-0.51197">
        <ele>142.41</ele>
        <time>2017-09-09T13:39:12Z</time>
      </trkpt>
      <trkpt lat="43.29897" lon="-0.51203">
        <ele>142.41</ele>
        <time>2017-09-09T13:39:13Z</time>
      </trkpt>
      <trkpt lat="43.299" lon="-0.51209">
        <ele>142.41</ele>
        <time>2017-09-09T13:39:14Z</time>
      </trkpt>
      <trkpt lat="43.29903" lon="-0.51215">
        <ele>142.41</ele>
        <time>2017-09-09T13:39:15Z</time>
      </trkpt>
      <trkpt lat="43.29905" lon="-0.51222">
        <ele>142.41</ele>
        <time>2017-09-09T13:39:16Z</time>
      </trkpt>
      <trkpt lat="43.29907" lon="-0.51228">
        <ele>142.41</ele>
        <time>2017-09-09T13:39:17Z</time>
      </trkpt>
      <trkpt lat="43.29907" lon="-0.51235">
        <ele>142.89</ele>
        <time>2017-09-09T13:39:18Z</time>
      </trkpt>
      <trkpt lat="43.29907" lon="-0.5124">
        <ele>142.89</ele>
        <time>2017-09-09T13:39:19Z</time>
      </trkpt>
      <trkpt lat="43.29906" lon="-0.51246">
        <ele>143.37</ele>
        <time>2017-09-09T13:39:20Z</time>
      </trkpt>
      <trkpt lat="43.29905" lon="-0.51253">
        <ele>143.37</ele>
        <time>2017-09-09T13:39:21Z</time>
      </trkpt>
      <trkpt lat="43.299" lon="-0.5127">
        <ele>143.37</ele>
        <time>2017-09-09T13:39:24Z</time>
      </trkpt>
      <trkpt lat="43.29897" lon="-0.51276">
        <ele>143.37</ele>
        <time>2017-09-09T13:39:25Z</time>
      </trkpt>
      <trkpt lat="43.29894" lon="-0.51282">
        <ele>143.37</ele>
        <time>2017-09-09T13:39:26Z</time>
      </trkpt>
      <trkpt lat="43.29844" lon="-0.51336">
        <ele>142.41</ele>
        <time>2017-09-09T13:39:39Z</time>
      </trkpt>
      <trkpt lat="43.29841" lon="-0.51341">
        <ele>142.41</ele>
        <time>2017-09-09T13:39:40Z</time>
      </trkpt>
      <trkpt lat="43.29838" lon="-0.51345">
        <ele>142.41</ele>
        <time>2017-09-09T13:39:41Z</time>
      </trkpt>
      <trkpt lat="43.29835" lon="-0.5135">
        <ele>142.41</ele>
        <time>2017-09-09T13:39:42Z</time>
      </trkpt>
      <trkpt lat="43.29833" lon="-0.51355">
        <ele>142.41</ele>
        <time>2017-09-09T13:39:43Z</time>
      </trkpt>
      <trkpt lat="43.29831" lon="-0.5136">
        <ele>142.41</ele>
        <time>2017-09-09T13:39:44Z</time>
      </trkpt>
      <trkpt lat="43.2983" lon="-0.51365">
        <ele>142.89</ele>
        <time>2017-09-09T13:39:45Z</time>
      </trkpt>
      <trkpt lat="43.29829" lon="-0.51371">
        <ele>142.89</ele>
        <time>2017-09-09T13:39:46Z</time>
      </trkpt>
      <trkpt lat="43.29827" lon="-0.51376">
        <ele>143.37</ele>
        <time>2017-09-09T13:39:47Z</time>
      </trkpt>
      <trkpt lat="43.29815" lon="-0.51443">
        <ele>143.37</ele>
        <time>2017-09-09T13:40:03Z</time>
      </trkpt>
      <trkpt lat="43.29799" lon="-0.51529">
        <ele>144.34</ele>
        <time>2017-09-09T13:40:23Z</time>
      </trkpt>
      <trkpt lat="43.29788" lon="-0.51618">
        <ele>145.3</ele>
        <time>2017-09-09T13:40:43Z</time>
      </trkpt>
      <trkpt lat="43.29786" lon="-0.51683">
        <ele>146.26</ele>
        <time>2017-09-09T13:40:58Z</time>
      </trkpt>
      <trkpt lat="43.29785" lon="-0.51751">
        <ele>147.7</ele>
        <time>2017-09-09T13:41:14Z</time>
      </trkpt>
      <trkpt lat="43.29788" lon="-0.5181">
        <ele>149.62</ele>
        <time>2017-09-09T13:41:29Z</time>
      </trkpt>
      <trkpt lat="43.29797" lon="-0.51867">
        <ele>152.51</ele>
        <time>2017-09-09T13:41:44Z</time>
      </trkpt>
      <trkpt lat="43.29799" lon="-0.51869">
        <ele>152.51</ele>
        <time>2017-09-09T13:41:45Z</time>
      </trkpt>
      <trkpt lat="43.29802" lon="-0.5187">
        <ele>152.51</ele>
        <time>2017-09-09T13:41:46Z</time>
      </trkpt>
      <trkpt lat="43.29805" lon="-0.51871">
        <ele>152.51</ele>
        <time>2017-09-09T13:41:47Z</time>
      </trkpt>
      <trkpt lat="43.29809" lon="-0.51872">
        <ele>152.51</ele>
        <time>2017-09-09T13:41:48Z</time>
      </trkpt>
      <trkpt lat="43.29847" lon="-0.51902">
        <ele>151.54</ele>
        <time>2017-09-09T13:42:00Z</time>
      </trkpt>
      <trkpt lat="43.29883" lon="-0.51944">
        <ele>152.03</ele>
        <time>2017-09-09T13:42:13Z</time>
      </trkpt>
      <trkpt lat="43.29924" lon="-0.51989">
        <ele>151.06</ele>
        <time>2017-09-09T13:42:28Z</time>
      </trkpt>
      <trkpt lat="43.2994" lon="-0.5201">
        <ele>151.06</ele>
        <time>2017-09-09T13:42:34Z</time>
      </trkpt>
      <trkpt lat="43.29969" lon="-0.52005">
        <ele>152.51</ele>
        <time>2017-09-09T13:42:45Z</time>
      </trkpt>
      <trkpt lat="43.30006" lon="-0.51992">
        <ele>152.99</ele>
        <time>2017-09-09T13:43:02Z</time>
      </trkpt>
      <trkpt lat="43.30026" lon="-0.51986">
        <ele>153.95</ele>
        <time>2017-09-09T13:43:12Z</time>
      </trkpt>
      <trkpt lat="43.30027" lon="-0.51985">
        <ele>153.95</ele>
        <time>2017-09-09T13:43:13Z</time>
      </trkpt>
      <trkpt lat="43.30029" lon="-0.51983">
        <ele>153.47</ele>
        <time>2017-09-09T13:43:24Z</time>
      </trkpt>
      <trkpt lat="43.30032" lon="-0.51984">
        <ele>154.91</ele>
        <time>2017-09-09T13:44:01Z</time>
      </trkpt>
      <trkpt lat="43.30034" lon="-0.51984">
        <ele>154.91</ele>
        <time>2017-09-09T13:44:02Z</time>
      </trkpt>
      <trkpt lat="43.30037" lon="-0.51984">
        <ele>154.43</ele>
        <time>2017-09-09T13:44:03Z</time>
      </trkpt>
      <trkpt lat="43.3004" lon="-0.51984">
        <ele>154.43</ele>
        <time>2017-09-09T13:44:04Z</time>
      </trkpt>
      <trkpt lat="43.30044" lon="-0.51984">
        <ele>153.95</ele>
        <time>2017-09-09T13:44:05Z</time>
      </trkpt>
      <trkpt lat="43.30083" lon="-0.51982">
        <ele>151.54</ele>
        <time>2017-09-09T13:44:13Z</time>
      </trkpt>
      <trkpt lat="43.30088" lon="-0.51983">
        <ele>151.54</ele>
        <time>2017-09-09T13:44:14Z</time>
      </trkpt>
      <trkpt lat="43.30092" lon="-0.51984">
        <ele>151.54</ele>
        <time>2017-09-09T13:44:15Z</time>
      </trkpt>
      <trkpt lat="43.30117" lon="-0.51995">
        <ele>153.47</ele>
        <time>2017-09-09T13:44:26Z</time>
      </trkpt>
      <trkpt lat="43.3014" lon="-0.52012">
        <ele>155.39</ele>
        <time>2017-09-09T13:44:40Z</time>
      </trkpt>
      <trkpt lat="43.30179" lon="-0.52045">
        <ele>153.95</ele>
        <time>2017-09-09T13:44:53Z</time>
      </trkpt>
      <trkpt lat="43.30231" lon="-0.52091">
        <ele>149.62</ele>
        <time>2017-09-09T13:45:03Z</time>
      </trkpt>
      <trkpt lat="43.30234" lon="-0.52094">
        <ele>149.14</ele>
        <time>2017-09-09T13:45:04Z</time>
      </trkpt>
      <trkpt lat="43.30272" lon="-0.52121">
        <ele>149.14</ele>
        <time>2017-09-09T13:45:17Z</time>
      </trkpt>
      <trkpt lat="43.30304" lon="-0.52143">
        <ele>150.1</ele>
        <time>2017-09-09T13:45:29Z</time>
      </trkpt>
      <trkpt lat="43.30333" lon="-0.52157">
        <ele>151.06</ele>
        <time>2017-09-09T13:45:41Z</time>
      </trkpt>
      <trkpt lat="43.30368" lon="-0.52157">
        <ele>153.47</ele>
        <time>2017-09-09T13:45:54Z</time>
      </trkpt>
      <trkpt lat="43.30397" lon="-0.52169">
        <ele>152.03</ele>
        <time>2017-09-09T13:46:07Z</time>
      </trkpt>
      <trkpt lat="43.30427" lon="-0.52177">
        <ele>152.03</ele>
        <time>2017-09-09T13:46:19Z</time>
      </trkpt>
      <trkpt lat="43.30457" lon="-0.52191">
        <ele>153.47</ele>
        <time>2017-09-09T13:46:31Z</time>
      </trkpt>
      <trkpt lat="43.30504" lon="-0.52214">
        <ele>151.54</ele>
        <time>2017-09-09T13:46:42Z</time>
      </trkpt>
      <trkpt lat="43.30515" lon="-0.52217">
        <ele>150.58</ele>
        <time>2017-09-09T13:46:44Z</time>
      </trkpt>
      <trkpt lat="43.30587" lon="-0.5222">
        <ele>146.26</ele>
        <time>2017-09-09T13:46:56Z</time>
      </trkpt>
      <trkpt lat="43.30626" lon="-0.52224">
        <ele>143.85</ele>
        <time>2017-09-09T13:47:06Z</time>
      </trkpt>
      <trkpt lat="43.30677" lon="-0.52229">
        <ele>143.85</ele>
        <time>2017-09-09T13:47:20Z</time>
      </trkpt>
      <trkpt lat="43.30725" lon="-0.52233">
        <ele>143.37</ele>
        <time>2017-09-09T13:47:35Z</time>
      </trkpt>
      <trkpt lat="43.30765" lon="-0.5224">
        <ele>144.34</ele>
        <time>2017-09-09T13:47:48Z</time>
      </trkpt>
      <trkpt lat="43.30784" lon="-0.52241">
        <ele>144.82</ele>
        <time>2017-09-09T13:47:55Z</time>
      </trkpt>
      <trkpt lat="43.30786" lon="-0.52238">
        <ele>144.82</ele>
        <time>2017-09-09T13:47:56Z</time>
      </trkpt>
      <trkpt lat="43.30787" lon="-0.52233">
        <ele>144.82</ele>
        <time>2017-09-09T13:47:57Z</time>
      </trkpt>
      <trkpt lat="43.30788" lon="-0.52229">
        <ele>144.82</ele>
        <time>2017-09-09T13:47:58Z</time>
      </trkpt>
      <trkpt lat="43.30788" lon="-0.52224">
        <ele>144.34</ele>
        <time>2017-09-09T13:47:59Z</time>
      </trkpt>
      <trkpt lat="43.30789" lon="-0.52218">
        <ele>143.85</ele>
        <time>2017-09-09T13:48:00Z</time>
      </trkpt>
      <trkpt lat="43.3079" lon="-0.52211">
        <ele>143.37</ele>
        <time>2017-09-09T13:48:01Z</time>
      </trkpt>
      <trkpt lat="43.30791" lon="-0.52203">
        <ele>142.89</ele>
        <time>2017-09-09T13:48:02Z</time>
      </trkpt>
      <trkpt lat="43.30803" lon="-0.5216">
        <ele>140.49</ele>
        <time>2017-09-09T13:48:08Z</time>
      </trkpt>
      <trkpt lat="43.30807" lon="-0.52152">
        <ele>140.01</ele>
        <time>2017-09-09T13:48:10Z</time>
      </trkpt>
      <trkpt lat="43.3081" lon="-0.5215">
        <ele>140.01</ele>
        <time>2017-09-09T13:48:11Z</time>
      </trkpt>
      <trkpt lat="43.30813" lon="-0.5215">
        <ele>139.53</ele>
        <time>2017-09-09T13:48:12Z</time>
      </trkpt>
      <trkpt lat="43.30815" lon="-0.5215">
        <ele>139.53</ele>
        <time>2017-09-09T13:48:13Z</time>
      </trkpt>
      <trkpt lat="43.30817" lon="-0.52151">
        <ele>139.53</ele>
        <time>2017-09-09T13:48:14Z</time>
      </trkpt>
      <trkpt lat="43.3082" lon="-0.52152">
        <ele>139.53</ele>
        <time>2017-09-09T13:48:15Z</time>
      </trkpt>
      <trkpt lat="43.30822" lon="-0.52154">
        <ele>139.53</ele>
        <time>2017-09-09T13:48:16Z</time>
      </trkpt>
      <trkpt lat="43.30825" lon="-0.52156">
        <ele>139.05</ele>
        <time>2017-09-09T13:48:17Z</time>
      </trkpt>
      <trkpt lat="43.30827" lon="-0.52159">
        <ele>139.05</ele>
        <time>2017-09-09T13:48:18Z</time>
      </trkpt>
      <trkpt lat="43.30829" lon="-0.52161">
        <ele>139.05</ele>
        <time>2017-09-09T13:48:19Z</time>
      </trkpt>
      <trkpt lat="43.30831" lon="-0.52163">
        <ele>139.53</ele>
        <time>2017-09-09T13:48:20Z</time>
      </trkpt>
      <trkpt lat="43.30834" lon="-0.52164">
        <ele>139.53</ele>
        <time>2017-09-09T13:48:21Z</time>
      </trkpt>
      <trkpt lat="43.30837" lon="-0.52166">
        <ele>139.53</ele>
        <time>2017-09-09T13:48:22Z</time>
      </trkpt>
      <trkpt lat="43.30864" lon="-0.52184">
        <ele>140.49</ele>
        <time>2017-09-09T13:48:33Z</time>
      </trkpt>
      <trkpt lat="43.30894" lon="-0.52205">
        <ele>140.97</ele>
        <time>2017-09-09T13:48:46Z</time>
      </trkpt>
      <trkpt lat="43.30924" lon="-0.52227">
        <ele>142.41</ele>
        <time>2017-09-09T13:48:58Z</time>
      </trkpt>
      <trkpt lat="43.30945" lon="-0.5225">
        <ele>143.85</ele>
        <time>2017-09-09T13:49:07Z</time>
      </trkpt>
      <trkpt lat="43.30945" lon="-0.52253">
        <ele>143.85</ele>
        <time>2017-09-09T13:49:08Z</time>
      </trkpt>
      <trkpt lat="43.30944" lon="-0.52256">
        <ele>143.85</ele>
        <time>2017-09-09T13:49:09Z</time>
      </trkpt>
      <trkpt lat="43.30943" lon="-0.52259">
        <ele>143.85</ele>
        <time>2017-09-09T13:49:10Z</time>
      </trkpt>
      <trkpt lat="43.30942" lon="-0.52261">
        <ele>143.85</ele>
        <time>2017-09-09T13:49:11Z</time>
      </trkpt>
      <trkpt lat="43.30942" lon="-0.52264">
        <ele>143.85</ele>
        <time>2017-09-09T13:49:12Z</time>
      </trkpt>
      <trkpt lat="43.30942" lon="-0.52267">
        <ele>143.85</ele>
        <time>2017-09-09T13:49:13Z</time>
      </trkpt>
      <trkpt lat="43.30943" lon="-0.52268">
        <ele>143.85</ele>
        <time>2017-09-09T13:49:14Z</time>
      </trkpt>
      <trkpt lat="43.30945" lon="-0.52269">
        <ele>143.85</ele>
        <time>2017-09-09T13:49:15Z</time>
      </trkpt>
      <trkpt lat="43.30946" lon="-0.52269">
        <ele>143.85</ele>
        <time>2017-09-09T13:49:16Z</time>
      </trkpt>
      <trkpt lat="43.30948" lon="-0.52268">
        <ele>143.37</ele>
        <time>2017-09-09T13:49:17Z</time>
      </trkpt>
      <trkpt lat="43.3095" lon="-0.52266">
        <ele>143.37</ele>
        <time>2017-09-09T13:49:18Z</time>
      </trkpt>
      <trkpt lat="43.30952" lon="-0.52263">
        <ele>143.85</ele>
        <time>2017-09-09T13:49:19Z</time>
      </trkpt>
      <trkpt lat="43.30954" lon="-0.52261">
        <ele>143.85</ele>
        <time>2017-09-09T13:49:20Z</time>
      </trkpt>
      <trkpt lat="43.30957" lon="-0.52259">
        <ele>143.37</ele>
        <time>2017-09-09T13:49:21Z</time>
      </trkpt>
      <trkpt lat="43.30959" lon="-0.52257">
        <ele>143.37</ele>
        <time>2017-09-09T13:49:22Z</time>
      </trkpt>
      <trkpt lat="43.30962" lon="-0.52255">
        <ele>142.89</ele>
        <time>2017-09-09T13:49:23Z</time>
      </trkpt>
      <trkpt lat="43.30964" lon="-0.52253">
        <ele>142.89</ele>
        <time>2017-09-09T13:49:24Z</time>
      </trkpt>
      <trkpt lat="43.30966" lon="-0.52251">
        <ele>142.89</ele>
        <time>2017-09-09T13:49:25Z</time>
      </trkpt>
      <trkpt lat="43.30969" lon="-0.52249">
        <ele>142.89</ele>
        <time>2017-09-09T13:49:26Z</time>
      </trkpt>
      <trkpt lat="43.31001" lon="-0.5221">
        <ele>141.93</ele>
        <time>2017-09-09T13:49:39Z</time>
      </trkpt>
      <trkpt lat="43.31004" lon="-0.52199">
        <ele>141.93</ele>
        <time>2017-09-09T13:49:41Z</time>
      </trkpt>
      <trkpt lat="43.31017" lon="-0.52154">
        <ele>141.45</ele>
        <time>2017-09-09T13:49:49Z</time>
      </trkpt>
      <trkpt lat="43.31019" lon="-0.52149">
        <ele>141.45</ele>
        <time>2017-09-09T13:49:50Z</time>
      </trkpt>
      <trkpt lat="43.31024" lon="-0.52133">
        <ele>140.97</ele>
        <time>2017-09-09T13:49:53Z</time>
      </trkpt>
      <trkpt lat="43.31025" lon="-0.52127">
        <ele>140.97</ele>
        <time>2017-09-09T13:49:54Z</time>
      </trkpt>
      <trkpt lat="43.31026" lon="-0.52123">
        <ele>140.49</ele>
        <time>2017-09-09T13:49:55Z</time>
      </trkpt>
      <trkpt lat="43.31027" lon="-0.52118">
        <ele>140.49</ele>
        <time>2017-09-09T13:49:56Z</time>
      </trkpt>
      <trkpt lat="43.31029" lon="-0.52114">
        <ele>140.01</ele>
        <time>2017-09-09T13:49:57Z</time>
      </trkpt>
      <trkpt lat="43.31031" lon="-0.52112">
        <ele>140.01</ele>
        <time>2017-09-09T13:49:58Z</time>
      </trkpt>
      <trkpt lat="43.31034" lon="-0.52111">
        <ele>140.01</ele>
        <time>2017-09-09T13:49:59Z</time>
      </trkpt>
      <trkpt lat="43.31036" lon="-0.52112">
        <ele>140.01</ele>
        <time>2017-09-09T13:50:00Z</time>
      </trkpt>
      <trkpt lat="43.31038" lon="-0.52112">
        <ele>139.53</ele>
        <time>2017-09-09T13:50:01Z</time>
      </trkpt>
      <trkpt lat="43.3104" lon="-0.52114">
        <ele>139.05</ele>
        <time>2017-09-09T13:50:02Z</time>
      </trkpt>
      <trkpt lat="43.31042" lon="-0.52116">
        <ele>139.05</ele>
        <time>2017-09-09T13:50:03Z</time>
      </trkpt>
      <trkpt lat="43.31044" lon="-0.52118">
        <ele>139.05</ele>
        <time>2017-09-09T13:50:04Z</time>
      </trkpt>
      <trkpt lat="43.31054" lon="-0.52128">
        <ele>140.01</ele>
        <time>2017-09-09T13:50:08Z</time>
      </trkpt>
      <trkpt lat="43.31083" lon="-0.52157">
        <ele>142.41</ele>
        <time>2017-09-09T13:50:20Z</time>
      </trkpt>
      <trkpt lat="43.31112" lon="-0.52185">
        <ele>143.85</ele>
        <time>2017-09-09T13:50:31Z</time>
      </trkpt>
      <trkpt lat="43.3115" lon="-0.52184">
        <ele>140.49</ele>
        <time>2017-09-09T13:50:43Z</time>
      </trkpt>
      <trkpt lat="43.31152" lon="-0.52181">
        <ele>140.49</ele>
        <time>2017-09-09T13:50:44Z</time>
      </trkpt>
      <trkpt lat="43.31154" lon="-0.52178">
        <ele>140.01</ele>
        <time>2017-09-09T13:50:45Z</time>
      </trkpt>
      <trkpt lat="43.31156" lon="-0.52175">
        <ele>140.01</ele>
        <time>2017-09-09T13:50:46Z</time>
      </trkpt>
      <trkpt lat="43.31188" lon="-0.52138">
        <ele>136.16</ele>
        <time>2017-09-09T13:50:59Z</time>
      </trkpt>
      <trkpt lat="43.3121" lon="-0.52124">
        <ele>134.72</ele>
        <time>2017-09-09T13:51:08Z</time>
      </trkpt>
      <trkpt lat="43.31212" lon="-0.52123">
        <ele>134.72</ele>
        <time>2017-09-09T13:51:09Z</time>
      </trkpt>
      <trkpt lat="43.31218" lon="-0.52118">
        <ele>134.72</ele>
        <time>2017-09-09T13:51:12Z</time>
      </trkpt>
      <trkpt lat="43.31221" lon="-0.52118">
        <ele>134.72</ele>
        <time>2017-09-09T13:51:13Z</time>
      </trkpt>
      <trkpt lat="43.3123" lon="-0.52119">
        <ele>136.16</ele>
        <time>2017-09-09T13:51:16Z</time>
      </trkpt>
      <trkpt lat="43.31233" lon="-0.52122">
        <ele>136.16</ele>
        <time>2017-09-09T13:51:17Z</time>
      </trkpt>
      <trkpt lat="43.3126" lon="-0.52138">
        <ele>138.09</ele>
        <time>2017-09-09T13:51:27Z</time>
      </trkpt>
      <trkpt lat="43.31286" lon="-0.52139">
        <ele>135.2</ele>
        <time>2017-09-09T13:51:39Z</time>
      </trkpt>
      <trkpt lat="43.31305" lon="-0.52133">
        <ele>136.16</ele>
        <time>2017-09-09T13:51:48Z</time>
      </trkpt>
      <trkpt lat="43.31313" lon="-0.52137">
        <ele>139.05</ele>
        <time>2017-09-09T13:51:58Z</time>
      </trkpt>
      <trkpt lat="43.31319" lon="-0.52141">
        <ele>140.49</ele>
        <time>2017-09-09T13:52:05Z</time>
      </trkpt>
      <trkpt lat="43.31323" lon="-0.5215">
        <ele>140.49</ele>
        <time>2017-09-09T13:52:17Z</time>
      </trkpt>
      <trkpt lat="43.31341" lon="-0.52173">
        <ele>141.93</ele>
        <time>2017-09-09T13:52:28Z</time>
      </trkpt>
      <trkpt lat="43.31364" lon="-0.52191">
        <ele>139.53</ele>
        <time>2017-09-09T13:52:39Z</time>
      </trkpt>
      <trkpt lat="43.31368" lon="-0.52195">
        <ele>139.53</ele>
        <time>2017-09-09T13:52:41Z</time>
      </trkpt>
      <trkpt lat="43.31369" lon="-0.52198">
        <ele>139.53</ele>
        <time>2017-09-09T13:52:42Z</time>
      </trkpt>
      <trkpt lat="43.3137" lon="-0.52201">
        <ele>139.05</ele>
        <time>2017-09-09T13:52:43Z</time>
      </trkpt>
      <trkpt lat="43.31371" lon="-0.52204">
        <ele>138.57</ele>
        <time>2017-09-09T13:52:44Z</time>
      </trkpt>
      <trkpt lat="43.31372" lon="-0.52206">
        <ele>138.57</ele>
        <time>2017-09-09T13:52:45Z</time>
      </trkpt>
      <trkpt lat="43.31379" lon="-0.52225">
        <ele>136.64</ele>
        <time>2017-09-09T13:52:52Z</time>
      </trkpt>
      <trkpt lat="43.31379" lon="-0.52228">
        <ele>136.64</ele>
        <time>2017-09-09T13:52:53Z</time>
      </trkpt>
      <trkpt lat="43.31379" lon="-0.5223">
        <ele>136.16</ele>
        <time>2017-09-09T13:52:54Z</time>
      </trkpt>
      <trkpt lat="43.31385" lon="-0.52245">
        <ele>135.68</ele>
        <time>2017-09-09T13:53:05Z</time>
      </trkpt>
      <trkpt lat="43.31399" lon="-0.52279">
        <ele>136.16</ele>
        <time>2017-09-09T13:53:18Z</time>
      </trkpt>
      <trkpt lat="43.31404" lon="-0.52297">
        <ele>133.28</ele>
        <time>2017-09-09T13:53:31Z</time>
      </trkpt>
      <trkpt lat="43.31405" lon="-0.52308">
        <ele>134.24</ele>
        <time>2017-09-09T13:53:43Z</time>
      </trkpt>
      <trkpt lat="43.31407" lon="-0.52324">
        <ele>133.76</ele>
        <time>2017-09-09T13:53:56Z</time>
      </trkpt>
      <trkpt lat="43.31408" lon="-0.52329">
        <ele>132.8</ele>
        <time>2017-09-09T13:54:06Z</time>
      </trkpt>
      <trkpt lat="43.31414" lon="-0.52333">
        <ele>134.72</ele>
        <time>2017-09-09T13:54:15Z</time>
      </trkpt>
      <trkpt lat="43.31422" lon="-0.52337">
        <ele>137.13</ele>
        <time>2017-09-09T13:54:26Z</time>
      </trkpt>
      <trkpt lat="43.31429" lon="-0.52337">
        <ele>137.61</ele>
        <time>2017-09-09T13:54:34Z</time>
      </trkpt>
      <trkpt lat="43.31453" lon="-0.52344">
        <ele>137.13</ele>
        <time>2017-09-09T13:54:47Z</time>
      </trkpt>
      <trkpt lat="43.31478" lon="-0.52358">
        <ele>138.57</ele>
        <time>2017-09-09T13:54:59Z</time>
      </trkpt>
      <trkpt lat="43.31502" lon="-0.52361">
        <ele>138.57</ele>
        <time>2017-09-09T13:55:11Z</time>
      </trkpt>
      <trkpt lat="43.31504" lon="-0.52361">
        <ele>138.57</ele>
        <time>2017-09-09T13:55:12Z</time>
      </trkpt>
      <trkpt lat="43.31527" lon="-0.52367">
        <ele>139.53</ele>
        <time>2017-09-09T13:55:24Z</time>
      </trkpt>
      <trkpt lat="43.31546" lon="-0.52368">
        <ele>137.61</ele>
        <time>2017-09-09T13:55:36Z</time>
      </trkpt>
      <trkpt lat="43.31576" lon="-0.52377">
        <ele>136.16</ele>
        <time>2017-09-09T13:55:50Z</time>
      </trkpt>
      <trkpt lat="43.31607" lon="-0.52384">
        <ele>135.68</ele>
        <time>2017-09-09T13:56:02Z</time>
      </trkpt>
      <trkpt lat="43.31646" lon="-0.52397">
        <ele>135.2</ele>
        <time>2017-09-09T13:56:16Z</time>
      </trkpt>
      <trkpt lat="43.31678" lon="-0.52422">
        <ele>134.72</ele>
        <time>2017-09-09T13:56:29Z</time>
      </trkpt>
      <trkpt lat="43.31721" lon="-0.52457">
        <ele>134.24</ele>
        <time>2017-09-09T13:56:43Z</time>
      </trkpt>
      <trkpt lat="43.31774" lon="-0.52476">
        <ele>133.28</ele>
        <time>2017-09-09T13:56:58Z</time>
      </trkpt>
      <trkpt lat="43.31823" lon="-0.52496">
        <ele>132.8</ele>
        <time>2017-09-09T13:57:12Z</time>
      </trkpt>
      <trkpt lat="43.31869" lon="-0.52516">
        <ele>132.32</ele>
        <time>2017-09-09T13:57:24Z</time>
      </trkpt>
      <trkpt lat="43.31902" lon="-0.52547">
        <ele>132.32</ele>
        <time>2017-09-09T13:57:35Z</time>
      </trkpt>
      <trkpt lat="43.31934" lon="-0.52596">
        <ele>132.8</ele>
        <time>2017-09-09T13:57:48Z</time>
      </trkpt>
      <trkpt lat="43.31927" lon="-0.52649">
        <ele>131.84</ele>
        <time>2017-09-09T13:57:59Z</time>
      </trkpt>
      <trkpt lat="43.31918" lon="-0.52694">
        <ele>131.36</ele>
        <time>2017-09-09T13:58:09Z</time>
      </trkpt>
      <trkpt lat="43.31934" lon="-0.5277">
        <ele>130.88</ele>
        <time>2017-09-09T13:58:24Z</time>
      </trkpt>
      <trkpt lat="43.31945" lon="-0.52822">
        <ele>131.84</ele>
        <time>2017-09-09T13:58:35Z</time>
      </trkpt>
      <trkpt lat="43.31971" lon="-0.52903">
        <ele>132.32</ele>
        <time>2017-09-09T13:58:52Z</time>
      </trkpt>
      <trkpt lat="43.31998" lon="-0.52958">
        <ele>133.76</ele>
        <time>2017-09-09T13:59:05Z</time>
      </trkpt>
      <trkpt lat="43.32026" lon="-0.53003">
        <ele>134.24</ele>
        <time>2017-09-09T13:59:17Z</time>
      </trkpt>
      <trkpt lat="43.32073" lon="-0.5306">
        <ele>135.2</ele>
        <time>2017-09-09T13:59:34Z</time>
      </trkpt>
      <trkpt lat="43.32099" lon="-0.53114">
        <ele>135.68</ele>
        <time>2017-09-09T13:59:48Z</time>
      </trkpt>
      <trkpt lat="43.32118" lon="-0.53179">
        <ele>136.16</ele>
        <time>2017-09-09T14:00:04Z</time>
      </trkpt>
      <trkpt lat="43.3213" lon="-0.53235">
        <ele>137.61</ele>
        <time>2017-09-09T14:00:18Z</time>
      </trkpt>
      <trkpt lat="43.32151" lon="-0.53279">
        <ele>141.93</ele>
        <time>2017-09-09T14:00:32Z</time>
      </trkpt>
      <trkpt lat="43.32179" lon="-0.53332">
        <ele>144.34</ele>
        <time>2017-09-09T14:00:47Z</time>
      </trkpt>
      <trkpt lat="43.32201" lon="-0.53389">
        <ele>145.3</ele>
        <time>2017-09-09T14:01:01Z</time>
      </trkpt>
      <trkpt lat="43.32205" lon="-0.53404">
        <ele>144.82</ele>
        <time>2017-09-09T14:01:04Z</time>
      </trkpt>
      <trkpt lat="43.32233" lon="-0.53482">
        <ele>143.37</ele>
        <time>2017-09-09T14:01:17Z</time>
      </trkpt>
      <trkpt lat="43.32257" lon="-0.53534">
        <ele>142.41</ele>
        <time>2017-09-09T14:01:29Z</time>
      </trkpt>
      <trkpt lat="43.32301" lon="-0.53638">
        <ele>140.01</ele>
        <time>2017-09-09T14:01:46Z</time>
      </trkpt>
      <trkpt lat="43.32314" lon="-0.5367">
        <ele>139.05</ele>
        <time>2017-09-09T14:01:50Z</time>
      </trkpt>
      <trkpt lat="43.32327" lon="-0.53703">
        <ele>138.57</ele>
        <time>2017-09-09T14:01:54Z</time>
      </trkpt>
      <trkpt lat="43.32331" lon="-0.5371">
        <ele>138.57</ele>
        <time>2017-09-09T14:01:55Z</time>
      </trkpt>
      <trkpt lat="43.32336" lon="-0.53716">
        <ele>138.57</ele>
        <time>2017-09-09T14:01:56Z</time>
      </trkpt>
      <trkpt lat="43.3234" lon="-0.53722">
        <ele>138.57</ele>
        <time>2017-09-09T14:01:57Z</time>
      </trkpt>
      <trkpt lat="43.32345" lon="-0.53726">
        <ele>139.05</ele>
        <time>2017-09-09T14:01:58Z</time>
      </trkpt>
      <trkpt lat="43.32388" lon="-0.53783">
        <ele>139.53</ele>
        <time>2017-09-09T14:02:11Z</time>
      </trkpt>
      <trkpt lat="43.32428" lon="-0.53844">
        <ele>140.49</ele>
        <time>2017-09-09T14:02:28Z</time>
      </trkpt>
      <trkpt lat="43.32456" lon="-0.53905">
        <ele>141.45</ele>
        <time>2017-09-09T14:02:44Z</time>
      </trkpt>
      <trkpt lat="43.32484" lon="-0.53963">
        <ele>142.41</ele>
        <time>2017-09-09T14:02:59Z</time>
      </trkpt>
      <trkpt lat="43.32505" lon="-0.53995">
        <ele>142.89</ele>
        <time>2017-09-09T14:03:09Z</time>
      </trkpt>
      <trkpt lat="43.32508" lon="-0.53996">
        <ele>142.89</ele>
        <time>2017-09-09T14:03:10Z</time>
      </trkpt>
      <trkpt lat="43.3251" lon="-0.53994">
        <ele>142.89</ele>
        <time>2017-09-09T14:03:11Z</time>
      </trkpt>
      <trkpt lat="43.32513" lon="-0.53992">
        <ele>142.89</ele>
        <time>2017-09-09T14:03:12Z</time>
      </trkpt>
      <trkpt lat="43.32515" lon="-0.53988">
        <ele>142.41</ele>
        <time>2017-09-09T14:03:13Z</time>
      </trkpt>
      <trkpt lat="43.32518" lon="-0.53984">
        <ele>141.93</ele>
        <time>2017-09-09T14:03:14Z</time>
      </trkpt>
      <trkpt lat="43.32522" lon="-0.53979">
        <ele>141.45</ele>
        <time>2017-09-09T14:03:15Z</time>
      </trkpt>
      <trkpt lat="43.32572" lon="-0.53902">
        <ele>131.36</ele>
        <time>2017-09-09T14:03:24Z</time>
      </trkpt>
      <trkpt lat="43.32651" lon="-0.53772">
        <ele>124.63</ele>
        <time>2017-09-09T14:03:38Z</time>
      </trkpt>
      <trkpt lat="43.32655" lon="-0.53764">
        <ele>124.15</ele>
        <time>2017-09-09T14:03:39Z</time>
      </trkpt>
      <trkpt lat="43.3266" lon="-0.53758">
        <ele>124.15</ele>
        <time>2017-09-09T14:03:40Z</time>
      </trkpt>
      <trkpt lat="43.32665" lon="-0.53755">
        <ele>123.67</ele>
        <time>2017-09-09T14:03:41Z</time>
      </trkpt>
      <trkpt lat="43.32669" lon="-0.53753">
        <ele>123.67</ele>
        <time>2017-09-09T14:03:42Z</time>
      </trkpt>
      <trkpt lat="43.32672" lon="-0.53753">
        <ele>123.67</ele>
        <time>2017-09-09T14:03:43Z</time>
      </trkpt>
      <trkpt lat="43.32675" lon="-0.53754">
        <ele>123.19</ele>
        <time>2017-09-09T14:03:44Z</time>
      </trkpt>
      <trkpt lat="43.32677" lon="-0.53756">
        <ele>122.71</ele>
        <time>2017-09-09T14:03:45Z</time>
      </trkpt>
      <trkpt lat="43.32679" lon="-0.53758">
        <ele>122.71</ele>
        <time>2017-09-09T14:03:46Z</time>
      </trkpt>
      <trkpt lat="43.32681" lon="-0.53761">
        <ele>122.71</ele>
        <time>2017-09-09T14:03:47Z</time>
      </trkpt>
      <trkpt lat="43.32715" lon="-0.5379">
        <ele>125.11</ele>
        <time>2017-09-09T14:04:00Z</time>
      </trkpt>
      <trkpt lat="43.32729" lon="-0.53798">
        <ele>127.03</ele>
        <time>2017-09-09T14:04:06Z</time>
      </trkpt>
      <trkpt lat="43.3273" lon="-0.53798">
        <ele>127.51</ele>
        <time>2017-09-09T14:04:07Z</time>
      </trkpt>
      <trkpt lat="43.32734" lon="-0.538">
        <ele>129.43</ele>
        <time>2017-09-09T14:04:18Z</time>
      </trkpt>
      <trkpt lat="43.32736" lon="-0.53803">
        <ele>128.95</ele>
        <time>2017-09-09T14:04:56Z</time>
      </trkpt>
      <trkpt lat="43.32735" lon="-0.53802">
        <ele>127.51</ele>
        <time>2017-09-09T14:05:32Z</time>
      </trkpt>
      <trkpt lat="43.32736" lon="-0.53798">
        <ele>123.67</ele>
        <time>2017-09-09T14:06:18Z</time>
      </trkpt>
      <trkpt lat="43.32736" lon="-0.53797">
        <ele>128.95</ele>
        <time>2017-09-09T14:07:01Z</time>
      </trkpt>
      <trkpt lat="43.32736" lon="-0.53798">
        <ele>131.36</ele>
        <time>2017-09-09T14:07:49Z</time>
      </trkpt>
      <trkpt lat="43.32736" lon="-0.53795">
        <ele>134.24</ele>
        <time>2017-09-09T14:08:26Z</time>
      </trkpt>
      <trkpt lat="43.32737" lon="-0.53796">
        <ele>133.28</ele>
        <time>2017-09-09T14:09:04Z</time>
      </trkpt>
      <trkpt lat="43.32738" lon="-0.53797">
        <ele>132.8</ele>
        <time>2017-09-09T14:09:38Z</time>
      </trkpt>
      <trkpt lat="43.32736" lon="-0.53795">
        <ele>133.28</ele>
        <time>2017-09-09T14:10:18Z</time>
      </trkpt>
      <trkpt lat="43.32734" lon="-0.53797">
        <ele>136.16</ele>
        <time>2017-09-09T14:10:56Z</time>
      </trkpt>
      <trkpt lat="43.32733" lon="-0.53798">
        <ele>133.76</ele>
        <time>2017-09-09T14:11:38Z</time>
      </trkpt>
      <trkpt lat="43.32733" lon="-0.53798">
        <ele>136.64</ele>
        <time>2017-09-09T14:12:07Z</time>
      </trkpt>
      <trkpt lat="43.32734" lon="-0.538">
        <ele>136.64</ele>
        <time>2017-09-09T14:12:13Z</time>
      </trkpt>
      <trkpt lat="43.32735" lon="-0.53802">
        <ele>136.64</ele>
        <time>2017-09-09T14:12:14Z</time>
      </trkpt>
      <trkpt lat="43.32736" lon="-0.53803">
        <ele>136.64</ele>
        <time>2017-09-09T14:12:15Z</time>
      </trkpt>
      <trkpt lat="43.32763" lon="-0.5383">
        <ele>136.16</ele>
        <time>2017-09-09T14:12:29Z</time>
      </trkpt>
      <trkpt lat="43.32795" lon="-0.53852">
        <ele>135.2</ele>
        <time>2017-09-09T14:12:42Z</time>
      </trkpt>
      <trkpt lat="43.32833" lon="-0.53881">
        <ele>134.24</ele>
        <time>2017-09-09T14:12:56Z</time>
      </trkpt>
      <trkpt lat="43.32842" lon="-0.53896">
        <ele>134.72</ele>
        <time>2017-09-09T14:13:02Z</time>
      </trkpt>
      <trkpt lat="43.32844" lon="-0.53897">
        <ele>134.24</ele>
        <time>2017-09-09T14:13:03Z</time>
      </trkpt>
      <trkpt lat="43.32846" lon="-0.53898">
        <ele>134.24</ele>
        <time>2017-09-09T14:13:04Z</time>
      </trkpt>
      <trkpt lat="43.32848" lon="-0.53899">
        <ele>134.24</ele>
        <time>2017-09-09T14:13:05Z</time>
      </trkpt>
      <trkpt lat="43.3285" lon="-0.539">
        <ele>134.24</ele>
        <time>2017-09-09T14:13:06Z</time>
      </trkpt>
      <trkpt lat="43.32852" lon="-0.53902">
        <ele>134.24</ele>
        <time>2017-09-09T14:13:07Z</time>
      </trkpt>
      <trkpt lat="43.32854" lon="-0.53904">
        <ele>134.24</ele>
        <time>2017-09-09T14:13:08Z</time>
      </trkpt>
      <trkpt lat="43.32888" lon="-0.53927">
        <ele>136.16</ele>
        <time>2017-09-09T14:13:21Z</time>
      </trkpt>
      <trkpt lat="43.3289" lon="-0.53925">
        <ele>136.16</ele>
        <time>2017-09-09T14:13:22Z</time>
      </trkpt>
      <trkpt lat="43.32892" lon="-0.53922">
        <ele>135.68</ele>
        <time>2017-09-09T14:13:23Z</time>
      </trkpt>
      <trkpt lat="43.32894" lon="-0.53917">
        <ele>135.68</ele>
        <time>2017-09-09T14:13:24Z</time>
      </trkpt>
      <trkpt lat="43.32895" lon="-0.53912">
        <ele>135.68</ele>
        <time>2017-09-09T14:13:25Z</time>
      </trkpt>
      <trkpt lat="43.3293" lon="-0.53822">
        <ele>133.28</ele>
        <time>2017-09-09T14:13:40Z</time>
      </trkpt>
      <trkpt lat="43.32945" lon="-0.53795">
        <ele>132.8</ele>
        <time>2017-09-09T14:13:45Z</time>
      </trkpt>
      <trkpt lat="43.32949" lon="-0.5379">
        <ele>132.32</ele>
        <time>2017-09-09T14:13:46Z</time>
      </trkpt>
      <trkpt lat="43.32963" lon="-0.53773">
        <ele>132.8</ele>
        <time>2017-09-09T14:13:50Z</time>
      </trkpt>
      <trkpt lat="43.32968" lon="-0.5377">
        <ele>132.32</ele>
        <time>2017-09-09T14:13:51Z</time>
      </trkpt>
      <trkpt lat="43.33041" lon="-0.5372">
        <ele>132.8</ele>
        <time>2017-09-09T14:14:06Z</time>
      </trkpt>
      <trkpt lat="43.33137" lon="-0.53648">
        <ele>132.8</ele>
        <time>2017-09-09T14:14:26Z</time>
      </trkpt>
      <trkpt lat="43.3318" lon="-0.53596">
        <ele>132.32</ele>
        <time>2017-09-09T14:14:38Z</time>
      </trkpt>
      <trkpt lat="43.33184" lon="-0.53593">
        <ele>132.32</ele>
        <time>2017-09-09T14:14:39Z</time>
      </trkpt>
      <trkpt lat="43.33188" lon="-0.5359">
        <ele>131.84</ele>
        <time>2017-09-09T14:14:40Z</time>
      </trkpt>
      <trkpt lat="43.33192" lon="-0.53587">
        <ele>131.36</ele>
        <time>2017-09-09T14:14:41Z</time>
      </trkpt>
      <trkpt lat="43.33195" lon="-0.53583">
        <ele>131.36</ele>
        <time>2017-09-09T14:14:42Z</time>
      </trkpt>
      <trkpt lat="43.33198" lon="-0.53578">
        <ele>131.36</ele>
        <time>2017-09-09T14:14:43Z</time>
      </trkpt>
      <trkpt lat="43.33257" lon="-0.53503">
        <ele>129.92</ele>
        <time>2017-09-09T14:14:58Z</time>
      </trkpt>
      <trkpt lat="43.3331" lon="-0.53433">
        <ele>130.4</ele>
        <time>2017-09-09T14:15:13Z</time>
      </trkpt>
      <trkpt lat="43.33317" lon="-0.53425">
        <ele>130.88</ele>
        <time>2017-09-09T14:15:15Z</time>
      </trkpt>
      <trkpt lat="43.33353" lon="-0.53379">
        <ele>132.32</ele>
        <time>2017-09-09T14:15:26Z</time>
      </trkpt>
      <trkpt lat="43.33357" lon="-0.53379">
        <ele>132.32</ele>
        <time>2017-09-09T14:15:27Z</time>
      </trkpt>
      <trkpt lat="43.3336" lon="-0.53382">
        <ele>132.32</ele>
        <time>2017-09-09T14:15:28Z</time>
      </trkpt>
      <trkpt lat="43.33361" lon="-0.53385">
        <ele>132.32</ele>
        <time>2017-09-09T14:15:29Z</time>
      </trkpt>
      <trkpt lat="43.33363" lon="-0.53389">
        <ele>132.8</ele>
        <time>2017-09-09T14:15:30Z</time>
      </trkpt>
      <trkpt lat="43.33368" lon="-0.53403">
        <ele>132.8</ele>
        <time>2017-09-09T14:15:33Z</time>
      </trkpt>
      <trkpt lat="43.3337" lon="-0.53408">
        <ele>132.8</ele>
        <time>2017-09-09T14:15:34Z</time>
      </trkpt>
      <trkpt lat="43.33372" lon="-0.53413">
        <ele>132.8</ele>
        <time>2017-09-09T14:15:35Z</time>
      </trkpt>
      <trkpt lat="43.33375" lon="-0.53418">
        <ele>132.8</ele>
        <time>2017-09-09T14:15:36Z</time>
      </trkpt>
      <trkpt lat="43.33378" lon="-0.53422">
        <ele>132.8</ele>
        <time>2017-09-09T14:15:37Z</time>
      </trkpt>
      <trkpt lat="43.33381" lon="-0.53426">
        <ele>132.8</ele>
        <time>2017-09-09T14:15:38Z</time>
      </trkpt>
      <trkpt lat="43.33385" lon="-0.5343">
        <ele>133.28</ele>
        <time>2017-09-09T14:15:39Z</time>
      </trkpt>
      <trkpt lat="43.33452" lon="-0.53475">
        <ele>128.95</ele>
        <time>2017-09-09T14:15:53Z</time>
      </trkpt>
      <trkpt lat="43.3352" lon="-0.53498">
        <ele>126.55</ele>
        <time>2017-09-09T14:16:06Z</time>
      </trkpt>
      <trkpt lat="43.33569" lon="-0.53511">
        <ele>124.15</ele>
        <time>2017-09-09T14:16:15Z</time>
      </trkpt>
      <trkpt lat="43.33574" lon="-0.53513">
        <ele>124.15</ele>
        <time>2017-09-09T14:16:16Z</time>
      </trkpt>
      <trkpt lat="43.33585" lon="-0.53516">
        <ele>124.63</ele>
        <time>2017-09-09T14:16:18Z</time>
      </trkpt>
      <trkpt lat="43.33612" lon="-0.53534">
        <ele>124.63</ele>
        <time>2017-09-09T14:16:24Z</time>
      </trkpt>
      <trkpt lat="43.33616" lon="-0.53538">
        <ele>124.63</ele>
        <time>2017-09-09T14:16:25Z</time>
      </trkpt>
      <trkpt lat="43.33641" lon="-0.53562">
        <ele>125.11</ele>
        <time>2017-09-09T14:16:31Z</time>
      </trkpt>
      <trkpt lat="43.33644" lon="-0.53566">
        <ele>125.11</ele>
        <time>2017-09-09T14:16:32Z</time>
      </trkpt>
      <trkpt lat="43.33647" lon="-0.53571">
        <ele>124.63</ele>
        <time>2017-09-09T14:16:33Z</time>
      </trkpt>
      <trkpt lat="43.33665" lon="-0.53602">
        <ele>124.15</ele>
        <time>2017-09-09T14:16:39Z</time>
      </trkpt>
      <trkpt lat="43.33673" lon="-0.53619">
        <ele>124.15</ele>
        <time>2017-09-09T14:16:42Z</time>
      </trkpt>
      <trkpt lat="43.33729" lon="-0.5371">
        <ele>124.15</ele>
        <time>2017-09-09T14:16:58Z</time>
      </trkpt>
      <trkpt lat="43.33745" lon="-0.53731">
        <ele>124.15</ele>
        <time>2017-09-09T14:17:02Z</time>
      </trkpt>
      <trkpt lat="43.33779" lon="-0.5378">
        <ele>124.63</ele>
        <time>2017-09-09T14:17:12Z</time>
      </trkpt>
      <trkpt lat="43.33792" lon="-0.53806">
        <ele>124.63</ele>
        <time>2017-09-09T14:17:17Z</time>
      </trkpt>
      <trkpt lat="43.33813" lon="-0.53837">
        <ele>123.67</ele>
        <time>2017-09-09T14:17:23Z</time>
      </trkpt>
      <trkpt lat="43.33821" lon="-0.53847">
        <ele>123.67</ele>
        <time>2017-09-09T14:17:25Z</time>
      </trkpt>
      <trkpt lat="43.33844" lon="-0.53872">
        <ele>122.71</ele>
        <time>2017-09-09T14:17:30Z</time>
      </trkpt>
      <trkpt lat="43.33854" lon="-0.5388">
        <ele>122.71</ele>
        <time>2017-09-09T14:17:32Z</time>
      </trkpt>
      <trkpt lat="43.33917" lon="-0.53912">
        <ele>124.15</ele>
        <time>2017-09-09T14:17:44Z</time>
      </trkpt>
      <trkpt lat="43.33979" lon="-0.53962">
        <ele>126.07</ele>
        <time>2017-09-09T14:17:56Z</time>
      </trkpt>
      <trkpt lat="43.34003" lon="-0.53982">
        <ele>128.47</ele>
        <time>2017-09-09T14:18:01Z</time>
      </trkpt>
      <trkpt lat="43.3402" lon="-0.53999">
        <ele>129.43</ele>
        <time>2017-09-09T14:18:05Z</time>
      </trkpt>
      <trkpt lat="43.34023" lon="-0.54004">
        <ele>129.43</ele>
        <time>2017-09-09T14:18:06Z</time>
      </trkpt>
      <trkpt lat="43.34073" lon="-0.54078">
        <ele>129.43</ele>
        <time>2017-09-09T14:18:20Z</time>
      </trkpt>
      <trkpt lat="43.34138" lon="-0.54165">
        <ele>127.51</ele>
        <time>2017-09-09T14:18:36Z</time>
      </trkpt>
      <trkpt lat="43.34206" lon="-0.54215">
        <ele>124.15</ele>
        <time>2017-09-09T14:18:48Z</time>
      </trkpt>
      <trkpt lat="43.34236" lon="-0.54232">
        <ele>124.15</ele>
        <time>2017-09-09T14:18:54Z</time>
      </trkpt>
      <trkpt lat="43.3425" lon="-0.54245">
        <ele>124.15</ele>
        <time>2017-09-09T14:18:57Z</time>
      </trkpt>
      <trkpt lat="43.34261" lon="-0.5426">
        <ele>124.63</ele>
        <time>2017-09-09T14:19:00Z</time>
      </trkpt>
      <trkpt lat="43.34301" lon="-0.54331">
        <ele>127.03</ele>
        <time>2017-09-09T14:19:12Z</time>
      </trkpt>
      <trkpt lat="43.34309" lon="-0.54352">
        <ele>127.51</ele>
        <time>2017-09-09T14:19:15Z</time>
      </trkpt>
      <trkpt lat="43.34311" lon="-0.5436">
        <ele>127.51</ele>
        <time>2017-09-09T14:19:16Z</time>
      </trkpt>
      <trkpt lat="43.34321" lon="-0.54402">
        <ele>125.59</ele>
        <time>2017-09-09T14:19:21Z</time>
      </trkpt>
      <trkpt lat="43.34324" lon="-0.5441">
        <ele>125.11</ele>
        <time>2017-09-09T14:19:22Z</time>
      </trkpt>
      <trkpt lat="43.34327" lon="-0.54417">
        <ele>124.63</ele>
        <time>2017-09-09T14:19:23Z</time>
      </trkpt>
      <trkpt lat="43.3433" lon="-0.54423">
        <ele>124.63</ele>
        <time>2017-09-09T14:19:24Z</time>
      </trkpt>
      <trkpt lat="43.34335" lon="-0.54429">
        <ele>124.15</ele>
        <time>2017-09-09T14:19:25Z</time>
      </trkpt>
      <trkpt lat="43.34339" lon="-0.54435">
        <ele>124.15</ele>
        <time>2017-09-09T14:19:26Z</time>
      </trkpt>
      <trkpt lat="43.34391" lon="-0.5449">
        <ele>121.74</ele>
        <time>2017-09-09T14:19:39Z</time>
      </trkpt>
      <trkpt lat="43.34419" lon="-0.54503">
        <ele>122.22</ele>
        <time>2017-09-09T14:19:45Z</time>
      </trkpt>
      <trkpt lat="43.34455" lon="-0.54509">
        <ele>122.71</ele>
        <time>2017-09-09T14:19:52Z</time>
      </trkpt>
      <trkpt lat="43.34459" lon="-0.54511">
        <ele>122.71</ele>
        <time>2017-09-09T14:19:53Z</time>
      </trkpt>
      <trkpt lat="43.34492" lon="-0.54529">
        <ele>125.11</ele>
        <time>2017-09-09T14:20:00Z</time>
      </trkpt>
      <trkpt lat="43.34496" lon="-0.54531">
        <ele>125.59</ele>
        <time>2017-09-09T14:20:01Z</time>
      </trkpt>
      <trkpt lat="43.34517" lon="-0.54545">
        <ele>127.99</ele>
        <time>2017-09-09T14:20:06Z</time>
      </trkpt>
      <trkpt lat="43.34521" lon="-0.54546">
        <ele>128.47</ele>
        <time>2017-09-09T14:20:07Z</time>
      </trkpt>
      <trkpt lat="43.34526" lon="-0.54547">
        <ele>128.95</ele>
        <time>2017-09-09T14:20:08Z</time>
      </trkpt>
      <trkpt lat="43.3453" lon="-0.54547">
        <ele>129.43</ele>
        <time>2017-09-09T14:20:09Z</time>
      </trkpt>
      <trkpt lat="43.34535" lon="-0.54547">
        <ele>129.43</ele>
        <time>2017-09-09T14:20:10Z</time>
      </trkpt>
      <trkpt lat="43.34539" lon="-0.54545">
        <ele>129.92</ele>
        <time>2017-09-09T14:20:11Z</time>
      </trkpt>
      <trkpt lat="43.34544" lon="-0.54544">
        <ele>129.92</ele>
        <time>2017-09-09T14:20:12Z</time>
      </trkpt>
      <trkpt lat="43.34554" lon="-0.5454">
        <ele>130.4</ele>
        <time>2017-09-09T14:20:14Z</time>
      </trkpt>
      <trkpt lat="43.34558" lon="-0.5454">
        <ele>130.4</ele>
        <time>2017-09-09T14:20:15Z</time>
      </trkpt>
      <trkpt lat="43.34562" lon="-0.5454">
        <ele>129.92</ele>
        <time>2017-09-09T14:20:16Z</time>
      </trkpt>
      <trkpt lat="43.34567" lon="-0.54542">
        <ele>129.92</ele>
        <time>2017-09-09T14:20:17Z</time>
      </trkpt>
      <trkpt lat="43.34571" lon="-0.54545">
        <ele>129.92</ele>
        <time>2017-09-09T14:20:18Z</time>
      </trkpt>
      <trkpt lat="43.34575" lon="-0.54549">
        <ele>129.43</ele>
        <time>2017-09-09T14:20:19Z</time>
      </trkpt>
      <trkpt lat="43.34578" lon="-0.54555">
        <ele>129.43</ele>
        <time>2017-09-09T14:20:20Z</time>
      </trkpt>
      <trkpt lat="43.34581" lon="-0.5456">
        <ele>129.43</ele>
        <time>2017-09-09T14:20:21Z</time>
      </trkpt>
      <trkpt lat="43.34583" lon="-0.54566">
        <ele>129.43</ele>
        <time>2017-09-09T14:20:22Z</time>
      </trkpt>
      <trkpt lat="43.34585" lon="-0.54573">
        <ele>129.43</ele>
        <time>2017-09-09T14:20:23Z</time>
      </trkpt>
      <trkpt lat="43.34587" lon="-0.5458">
        <ele>129.43</ele>
        <time>2017-09-09T14:20:24Z</time>
      </trkpt>
      <trkpt lat="43.34591" lon="-0.54593">
        <ele>129.43</ele>
        <time>2017-09-09T14:20:26Z</time>
      </trkpt>
      <trkpt lat="43.34592" lon="-0.546">
        <ele>129.43</ele>
        <time>2017-09-09T14:20:27Z</time>
      </trkpt>
      <trkpt lat="43.34593" lon="-0.54607">
        <ele>128.95</ele>
        <time>2017-09-09T14:20:28Z</time>
      </trkpt>
      <trkpt lat="43.34595" lon="-0.54614">
        <ele>128.47</ele>
        <time>2017-09-09T14:20:29Z</time>
      </trkpt>
      <trkpt lat="43.34596" lon="-0.54621">
        <ele>128.47</ele>
        <time>2017-09-09T14:20:30Z</time>
      </trkpt>
      <trkpt lat="43.34597" lon="-0.54627">
        <ele>128.95</ele>
        <time>2017-09-09T14:20:31Z</time>
      </trkpt>
      <trkpt lat="43.34598" lon="-0.54634">
        <ele>129.43</ele>
        <time>2017-09-09T14:20:32Z</time>
      </trkpt>
      <trkpt lat="43.346" lon="-0.54639">
        <ele>129.92</ele>
        <time>2017-09-09T14:20:33Z</time>
      </trkpt>
      <trkpt lat="43.34602" lon="-0.54645">
        <ele>130.4</ele>
        <time>2017-09-09T14:20:34Z</time>
      </trkpt>
      <trkpt lat="43.34605" lon="-0.54649">
        <ele>130.88</ele>
        <time>2017-09-09T14:20:35Z</time>
      </trkpt>
      <trkpt lat="43.34607" lon="-0.54653">
        <ele>131.36</ele>
        <time>2017-09-09T14:20:36Z</time>
      </trkpt>
      <trkpt lat="43.34611" lon="-0.54656">
        <ele>132.32</ele>
        <time>2017-09-09T14:20:37Z</time>
      </trkpt>
      <trkpt lat="43.34615" lon="-0.54658">
        <ele>132.32</ele>
        <time>2017-09-09T14:20:38Z</time>
      </trkpt>
      <trkpt lat="43.3462" lon="-0.5466">
        <ele>132.8</ele>
        <time>2017-09-09T14:20:39Z</time>
      </trkpt>
      <trkpt lat="43.34625" lon="-0.54661">
        <ele>132.8</ele>
        <time>2017-09-09T14:20:40Z</time>
      </trkpt>
      <trkpt lat="43.34629" lon="-0.54662">
        <ele>132.8</ele>
        <time>2017-09-09T14:20:41Z</time>
      </trkpt>
      <trkpt lat="43.34638" lon="-0.54663">
        <ele>133.76</ele>
        <time>2017-09-09T14:20:43Z</time>
      </trkpt>
      <trkpt lat="43.34643" lon="-0.54664">
        <ele>133.76</ele>
        <time>2017-09-09T14:20:44Z</time>
      </trkpt>
      <trkpt lat="43.34646" lon="-0.54666">
        <ele>134.24</ele>
        <time>2017-09-09T14:20:45Z</time>
      </trkpt>
      <trkpt lat="43.34658" lon="-0.54673">
        <ele>133.28</ele>
        <time>2017-09-09T14:20:48Z</time>
      </trkpt>
      <trkpt lat="43.34663" lon="-0.54677">
        <ele>132.32</ele>
        <time>2017-09-09T14:20:49Z</time>
      </trkpt>
      <trkpt lat="43.34668" lon="-0.54681">
        <ele>131.36</ele>
        <time>2017-09-09T14:20:50Z</time>
      </trkpt>
      <trkpt lat="43.34674" lon="-0.54686">
        <ele>130.88</ele>
        <time>2017-09-09T14:20:51Z</time>
      </trkpt>
      <trkpt lat="43.34679" lon="-0.5469">
        <ele>129.92</ele>
        <time>2017-09-09T14:20:52Z</time>
      </trkpt>
      <trkpt lat="43.34699" lon="-0.54707">
        <ele>127.99</ele>
        <time>2017-09-09T14:20:56Z</time>
      </trkpt>
      <trkpt lat="43.34704" lon="-0.54711">
        <ele>127.99</ele>
        <time>2017-09-09T14:20:57Z</time>
      </trkpt>
      <trkpt lat="43.34728" lon="-0.54729">
        <ele>127.03</ele>
        <time>2017-09-09T14:21:02Z</time>
      </trkpt>
      <trkpt lat="43.34732" lon="-0.54733">
        <ele>127.03</ele>
        <time>2017-09-09T14:21:03Z</time>
      </trkpt>
      <trkpt lat="43.34736" lon="-0.54737">
        <ele>126.55</ele>
        <time>2017-09-09T14:21:04Z</time>
      </trkpt>
      <trkpt lat="43.34761" lon="-0.54765">
        <ele>124.15</ele>
        <time>2017-09-09T14:21:10Z</time>
      </trkpt>
      <trkpt lat="43.34816" lon="-0.54836">
        <ele>117.9</ele>
        <time>2017-09-09T14:21:20Z</time>
      </trkpt>
      <trkpt lat="43.34821" lon="-0.54843">
        <ele>117.9</ele>
        <time>2017-09-09T14:21:21Z</time>
      </trkpt>
      <trkpt lat="43.34825" lon="-0.54851">
        <ele>117.9</ele>
        <time>2017-09-09T14:21:22Z</time>
      </trkpt>
      <trkpt lat="43.3484" lon="-0.54876">
        <ele>119.34</ele>
        <time>2017-09-09T14:21:26Z</time>
      </trkpt>
      <trkpt lat="43.34844" lon="-0.5488">
        <ele>119.34</ele>
        <time>2017-09-09T14:21:27Z</time>
      </trkpt>
      <trkpt lat="43.34848" lon="-0.54884">
        <ele>119.34</ele>
        <time>2017-09-09T14:21:28Z</time>
      </trkpt>
      <trkpt lat="43.34853" lon="-0.54886">
        <ele>119.34</ele>
        <time>2017-09-09T14:21:29Z</time>
      </trkpt>
      <trkpt lat="43.34858" lon="-0.54887">
        <ele>119.34</ele>
        <time>2017-09-09T14:21:30Z</time>
      </trkpt>
      <trkpt lat="43.34863" lon="-0.54888">
        <ele>119.82</ele>
        <time>2017-09-09T14:21:31Z</time>
      </trkpt>
      <trkpt lat="43.34868" lon="-0.54889">
        <ele>119.82</ele>
        <time>2017-09-09T14:21:32Z</time>
      </trkpt>
      <trkpt lat="43.34883" lon="-0.54891">
        <ele>120.3</ele>
        <time>2017-09-09T14:21:35Z</time>
      </trkpt>
      <trkpt lat="43.34887" lon="-0.54892">
        <ele>120.3</ele>
        <time>2017-09-09T14:21:36Z</time>
      </trkpt>
      <trkpt lat="43.34892" lon="-0.54894">
        <ele>120.3</ele>
        <time>2017-09-09T14:21:37Z</time>
      </trkpt>
      <trkpt lat="43.34897" lon="-0.54896">
        <ele>120.78</ele>
        <time>2017-09-09T14:21:38Z</time>
      </trkpt>
      <trkpt lat="43.34901" lon="-0.54898">
        <ele>120.78</ele>
        <time>2017-09-09T14:21:39Z</time>
      </trkpt>
      <trkpt lat="43.34905" lon="-0.54901">
        <ele>120.78</ele>
        <time>2017-09-09T14:21:40Z</time>
      </trkpt>
      <trkpt lat="43.34942" lon="-0.54931">
        <ele>121.74</ele>
        <time>2017-09-09T14:21:48Z</time>
      </trkpt>
      <trkpt lat="43.34946" lon="-0.54936">
        <ele>121.74</ele>
        <time>2017-09-09T14:21:49Z</time>
      </trkpt>
      <trkpt lat="43.3495" lon="-0.54943">
        <ele>121.26</ele>
        <time>2017-09-09T14:21:50Z</time>
      </trkpt>
      <trkpt lat="43.34967" lon="-0.54977">
        <ele>120.3</ele>
        <time>2017-09-09T14:21:54Z</time>
      </trkpt>
      <trkpt lat="43.35026" lon="-0.55057">
        <ele>119.34</ele>
        <time>2017-09-09T14:22:07Z</time>
      </trkpt>
      <trkpt lat="43.35044" lon="-0.55074">
        <ele>119.34</ele>
        <time>2017-09-09T14:22:11Z</time>
      </trkpt>
      <trkpt lat="43.35049" lon="-0.55076">
        <ele>119.34</ele>
        <time>2017-09-09T14:22:12Z</time>
      </trkpt>
      <trkpt lat="43.35116" lon="-0.55108">
        <ele>118.38</ele>
        <time>2017-09-09T14:22:26Z</time>
      </trkpt>
      <trkpt lat="43.35147" lon="-0.55123">
        <ele>117.42</ele>
        <time>2017-09-09T14:22:32Z</time>
      </trkpt>
      <trkpt lat="43.35152" lon="-0.55127">
        <ele>117.42</ele>
        <time>2017-09-09T14:22:33Z</time>
      </trkpt>
      <trkpt lat="43.35157" lon="-0.55131">
        <ele>117.42</ele>
        <time>2017-09-09T14:22:34Z</time>
      </trkpt>
      <trkpt lat="43.35161" lon="-0.55135">
        <ele>116.94</ele>
        <time>2017-09-09T14:22:35Z</time>
      </trkpt>
      <trkpt lat="43.35165" lon="-0.5514">
        <ele>116.94</ele>
        <time>2017-09-09T14:22:36Z</time>
      </trkpt>
      <trkpt lat="43.35169" lon="-0.55146">
        <ele>116.94</ele>
        <time>2017-09-09T14:22:37Z</time>
      </trkpt>
      <trkpt lat="43.35173" lon="-0.55152">
        <ele>116.94</ele>
        <time>2017-09-09T14:22:38Z</time>
      </trkpt>
      <trkpt lat="43.3519" lon="-0.55182">
        <ele>116.46</ele>
        <time>2017-09-09T14:22:43Z</time>
      </trkpt>
      <trkpt lat="43.35194" lon="-0.55188">
        <ele>115.98</ele>
        <time>2017-09-09T14:22:44Z</time>
      </trkpt>
      <trkpt lat="43.35198" lon="-0.55194">
        <ele>115.98</ele>
        <time>2017-09-09T14:22:45Z</time>
      </trkpt>
      <trkpt lat="43.35202" lon="-0.55201">
        <ele>115.98</ele>
        <time>2017-09-09T14:22:46Z</time>
      </trkpt>
      <trkpt lat="43.35205" lon="-0.55207">
        <ele>115.98</ele>
        <time>2017-09-09T14:22:47Z</time>
      </trkpt>
      <trkpt lat="43.35212" lon="-0.55222">
        <ele>115.5</ele>
        <time>2017-09-09T14:22:49Z</time>
      </trkpt>
      <trkpt lat="43.35214" lon="-0.5523">
        <ele>115.5</ele>
        <time>2017-09-09T14:22:50Z</time>
      </trkpt>
      <trkpt lat="43.35216" lon="-0.55238">
        <ele>115.5</ele>
        <time>2017-09-09T14:22:51Z</time>
      </trkpt>
      <trkpt lat="43.35218" lon="-0.55246">
        <ele>115.98</ele>
        <time>2017-09-09T14:22:52Z</time>
      </trkpt>
      <trkpt lat="43.35219" lon="-0.55254">
        <ele>115.98</ele>
        <time>2017-09-09T14:22:53Z</time>
      </trkpt>
      <trkpt lat="43.35221" lon="-0.5527">
        <ele>115.98</ele>
        <time>2017-09-09T14:22:55Z</time>
      </trkpt>
      <trkpt lat="43.35221" lon="-0.55312">
        <ele>115.5</ele>
        <time>2017-09-09T14:23:01Z</time>
      </trkpt>
      <trkpt lat="43.35217" lon="-0.55334">
        <ele>114.05</ele>
        <time>2017-09-09T14:23:10Z</time>
      </trkpt>
      <trkpt lat="43.35217" lon="-0.55334">
        <ele>114.05</ele>
        <time>2017-09-09T14:23:14Z</time>
      </trkpt>
    </trkseg>
  </trk>
</gpx>